<?xml version="1.0" encoding="UTF-8" standalone="no" ?>
<gpx xmlns="http://www.topografix.com/GPX/1/1" xmlns:xsi="http://www.w3.org/2001/XMLSchema-instance" xsi:schemaLocation="http://www.topografix.com/GPX/1/1 http://www.topografix.com/GPX/1/1/gpx.xsd" version="1.1" creator="VisuGPX - https://www.visugpx.com">
  <metadata>
    <name>Vivinne 12 Km</name>
    <desc><![CDATA[Randonnée en boucle de 12 Km au départ de vivonne]]></desc>
  </metadata>
  <trk>
    <name><![CDATA[Vivinne 12 Km_1]]></name>
    <trkseg>
      <trkpt lat="46.42604" lon="0.26291">
        <ele>98.670415129253</ele>
        <time>2021-05-30T06:54:57Z</time>
      </trkpt>
      <trkpt lat="46.42612" lon="0.26289">
        <ele>98.114396800452</ele>
        <time>2021-05-30T06:55:08Z</time>
      </trkpt>
      <trkpt lat="46.42618" lon="0.26283">
        <ele>97.535881929839</ele>
        <time>2021-05-30T06:55:18Z</time>
      </trkpt>
      <trkpt lat="46.42625" lon="0.26275">
        <ele>97.276086335695</ele>
        <time>2021-05-30T06:55:24Z</time>
      </trkpt>
      <trkpt lat="46.42631" lon="0.26267">
        <ele>97.039371995521</ele>
        <time>2021-05-30T06:55:30Z</time>
      </trkpt>
      <trkpt lat="46.42637" lon="0.26259">
        <ele>96.745351573468</ele>
        <time>2021-05-30T06:55:37Z</time>
      </trkpt>
      <trkpt lat="46.42643" lon="0.2625">
        <ele>96.338612298878</ele>
        <time>2021-05-30T06:55:47Z</time>
      </trkpt>
      <trkpt lat="46.42649" lon="0.26242">
        <ele>96.177966400601</ele>
        <time>2021-05-30T06:55:53Z</time>
      </trkpt>
      <trkpt lat="46.42655" lon="0.26233">
        <ele>96.092431244372</ele>
        <time>2021-05-30T06:55:59Z</time>
      </trkpt>
      <trkpt lat="46.42661" lon="0.26227">
        <ele>96.059104557215</ele>
        <time>2021-05-30T06:56:03Z</time>
      </trkpt>
      <trkpt lat="46.4267" lon="0.26228">
        <ele>95.943401474177</ele>
        <time>2021-05-30T06:56:15Z</time>
      </trkpt>
      <trkpt lat="46.42677" lon="0.26223">
        <ele>95.844960402191</ele>
        <time>2021-05-30T06:56:24Z</time>
      </trkpt>
      <trkpt lat="46.42685" lon="0.26217">
        <ele>96.011698365059</ele>
        <time>2021-05-30T06:56:34Z</time>
      </trkpt>
      <trkpt lat="46.42692" lon="0.26213">
        <ele>96.177535531814</ele>
        <time>2021-05-30T06:56:39Z</time>
      </trkpt>
      <trkpt lat="46.427" lon="0.26211">
        <ele>96.355341302958</ele>
        <time>2021-05-30T06:56:44Z</time>
      </trkpt>
      <trkpt lat="46.42706" lon="0.2622">
        <ele>96.613329947905</ele>
        <time>2021-05-30T06:56:51Z</time>
      </trkpt>
      <trkpt lat="46.42711" lon="0.26228">
        <ele>96.871019273253</ele>
        <time>2021-05-30T06:56:58Z</time>
      </trkpt>
      <trkpt lat="46.42718" lon="0.26236">
        <ele>97.18308595189</ele>
        <time>2021-05-30T06:57:06Z</time>
      </trkpt>
      <trkpt lat="46.42722" lon="0.26246">
        <ele>97.470167022609</ele>
        <time>2021-05-30T06:57:13Z</time>
      </trkpt>
      <trkpt lat="46.42729" lon="0.26253">
        <ele>97.745072086967</ele>
        <time>2021-05-30T06:57:19Z</time>
      </trkpt>
      <trkpt lat="46.4274" lon="0.26254">
        <ele>98.017698961442</ele>
        <time>2021-05-30T06:57:24Z</time>
      </trkpt>
      <trkpt lat="46.42749" lon="0.26249">
        <ele>98.301420594818</ele>
        <time>2021-05-30T06:57:29Z</time>
      </trkpt>
      <trkpt lat="46.42756" lon="0.26244">
        <ele>98.57360380379</ele>
        <time>2021-05-30T06:57:34Z</time>
      </trkpt>
      <trkpt lat="46.42762" lon="0.26238">
        <ele>98.871398399225</ele>
        <time>2021-05-30T06:57:40Z</time>
      </trkpt>
      <trkpt lat="46.4277" lon="0.26232">
        <ele>99.188052252214</ele>
        <time>2021-05-30T06:57:47Z</time>
      </trkpt>
      <trkpt lat="46.42777" lon="0.26226">
        <ele>99.511609736973</ele>
        <time>2021-05-30T06:57:55Z</time>
      </trkpt>
      <trkpt lat="46.42781" lon="0.26216">
        <ele>99.721617244693</ele>
        <time>2021-05-30T06:58:01Z</time>
      </trkpt>
      <trkpt lat="46.42786" lon="0.26205">
        <ele>99.93214950806</ele>
        <time>2021-05-30T06:58:08Z</time>
      </trkpt>
      <trkpt lat="46.42791" lon="0.26194">
        <ele>100.12237638196</ele>
        <time>2021-05-30T06:58:16Z</time>
      </trkpt>
      <trkpt lat="46.42798" lon="0.26186">
        <ele>100.26724410053</ele>
        <time>2021-05-30T06:58:24Z</time>
      </trkpt>
      <trkpt lat="46.42804" lon="0.26177">
        <ele>100.39375647247</ele>
        <time>2021-05-30T06:58:32Z</time>
      </trkpt>
      <trkpt lat="46.42809" lon="0.26167">
        <ele>100.51754364835</ele>
        <time>2021-05-30T06:58:40Z</time>
      </trkpt>
      <trkpt lat="46.42814" lon="0.26157">
        <ele>100.65869205169</ele>
        <time>2021-05-30T06:58:48Z</time>
      </trkpt>
      <trkpt lat="46.42823" lon="0.26154">
        <ele>100.90466367296</ele>
        <time>2021-05-30T06:58:58Z</time>
      </trkpt>
      <trkpt lat="46.42831" lon="0.26153">
        <ele>101.11015474281</ele>
        <time>2021-05-30T06:59:05Z</time>
      </trkpt>
      <trkpt lat="46.42839" lon="0.2615">
        <ele>101.37679849764</ele>
        <time>2021-05-30T06:59:13Z</time>
      </trkpt>
      <trkpt lat="46.42846" lon="0.26145">
        <ele>101.54013961604</ele>
        <time>2021-05-30T06:59:18Z</time>
      </trkpt>
      <trkpt lat="46.42854" lon="0.2614">
        <ele>101.71381423953</ele>
        <time>2021-05-30T06:59:24Z</time>
      </trkpt>
      <trkpt lat="46.42862" lon="0.2614">
        <ele>101.89979038388</ele>
        <time>2021-05-30T06:59:31Z</time>
      </trkpt>
      <trkpt lat="46.42871" lon="0.26141">
        <ele>102.05699940482</ele>
        <time>2021-05-30T06:59:37Z</time>
      </trkpt>
      <trkpt lat="46.42879" lon="0.2614">
        <ele>102.25192351039</ele>
        <time>2021-05-30T06:59:44Z</time>
      </trkpt>
      <trkpt lat="46.42888" lon="0.26139">
        <ele>102.45570188493</ele>
        <time>2021-05-30T06:59:51Z</time>
      </trkpt>
      <trkpt lat="46.42896" lon="0.26139">
        <ele>102.66228033669</ele>
        <time>2021-05-30T06:59:58Z</time>
      </trkpt>
      <trkpt lat="46.42904" lon="0.26139">
        <ele>102.8633209141</ele>
        <time>2021-05-30T07:00:04Z</time>
      </trkpt>
      <trkpt lat="46.42912" lon="0.26138">
        <ele>103.12874752939</ele>
        <time>2021-05-30T07:00:11Z</time>
      </trkpt>
      <trkpt lat="46.42921" lon="0.26139">
        <ele>103.46724145013</ele>
        <time>2021-05-30T07:00:19Z</time>
      </trkpt>
      <trkpt lat="46.42927" lon="0.26131">
        <ele>103.86649363476</ele>
        <time>2021-05-30T07:00:28Z</time>
      </trkpt>
      <trkpt lat="46.42933" lon="0.26121">
        <ele>104.24367637877</ele>
        <time>2021-05-30T07:00:36Z</time>
      </trkpt>
      <trkpt lat="46.42936" lon="0.2611">
        <ele>104.54670135057</ele>
        <time>2021-05-30T07:00:42Z</time>
      </trkpt>
      <trkpt lat="46.42941" lon="0.261">
        <ele>104.79676797074</ele>
        <time>2021-05-30T07:00:47Z</time>
      </trkpt>
      <trkpt lat="46.42945" lon="0.26089">
        <ele>105.18022612107</ele>
        <time>2021-05-30T07:00:55Z</time>
      </trkpt>
      <trkpt lat="46.4295" lon="0.2608">
        <ele>105.53672283507</ele>
        <time>2021-05-30T07:01:03Z</time>
      </trkpt>
      <trkpt lat="46.42955" lon="0.2607">
        <ele>105.82712970994</ele>
        <time>2021-05-30T07:01:10Z</time>
      </trkpt>
      <trkpt lat="46.42961" lon="0.26061">
        <ele>106.14313294418</ele>
        <time>2021-05-30T07:01:18Z</time>
      </trkpt>
      <trkpt lat="46.42967" lon="0.26051">
        <ele>106.42815624859</ele>
        <time>2021-05-30T07:01:25Z</time>
      </trkpt>
      <trkpt lat="46.42971" lon="0.26042">
        <ele>106.66057264658</ele>
        <time>2021-05-30T07:01:31Z</time>
      </trkpt>
      <trkpt lat="46.42979" lon="0.26036">
        <ele>107.18513145672</ele>
        <time>2021-05-30T07:01:45Z</time>
      </trkpt>
      <trkpt lat="46.42984" lon="0.26027">
        <ele>107.65232360824</ele>
        <time>2021-05-30T07:01:56Z</time>
      </trkpt>
      <trkpt lat="46.42989" lon="0.26018">
        <ele>107.87011807039</ele>
        <time>2021-05-30T07:02:01Z</time>
      </trkpt>
      <trkpt lat="46.42994" lon="0.26007">
        <ele>108.08339221357</ele>
        <time>2021-05-30T07:02:06Z</time>
      </trkpt>
      <trkpt lat="46.42998" lon="0.25997">
        <ele>108.33802960294</ele>
        <time>2021-05-30T07:02:12Z</time>
      </trkpt>
      <trkpt lat="46.43003" lon="0.25987">
        <ele>108.58209596931</ele>
        <time>2021-05-30T07:02:18Z</time>
      </trkpt>
      <trkpt lat="46.43008" lon="0.25978">
        <ele>108.81627650217</ele>
        <time>2021-05-30T07:02:24Z</time>
      </trkpt>
      <trkpt lat="46.43014" lon="0.2597">
        <ele>109.05052173203</ele>
        <time>2021-05-30T07:02:30Z</time>
      </trkpt>
      <trkpt lat="46.43021" lon="0.25962">
        <ele>109.24891769627</ele>
        <time>2021-05-30T07:02:35Z</time>
      </trkpt>
      <trkpt lat="46.43027" lon="0.25955">
        <ele>109.4092296817</ele>
        <time>2021-05-30T07:02:39Z</time>
      </trkpt>
      <trkpt lat="46.43034" lon="0.25948">
        <ele>109.65029816748</ele>
        <time>2021-05-30T07:02:45Z</time>
      </trkpt>
      <trkpt lat="46.43041" lon="0.25943">
        <ele>109.92712961602</ele>
        <time>2021-05-30T07:02:52Z</time>
      </trkpt>
      <trkpt lat="46.43049" lon="0.25937">
        <ele>110.16229133621</ele>
        <time>2021-05-30T07:02:58Z</time>
      </trkpt>
      <trkpt lat="46.43056" lon="0.25932">
        <ele>110.38504790677</ele>
        <time>2021-05-30T07:03:04Z</time>
      </trkpt>
      <trkpt lat="46.43064" lon="0.25927">
        <ele>110.66679001173</ele>
        <time>2021-05-30T07:03:12Z</time>
      </trkpt>
      <trkpt lat="46.43072" lon="0.25922">
        <ele>110.9458161534</ele>
        <time>2021-05-30T07:03:20Z</time>
      </trkpt>
      <trkpt lat="46.4308" lon="0.25917">
        <ele>111.18879421422</ele>
        <time>2021-05-30T07:03:27Z</time>
      </trkpt>
      <trkpt lat="46.43088" lon="0.25913">
        <ele>111.4366992107</ele>
        <time>2021-05-30T07:03:34Z</time>
      </trkpt>
      <trkpt lat="46.43095" lon="0.25907">
        <ele>111.69234172335</ele>
        <time>2021-05-30T07:03:41Z</time>
      </trkpt>
      <trkpt lat="46.43102" lon="0.259">
        <ele>111.93390673952</ele>
        <time>2021-05-30T07:03:48Z</time>
      </trkpt>
      <trkpt lat="46.43109" lon="0.25893">
        <ele>112.19531434947</ele>
        <time>2021-05-30T07:03:56Z</time>
      </trkpt>
      <trkpt lat="46.43114" lon="0.25884">
        <ele>112.38442692459</ele>
        <time>2021-05-30T07:04:02Z</time>
      </trkpt>
      <trkpt lat="46.43119" lon="0.25875">
        <ele>112.56798129453</ele>
        <time>2021-05-30T07:04:08Z</time>
      </trkpt>
      <trkpt lat="46.43126" lon="0.25868">
        <ele>112.75432913559</ele>
        <time>2021-05-30T07:04:14Z</time>
      </trkpt>
      <trkpt lat="46.43132" lon="0.25861">
        <ele>112.9773690259</ele>
        <time>2021-05-30T07:04:21Z</time>
      </trkpt>
      <trkpt lat="46.43138" lon="0.25851">
        <ele>113.16950998275</ele>
        <time>2021-05-30T07:04:27Z</time>
      </trkpt>
      <trkpt lat="46.43142" lon="0.25841">
        <ele>113.37551484145</ele>
        <time>2021-05-30T07:04:34Z</time>
      </trkpt>
      <trkpt lat="46.43146" lon="0.2583">
        <ele>113.58467391413</ele>
        <time>2021-05-30T07:04:42Z</time>
      </trkpt>
      <trkpt lat="46.43152" lon="0.25821">
        <ele>113.78768591106</ele>
        <time>2021-05-30T07:04:50Z</time>
      </trkpt>
      <trkpt lat="46.43159" lon="0.25814">
        <ele>113.97031418367</ele>
        <time>2021-05-30T07:04:57Z</time>
      </trkpt>
      <trkpt lat="46.43166" lon="0.25806">
        <ele>114.11539855955</ele>
        <time>2021-05-30T07:05:02Z</time>
      </trkpt>
      <trkpt lat="46.43174" lon="0.25801">
        <ele>114.26632693739</ele>
        <time>2021-05-30T07:05:07Z</time>
      </trkpt>
      <trkpt lat="46.43184" lon="0.25796">
        <ele>114.43118071623</ele>
        <time>2021-05-30T07:05:12Z</time>
      </trkpt>
      <trkpt lat="46.43192" lon="0.25796">
        <ele>114.64779274926</ele>
        <time>2021-05-30T07:05:18Z</time>
      </trkpt>
      <trkpt lat="46.432" lon="0.25796">
        <ele>114.95675872496</ele>
        <time>2021-05-30T07:05:26Z</time>
      </trkpt>
      <trkpt lat="46.43208" lon="0.25795">
        <ele>115.23711378992</ele>
        <time>2021-05-30T07:05:33Z</time>
      </trkpt>
      <trkpt lat="46.43217" lon="0.25792">
        <ele>115.52248489205</ele>
        <time>2021-05-30T07:05:40Z</time>
      </trkpt>
      <trkpt lat="46.43224" lon="0.25785">
        <ele>115.72640757552</ele>
        <time>2021-05-30T07:05:45Z</time>
      </trkpt>
      <trkpt lat="46.4323" lon="0.25776">
        <ele>115.96608511973</ele>
        <time>2021-05-30T07:05:51Z</time>
      </trkpt>
      <trkpt lat="46.43237" lon="0.25769">
        <ele>116.20036905468</ele>
        <time>2021-05-30T07:05:57Z</time>
      </trkpt>
      <trkpt lat="46.43245" lon="0.25765">
        <ele>116.51500703217</ele>
        <time>2021-05-30T07:06:05Z</time>
      </trkpt>
      <trkpt lat="46.43253" lon="0.25761">
        <ele>116.78904443092</ele>
        <time>2021-05-30T07:06:12Z</time>
      </trkpt>
      <trkpt lat="46.43259" lon="0.25754">
        <ele>117.0298661226</ele>
        <time>2021-05-30T07:06:18Z</time>
      </trkpt>
      <trkpt lat="46.43266" lon="0.25749">
        <ele>117.31274047143</ele>
        <time>2021-05-30T07:06:25Z</time>
      </trkpt>
      <trkpt lat="46.43273" lon="0.25743">
        <ele>117.50812407093</ele>
        <time>2021-05-30T07:06:30Z</time>
      </trkpt>
      <trkpt lat="46.43281" lon="0.25736">
        <ele>117.79918566535</ele>
        <time>2021-05-30T07:06:38Z</time>
      </trkpt>
      <trkpt lat="46.43288" lon="0.25731">
        <ele>118.07155395723</ele>
        <time>2021-05-30T07:06:46Z</time>
      </trkpt>
      <trkpt lat="46.43295" lon="0.25725">
        <ele>118.26683818042</ele>
        <time>2021-05-30T07:06:52Z</time>
      </trkpt>
      <trkpt lat="46.43303" lon="0.2572">
        <ele>118.46042547683</ele>
        <time>2021-05-30T07:06:58Z</time>
      </trkpt>
      <trkpt lat="46.43311" lon="0.25715">
        <ele>118.65155800755</ele>
        <time>2021-05-30T07:07:04Z</time>
      </trkpt>
      <trkpt lat="46.43318" lon="0.25709">
        <ele>118.88185598921</ele>
        <time>2021-05-30T07:07:12Z</time>
      </trkpt>
      <trkpt lat="46.43324" lon="0.25703">
        <ele>119.03388329171</ele>
        <time>2021-05-30T07:07:18Z</time>
      </trkpt>
      <trkpt lat="46.43332" lon="0.25698">
        <ele>119.17923538411</ele>
        <time>2021-05-30T07:07:24Z</time>
      </trkpt>
      <trkpt lat="46.43341" lon="0.25695">
        <ele>119.36122332654</ele>
        <time>2021-05-30T07:07:32Z</time>
      </trkpt>
      <trkpt lat="46.43348" lon="0.2569">
        <ele>119.48227656838</ele>
        <time>2021-05-30T07:07:38Z</time>
      </trkpt>
      <trkpt lat="46.43354" lon="0.25682">
        <ele>119.59459398776</ele>
        <time>2021-05-30T07:07:44Z</time>
      </trkpt>
      <trkpt lat="46.43361" lon="0.25673">
        <ele>119.68211188634</ele>
        <time>2021-05-30T07:07:49Z</time>
      </trkpt>
      <trkpt lat="46.43369" lon="0.25664">
        <ele>119.76365336975</ele>
        <time>2021-05-30T07:07:54Z</time>
      </trkpt>
      <trkpt lat="46.43376" lon="0.25657">
        <ele>119.86137331722</ele>
        <time>2021-05-30T07:08:00Z</time>
      </trkpt>
      <trkpt lat="46.43382" lon="0.25649">
        <ele>119.9440234781</ele>
        <time>2021-05-30T07:08:05Z</time>
      </trkpt>
      <trkpt lat="46.43388" lon="0.25641">
        <ele>120.07911683075</ele>
        <time>2021-05-30T07:08:13Z</time>
      </trkpt>
      <trkpt lat="46.43395" lon="0.25634">
        <ele>120.19794225025</ele>
        <time>2021-05-30T07:08:20Z</time>
      </trkpt>
      <trkpt lat="46.43402" lon="0.25628">
        <ele>120.30389636567</ele>
        <time>2021-05-30T07:08:26Z</time>
      </trkpt>
      <trkpt lat="46.43409" lon="0.25621">
        <ele>120.4198523705</ele>
        <time>2021-05-30T07:08:32Z</time>
      </trkpt>
      <trkpt lat="46.43417" lon="0.25614">
        <ele>120.54576285064</ele>
        <time>2021-05-30T07:08:38Z</time>
      </trkpt>
      <trkpt lat="46.43424" lon="0.25608">
        <ele>120.69718956955</ele>
        <time>2021-05-30T07:08:45Z</time>
      </trkpt>
      <trkpt lat="46.43432" lon="0.25603">
        <ele>120.8475969704</ele>
        <time>2021-05-30T07:08:52Z</time>
      </trkpt>
      <trkpt lat="46.4344" lon="0.25598">
        <ele>120.97752045616</ele>
        <time>2021-05-30T07:08:58Z</time>
      </trkpt>
      <trkpt lat="46.43448" lon="0.25593">
        <ele>121.10142150973</ele>
        <time>2021-05-30T07:09:04Z</time>
      </trkpt>
      <trkpt lat="46.43456" lon="0.25589">
        <ele>121.23375487543</ele>
        <time>2021-05-30T07:09:10Z</time>
      </trkpt>
      <trkpt lat="46.43465" lon="0.25587">
        <ele>121.39623109899</ele>
        <time>2021-05-30T07:09:17Z</time>
      </trkpt>
      <trkpt lat="46.43474" lon="0.25587">
        <ele>121.53372044054</ele>
        <time>2021-05-30T07:09:23Z</time>
      </trkpt>
      <trkpt lat="46.43482" lon="0.25588">
        <ele>121.64421333713</ele>
        <time>2021-05-30T07:09:28Z</time>
      </trkpt>
      <trkpt lat="46.43489" lon="0.25589">
        <ele>121.74782448427</ele>
        <time>2021-05-30T07:09:33Z</time>
      </trkpt>
      <trkpt lat="46.43497" lon="0.25589">
        <ele>121.84530281384</ele>
        <time>2021-05-30T07:09:38Z</time>
      </trkpt>
      <trkpt lat="46.43506" lon="0.25589">
        <ele>121.93910059555</ele>
        <time>2021-05-30T07:09:43Z</time>
      </trkpt>
      <trkpt lat="46.43514" lon="0.25588">
        <ele>122.06494718008</ele>
        <time>2021-05-30T07:09:50Z</time>
      </trkpt>
      <trkpt lat="46.43523" lon="0.25586">
        <ele>122.18453511504</ele>
        <time>2021-05-30T07:09:57Z</time>
      </trkpt>
      <trkpt lat="46.43531" lon="0.25585">
        <ele>122.31126423859</ele>
        <time>2021-05-30T07:10:05Z</time>
      </trkpt>
      <trkpt lat="46.43538" lon="0.25583">
        <ele>122.4188054522</ele>
        <time>2021-05-30T07:10:12Z</time>
      </trkpt>
      <trkpt lat="46.43547" lon="0.2558">
        <ele>122.5311923114</ele>
        <time>2021-05-30T07:10:20Z</time>
      </trkpt>
      <trkpt lat="46.43554" lon="0.25579">
        <ele>122.60740876261</ele>
        <time>2021-05-30T07:10:26Z</time>
      </trkpt>
      <trkpt lat="46.43562" lon="0.25576">
        <ele>122.66843470825</ele>
        <time>2021-05-30T07:10:31Z</time>
      </trkpt>
      <trkpt lat="46.43571" lon="0.25574">
        <ele>122.74039860677</ele>
        <time>2021-05-30T07:10:37Z</time>
      </trkpt>
      <trkpt lat="46.43579" lon="0.25575">
        <ele>122.80627713422</ele>
        <time>2021-05-30T07:10:43Z</time>
      </trkpt>
      <trkpt lat="46.43587" lon="0.25576">
        <ele>122.87327838069</ele>
        <time>2021-05-30T07:10:49Z</time>
      </trkpt>
      <trkpt lat="46.43596" lon="0.25577">
        <ele>122.93302019107</ele>
        <time>2021-05-30T07:10:54Z</time>
      </trkpt>
      <trkpt lat="46.43604" lon="0.25578">
        <ele>122.99599174507</ele>
        <time>2021-05-30T07:10:59Z</time>
      </trkpt>
      <trkpt lat="46.43612" lon="0.25577">
        <ele>123.06054989165</ele>
        <time>2021-05-30T07:11:04Z</time>
      </trkpt>
      <trkpt lat="46.43619" lon="0.25576">
        <ele>123.12714629748</ele>
        <time>2021-05-30T07:11:09Z</time>
      </trkpt>
      <trkpt lat="46.43628" lon="0.25575">
        <ele>123.2134100828</ele>
        <time>2021-05-30T07:11:15Z</time>
      </trkpt>
      <trkpt lat="46.43637" lon="0.25575">
        <ele>123.29901717547</ele>
        <time>2021-05-30T07:11:21Z</time>
      </trkpt>
      <trkpt lat="46.43645" lon="0.25575">
        <ele>123.38036891312</ele>
        <time>2021-05-30T07:11:27Z</time>
      </trkpt>
      <trkpt lat="46.43653" lon="0.25573">
        <ele>123.46785585124</ele>
        <time>2021-05-30T07:11:34Z</time>
      </trkpt>
      <trkpt lat="46.43661" lon="0.25569">
        <ele>123.5489077675</ele>
        <time>2021-05-30T07:11:41Z</time>
      </trkpt>
      <trkpt lat="46.43668" lon="0.25565">
        <ele>123.62192295003</ele>
        <time>2021-05-30T07:11:47Z</time>
      </trkpt>
      <trkpt lat="46.43675" lon="0.25558">
        <ele>123.69240872293</ele>
        <time>2021-05-30T07:11:53Z</time>
      </trkpt>
      <trkpt lat="46.43681" lon="0.2555">
        <ele>123.76978147246</ele>
        <time>2021-05-30T07:12:00Z</time>
      </trkpt>
      <trkpt lat="46.43688" lon="0.25541">
        <ele>123.82811858979</ele>
        <time>2021-05-30T07:12:06Z</time>
      </trkpt>
      <trkpt lat="46.43693" lon="0.25534">
        <ele>123.87085779736</ele>
        <time>2021-05-30T07:12:11Z</time>
      </trkpt>
      <trkpt lat="46.43697" lon="0.25524">
        <ele>123.90619169177</ele>
        <time>2021-05-30T07:12:16Z</time>
      </trkpt>
      <trkpt lat="46.43702" lon="0.25515">
        <ele>123.93847370926</ele>
        <time>2021-05-30T07:12:22Z</time>
      </trkpt>
      <trkpt lat="46.43709" lon="0.25506">
        <ele>123.96395985631</ele>
        <time>2021-05-30T07:12:28Z</time>
      </trkpt>
      <trkpt lat="46.43715" lon="0.25496">
        <ele>123.98230932637</ele>
        <time>2021-05-30T07:12:35Z</time>
      </trkpt>
      <trkpt lat="46.43721" lon="0.25489">
        <ele>123.98720136803</ele>
        <time>2021-05-30T07:12:41Z</time>
      </trkpt>
      <trkpt lat="46.43725" lon="0.25479">
        <ele>123.98119656879</ele>
        <time>2021-05-30T07:12:48Z</time>
      </trkpt>
      <trkpt lat="46.43732" lon="0.25471">
        <ele>123.96778954301</ele>
        <time>2021-05-30T07:12:55Z</time>
      </trkpt>
      <trkpt lat="46.4374" lon="0.25469">
        <ele>123.96000438218</ele>
        <time>2021-05-30T07:13:01Z</time>
      </trkpt>
      <trkpt lat="46.43749" lon="0.25472">
        <ele>123.95014832705</ele>
        <time>2021-05-30T07:13:09Z</time>
      </trkpt>
      <trkpt lat="46.43757" lon="0.25473">
        <ele>123.93752313079</ele>
        <time>2021-05-30T07:13:16Z</time>
      </trkpt>
      <trkpt lat="46.43764" lon="0.25475">
        <ele>123.9222802608</ele>
        <time>2021-05-30T07:13:23Z</time>
      </trkpt>
      <trkpt lat="46.43772" lon="0.25477">
        <ele>123.91118951312</ele>
        <time>2021-05-30T07:13:29Z</time>
      </trkpt>
      <trkpt lat="46.4378" lon="0.2548">
        <ele>123.89244687278</ele>
        <time>2021-05-30T07:13:37Z</time>
      </trkpt>
      <trkpt lat="46.43789" lon="0.25483">
        <ele>123.87380070857</ele>
        <time>2021-05-30T07:13:44Z</time>
      </trkpt>
      <trkpt lat="46.43796" lon="0.25486">
        <ele>123.85281562751</ele>
        <time>2021-05-30T07:13:51Z</time>
      </trkpt>
      <trkpt lat="46.43804" lon="0.25489">
        <ele>123.83328342248</ele>
        <time>2021-05-30T07:13:57Z</time>
      </trkpt>
      <trkpt lat="46.43814" lon="0.25489">
        <ele>123.82252139434</ele>
        <time>2021-05-30T07:14:01Z</time>
      </trkpt>
      <trkpt lat="46.43822" lon="0.25494">
        <ele>123.80685645609</ele>
        <time>2021-05-30T07:14:08Z</time>
      </trkpt>
      <trkpt lat="46.4383" lon="0.25498">
        <ele>123.79320431621</ele>
        <time>2021-05-30T07:14:15Z</time>
      </trkpt>
      <trkpt lat="46.43839" lon="0.25503">
        <ele>123.78079691905</ele>
        <time>2021-05-30T07:14:23Z</time>
      </trkpt>
      <trkpt lat="46.43847" lon="0.25508">
        <ele>123.76891904529</ele>
        <time>2021-05-30T07:14:30Z</time>
      </trkpt>
      <trkpt lat="46.43855" lon="0.25514">
        <ele>123.7538836973</ele>
        <time>2021-05-30T07:14:39Z</time>
      </trkpt>
      <trkpt lat="46.43863" lon="0.25517">
        <ele>123.74462454096</ele>
        <time>2021-05-30T07:14:45Z</time>
      </trkpt>
      <trkpt lat="46.43871" lon="0.2552">
        <ele>123.7336065007</ele>
        <time>2021-05-30T07:14:52Z</time>
      </trkpt>
      <trkpt lat="46.4388" lon="0.25522">
        <ele>123.71352555969</ele>
        <time>2021-05-30T07:15:00Z</time>
      </trkpt>
      <trkpt lat="46.43887" lon="0.25526">
        <ele>123.69577193555</ele>
        <time>2021-05-30T07:15:07Z</time>
      </trkpt>
      <trkpt lat="46.43896" lon="0.2553">
        <ele>123.67835005994</ele>
        <time>2021-05-30T07:15:13Z</time>
      </trkpt>
      <trkpt lat="46.43903" lon="0.25533">
        <ele>123.66409762028</ele>
        <time>2021-05-30T07:15:18Z</time>
      </trkpt>
      <trkpt lat="46.43911" lon="0.25536">
        <ele>123.64500265179</ele>
        <time>2021-05-30T07:15:24Z</time>
      </trkpt>
      <trkpt lat="46.4392" lon="0.25539">
        <ele>123.62985725506</ele>
        <time>2021-05-30T07:15:30Z</time>
      </trkpt>
      <trkpt lat="46.43928" lon="0.25541">
        <ele>123.61820336258</ele>
        <time>2021-05-30T07:15:36Z</time>
      </trkpt>
      <trkpt lat="46.43936" lon="0.25544">
        <ele>123.60710778767</ele>
        <time>2021-05-30T07:15:42Z</time>
      </trkpt>
      <trkpt lat="46.43944" lon="0.25546">
        <ele>123.59858265479</ele>
        <time>2021-05-30T07:15:48Z</time>
      </trkpt>
      <trkpt lat="46.43952" lon="0.2555">
        <ele>123.59385402832</ele>
        <time>2021-05-30T07:15:54Z</time>
      </trkpt>
      <trkpt lat="46.4396" lon="0.25553">
        <ele>123.59311851719</ele>
        <time>2021-05-30T07:15:59Z</time>
      </trkpt>
      <trkpt lat="46.43967" lon="0.25559">
        <ele>123.59449623647</ele>
        <time>2021-05-30T07:16:06Z</time>
      </trkpt>
      <trkpt lat="46.43975" lon="0.25563">
        <ele>123.59606386434</ele>
        <time>2021-05-30T07:16:12Z</time>
      </trkpt>
      <trkpt lat="46.43983" lon="0.25568">
        <ele>123.59863679149</ele>
        <time>2021-05-30T07:16:20Z</time>
      </trkpt>
      <trkpt lat="46.4399" lon="0.25571">
        <ele>123.60014606671</ele>
        <time>2021-05-30T07:16:25Z</time>
      </trkpt>
      <trkpt lat="46.43998" lon="0.25576">
        <ele>123.60326896559</ele>
        <time>2021-05-30T07:16:31Z</time>
      </trkpt>
      <trkpt lat="46.44005" lon="0.25581">
        <ele>123.61429994276</ele>
        <time>2021-05-30T07:16:37Z</time>
      </trkpt>
      <trkpt lat="46.44012" lon="0.25586">
        <ele>123.6267155093</ele>
        <time>2021-05-30T07:16:43Z</time>
      </trkpt>
      <trkpt lat="46.44019" lon="0.25591">
        <ele>123.6450660032</ele>
        <time>2021-05-30T07:16:49Z</time>
      </trkpt>
      <trkpt lat="46.44027" lon="0.25597">
        <ele>123.66818747663</ele>
        <time>2021-05-30T07:16:55Z</time>
      </trkpt>
      <trkpt lat="46.44035" lon="0.25601">
        <ele>123.70543195792</ele>
        <time>2021-05-30T07:17:02Z</time>
      </trkpt>
      <trkpt lat="46.44042" lon="0.25606">
        <ele>123.7454524565</ele>
        <time>2021-05-30T07:17:08Z</time>
      </trkpt>
      <trkpt lat="46.4405" lon="0.2561">
        <ele>123.79261115757</ele>
        <time>2021-05-30T07:17:14Z</time>
      </trkpt>
      <trkpt lat="46.44057" lon="0.25615">
        <ele>123.85241787586</ele>
        <time>2021-05-30T07:17:21Z</time>
      </trkpt>
      <trkpt lat="46.44065" lon="0.2562">
        <ele>123.90691006193</ele>
        <time>2021-05-30T07:17:27Z</time>
      </trkpt>
      <trkpt lat="46.44073" lon="0.25623">
        <ele>124.00440420259</ele>
        <time>2021-05-30T07:17:36Z</time>
      </trkpt>
      <trkpt lat="46.44081" lon="0.25628">
        <ele>124.08668551742</ele>
        <time>2021-05-30T07:17:43Z</time>
      </trkpt>
      <trkpt lat="46.44089" lon="0.25634">
        <ele>124.19035891616</ele>
        <time>2021-05-30T07:17:52Z</time>
      </trkpt>
      <trkpt lat="46.44097" lon="0.25638">
        <ele>124.28063919115</ele>
        <time>2021-05-30T07:17:59Z</time>
      </trkpt>
      <trkpt lat="46.44106" lon="0.25639">
        <ele>124.32857727998</ele>
        <time>2021-05-30T07:18:06Z</time>
      </trkpt>
      <trkpt lat="46.44114" lon="0.2564">
        <ele>124.44772070848</ele>
        <time>2021-05-30T07:18:36Z</time>
      </trkpt>
      <trkpt lat="46.44122" lon="0.25641">
        <ele>124.56058856203</ele>
        <time>2021-05-30T07:19:14Z</time>
      </trkpt>
      <trkpt lat="46.44127" lon="0.25651">
        <ele>124.86046214869</ele>
        <time>2021-05-30T07:20:04Z</time>
      </trkpt>
      <trkpt lat="46.44133" lon="0.2566">
        <ele>124.97985902565</ele>
        <time>2021-05-30T07:20:13Z</time>
      </trkpt>
      <trkpt lat="46.4414" lon="0.25666">
        <ele>125.06291165869</ele>
        <time>2021-05-30T07:20:19Z</time>
      </trkpt>
      <trkpt lat="46.44147" lon="0.25673">
        <ele>125.16105161571</ele>
        <time>2021-05-30T07:20:26Z</time>
      </trkpt>
      <trkpt lat="46.44154" lon="0.2568">
        <ele>125.29575872321</ele>
        <time>2021-05-30T07:20:35Z</time>
      </trkpt>
      <trkpt lat="46.4416" lon="0.25688">
        <ele>125.42157807767</ele>
        <time>2021-05-30T07:20:43Z</time>
      </trkpt>
      <trkpt lat="46.44167" lon="0.25695">
        <ele>125.53182710499</ele>
        <time>2021-05-30T07:20:50Z</time>
      </trkpt>
      <trkpt lat="46.44173" lon="0.25702">
        <ele>125.63846949843</ele>
        <time>2021-05-30T07:20:57Z</time>
      </trkpt>
      <trkpt lat="46.44181" lon="0.25708">
        <ele>125.74971438254</ele>
        <time>2021-05-30T07:21:04Z</time>
      </trkpt>
      <trkpt lat="46.44189" lon="0.25714">
        <ele>125.83595292225</ele>
        <time>2021-05-30T07:21:09Z</time>
      </trkpt>
      <trkpt lat="46.44196" lon="0.2572">
        <ele>125.9246345682</ele>
        <time>2021-05-30T07:21:14Z</time>
      </trkpt>
      <trkpt lat="46.44204" lon="0.25725">
        <ele>126.01314101799</ele>
        <time>2021-05-30T07:21:19Z</time>
      </trkpt>
      <trkpt lat="46.44211" lon="0.2573">
        <ele>126.11631628666</ele>
        <time>2021-05-30T07:21:25Z</time>
      </trkpt>
      <trkpt lat="46.44219" lon="0.25736">
        <ele>126.21774337749</ele>
        <time>2021-05-30T07:21:31Z</time>
      </trkpt>
      <trkpt lat="46.44226" lon="0.25741">
        <ele>126.31667493215</ele>
        <time>2021-05-30T07:21:37Z</time>
      </trkpt>
      <trkpt lat="46.44234" lon="0.25746">
        <ele>126.40972345915</ele>
        <time>2021-05-30T07:21:43Z</time>
      </trkpt>
      <trkpt lat="46.44242" lon="0.2575">
        <ele>126.53417711365</ele>
        <time>2021-05-30T07:21:51Z</time>
      </trkpt>
      <trkpt lat="46.4425" lon="0.25746">
        <ele>126.65309527251</ele>
        <time>2021-05-30T07:21:59Z</time>
      </trkpt>
      <trkpt lat="46.44256" lon="0.25738">
        <ele>126.7745652737</ele>
        <time>2021-05-30T07:22:07Z</time>
      </trkpt>
      <trkpt lat="46.44261" lon="0.25729">
        <ele>126.86808684532</ele>
        <time>2021-05-30T07:22:13Z</time>
      </trkpt>
      <trkpt lat="46.44267" lon="0.25721">
        <ele>126.96326103768</ele>
        <time>2021-05-30T07:22:19Z</time>
      </trkpt>
      <trkpt lat="46.44273" lon="0.25715">
        <ele>127.05940578131</ele>
        <time>2021-05-30T07:22:25Z</time>
      </trkpt>
      <trkpt lat="46.4428" lon="0.25708">
        <ele>127.14152103305</ele>
        <time>2021-05-30T07:22:30Z</time>
      </trkpt>
      <trkpt lat="46.44287" lon="0.25701">
        <ele>127.2229972111</ele>
        <time>2021-05-30T07:22:35Z</time>
      </trkpt>
      <trkpt lat="46.44294" lon="0.25695">
        <ele>127.30571447221</ele>
        <time>2021-05-30T07:22:40Z</time>
      </trkpt>
      <trkpt lat="46.44301" lon="0.2569">
        <ele>127.39108233733</ele>
        <time>2021-05-30T07:22:45Z</time>
      </trkpt>
      <trkpt lat="46.44309" lon="0.25683">
        <ele>127.4765407936</ele>
        <time>2021-05-30T07:22:50Z</time>
      </trkpt>
      <trkpt lat="46.44316" lon="0.25677">
        <ele>127.56281638838</ele>
        <time>2021-05-30T07:22:55Z</time>
      </trkpt>
      <trkpt lat="46.44323" lon="0.25672">
        <ele>127.65186727898</ele>
        <time>2021-05-30T07:23:00Z</time>
      </trkpt>
      <trkpt lat="46.4433" lon="0.25666">
        <ele>127.76194073155</ele>
        <time>2021-05-30T07:23:06Z</time>
      </trkpt>
      <trkpt lat="46.44337" lon="0.25659">
        <ele>127.89721298196</ele>
        <time>2021-05-30T07:23:13Z</time>
      </trkpt>
      <trkpt lat="46.44343" lon="0.2565">
        <ele>128.03873674857</ele>
        <time>2021-05-30T07:23:20Z</time>
      </trkpt>
      <trkpt lat="46.44347" lon="0.2564">
        <ele>128.18715794285</ele>
        <time>2021-05-30T07:23:27Z</time>
      </trkpt>
      <trkpt lat="46.4435" lon="0.25629">
        <ele>128.34228559444</ele>
        <time>2021-05-30T07:23:34Z</time>
      </trkpt>
      <trkpt lat="46.44348" lon="0.25618">
        <ele>128.45619893966</ele>
        <time>2021-05-30T07:23:39Z</time>
      </trkpt>
      <trkpt lat="46.44347" lon="0.25606">
        <ele>128.57363608484</ele>
        <time>2021-05-30T07:23:44Z</time>
      </trkpt>
      <trkpt lat="46.44342" lon="0.25596">
        <ele>128.73732793376</ele>
        <time>2021-05-30T07:23:51Z</time>
      </trkpt>
      <trkpt lat="46.44337" lon="0.25587">
        <ele>128.87853874077</ele>
        <time>2021-05-30T07:23:57Z</time>
      </trkpt>
      <trkpt lat="46.44332" lon="0.25578">
        <ele>128.99259318456</ele>
        <time>2021-05-30T07:24:02Z</time>
      </trkpt>
      <trkpt lat="46.44327" lon="0.25568">
        <ele>129.14429448275</ele>
        <time>2021-05-30T07:24:09Z</time>
      </trkpt>
      <trkpt lat="46.44328" lon="0.25556">
        <ele>129.30815784313</ele>
        <time>2021-05-30T07:24:17Z</time>
      </trkpt>
      <trkpt lat="46.44333" lon="0.25544">
        <ele>129.46372347035</ele>
        <time>2021-05-30T07:24:25Z</time>
      </trkpt>
      <trkpt lat="46.44336" lon="0.25534">
        <ele>129.57230691573</ele>
        <time>2021-05-30T07:24:31Z</time>
      </trkpt>
      <trkpt lat="46.44339" lon="0.25523">
        <ele>129.69395562735</ele>
        <time>2021-05-30T07:24:38Z</time>
      </trkpt>
      <trkpt lat="46.44345" lon="0.25513">
        <ele>129.79889698359</ele>
        <time>2021-05-30T07:24:44Z</time>
      </trkpt>
      <trkpt lat="46.4435" lon="0.25503">
        <ele>129.93494906478</ele>
        <time>2021-05-30T07:24:52Z</time>
      </trkpt>
      <trkpt lat="46.44353" lon="0.25492">
        <ele>130.04989204829</ele>
        <time>2021-05-30T07:24:59Z</time>
      </trkpt>
      <trkpt lat="46.44354" lon="0.25481">
        <ele>130.14613493865</ele>
        <time>2021-05-30T07:25:05Z</time>
      </trkpt>
      <trkpt lat="46.44353" lon="0.2547">
        <ele>130.25027113255</ele>
        <time>2021-05-30T07:25:12Z</time>
      </trkpt>
      <trkpt lat="46.44351" lon="0.25459">
        <ele>130.33464970764</ele>
        <time>2021-05-30T07:25:18Z</time>
      </trkpt>
      <trkpt lat="46.44349" lon="0.25447">
        <ele>130.42505084612</ele>
        <time>2021-05-30T07:25:25Z</time>
      </trkpt>
      <trkpt lat="46.44346" lon="0.25437">
        <ele>130.51303188034</ele>
        <time>2021-05-30T07:25:32Z</time>
      </trkpt>
      <trkpt lat="46.44341" lon="0.25427">
        <ele>130.59518026831</ele>
        <time>2021-05-30T07:25:39Z</time>
      </trkpt>
      <trkpt lat="46.44337" lon="0.25416">
        <ele>130.68844411057</ele>
        <time>2021-05-30T07:25:48Z</time>
      </trkpt>
      <trkpt lat="46.44334" lon="0.25404">
        <ele>130.75698686854</ele>
        <time>2021-05-30T07:25:55Z</time>
      </trkpt>
      <trkpt lat="46.44329" lon="0.25395">
        <ele>130.79732794893</ele>
        <time>2021-05-30T07:26:00Z</time>
      </trkpt>
      <trkpt lat="46.44326" lon="0.25385">
        <ele>130.85298118066</ele>
        <time>2021-05-30T07:26:07Z</time>
      </trkpt>
      <trkpt lat="46.4432" lon="0.25376">
        <ele>130.9047079575</ele>
        <time>2021-05-30T07:26:13Z</time>
      </trkpt>
      <trkpt lat="46.44315" lon="0.25368">
        <ele>130.94183870507</ele>
        <time>2021-05-30T07:26:18Z</time>
      </trkpt>
      <trkpt lat="46.44308" lon="0.25361">
        <ele>130.98997406459</ele>
        <time>2021-05-30T07:26:24Z</time>
      </trkpt>
      <trkpt lat="46.44302" lon="0.25355">
        <ele>131.03669766662</ele>
        <time>2021-05-30T07:26:29Z</time>
      </trkpt>
      <trkpt lat="46.44295" lon="0.25348">
        <ele>131.08631254971</ele>
        <time>2021-05-30T07:26:34Z</time>
      </trkpt>
      <trkpt lat="46.4429" lon="0.2534">
        <ele>131.14450285563</ele>
        <time>2021-05-30T07:26:40Z</time>
      </trkpt>
      <trkpt lat="46.44284" lon="0.25331">
        <ele>131.18690189666</ele>
        <time>2021-05-30T07:26:45Z</time>
      </trkpt>
      <trkpt lat="46.44278" lon="0.25324">
        <ele>131.23052404645</ele>
        <time>2021-05-30T07:26:51Z</time>
      </trkpt>
      <trkpt lat="46.44272" lon="0.25315">
        <ele>131.26885189658</ele>
        <time>2021-05-30T07:26:56Z</time>
      </trkpt>
      <trkpt lat="46.44265" lon="0.25308">
        <ele>131.31924654831</ele>
        <time>2021-05-30T07:27:02Z</time>
      </trkpt>
      <trkpt lat="46.44258" lon="0.253">
        <ele>131.39650197628</ele>
        <time>2021-05-30T07:27:10Z</time>
      </trkpt>
      <trkpt lat="46.44252" lon="0.25292">
        <ele>131.46323787386</ele>
        <time>2021-05-30T07:27:16Z</time>
      </trkpt>
      <trkpt lat="46.44246" lon="0.25283">
        <ele>131.5218180284</ele>
        <time>2021-05-30T07:27:22Z</time>
      </trkpt>
      <trkpt lat="46.44239" lon="0.25277">
        <ele>131.57834527312</ele>
        <time>2021-05-30T07:27:29Z</time>
      </trkpt>
      <trkpt lat="46.44232" lon="0.25271">
        <ele>131.62548508696</ele>
        <time>2021-05-30T07:27:35Z</time>
      </trkpt>
      <trkpt lat="46.44226" lon="0.25263">
        <ele>131.67421241939</ele>
        <time>2021-05-30T07:27:41Z</time>
      </trkpt>
      <trkpt lat="46.44218" lon="0.25256">
        <ele>131.72104879751</ele>
        <time>2021-05-30T07:27:47Z</time>
      </trkpt>
      <trkpt lat="46.4421" lon="0.2525">
        <ele>131.77584966156</ele>
        <time>2021-05-30T07:27:55Z</time>
      </trkpt>
      <trkpt lat="46.44204" lon="0.25243">
        <ele>131.81045598592</ele>
        <time>2021-05-30T07:28:01Z</time>
      </trkpt>
      <trkpt lat="46.44197" lon="0.25236">
        <ele>131.84514513936</ele>
        <time>2021-05-30T07:28:09Z</time>
      </trkpt>
      <trkpt lat="46.44191" lon="0.25228">
        <ele>131.87116510506</ele>
        <time>2021-05-30T07:28:16Z</time>
      </trkpt>
      <trkpt lat="46.44184" lon="0.25221">
        <ele>131.90199068956</ele>
        <time>2021-05-30T07:28:23Z</time>
      </trkpt>
      <trkpt lat="46.44178" lon="0.25212">
        <ele>132.022831754</ele>
        <time>2021-05-30T07:28:36Z</time>
      </trkpt>
      <trkpt lat="46.44174" lon="0.25203">
        <ele>132.20163103517</ele>
        <time>2021-05-30T07:28:47Z</time>
      </trkpt>
      <trkpt lat="46.4417" lon="0.25193">
        <ele>132.3144162537</ele>
        <time>2021-05-30T07:28:53Z</time>
      </trkpt>
      <trkpt lat="46.44166" lon="0.25184">
        <ele>132.42351344132</ele>
        <time>2021-05-30T07:28:58Z</time>
      </trkpt>
      <trkpt lat="46.44162" lon="0.25175">
        <ele>132.54587768365</ele>
        <time>2021-05-30T07:29:03Z</time>
      </trkpt>
      <trkpt lat="46.44159" lon="0.25163">
        <ele>132.64762680647</ele>
        <time>2021-05-30T07:29:07Z</time>
      </trkpt>
      <trkpt lat="46.44155" lon="0.25154">
        <ele>132.74402575012</ele>
        <time>2021-05-30T07:29:11Z</time>
      </trkpt>
      <trkpt lat="46.4415" lon="0.2514">
        <ele>132.86013009991</ele>
        <time>2021-05-30T07:29:16Z</time>
      </trkpt>
      <trkpt lat="46.44145" lon="0.25129">
        <ele>133.03355665539</ele>
        <time>2021-05-30T07:29:24Z</time>
      </trkpt>
      <trkpt lat="46.44142" lon="0.25118">
        <ele>133.17957447598</ele>
        <time>2021-05-30T07:29:31Z</time>
      </trkpt>
      <trkpt lat="46.44139" lon="0.25107">
        <ele>133.43582824682</ele>
        <time>2021-05-30T07:29:42Z</time>
      </trkpt>
      <trkpt lat="46.44137" lon="0.25098">
        <ele>133.62562314406</ele>
        <time>2021-05-30T07:29:48Z</time>
      </trkpt>
      <trkpt lat="46.4413" lon="0.25079">
        <ele>133.79490469285</ele>
        <time>2021-05-30T07:29:53Z</time>
      </trkpt>
      <trkpt lat="46.44123" lon="0.25071">
        <ele>133.92379054943</ele>
        <time>2021-05-30T07:29:57Z</time>
      </trkpt>
      <trkpt lat="46.44117" lon="0.25061">
        <ele>134.07138088371</ele>
        <time>2021-05-30T07:30:02Z</time>
      </trkpt>
      <trkpt lat="46.4411" lon="0.25054">
        <ele>134.23365339779</ele>
        <time>2021-05-30T07:30:08Z</time>
      </trkpt>
      <trkpt lat="46.44105" lon="0.25043">
        <ele>134.43152473747</ele>
        <time>2021-05-30T07:30:16Z</time>
      </trkpt>
      <trkpt lat="46.44102" lon="0.25034">
        <ele>134.61727317564</ele>
        <time>2021-05-30T07:30:24Z</time>
      </trkpt>
      <trkpt lat="46.44104" lon="0.25022">
        <ele>134.74487846678</ele>
        <time>2021-05-30T07:30:30Z</time>
      </trkpt>
      <trkpt lat="46.4411" lon="0.25013">
        <ele>134.92319176732</ele>
        <time>2021-05-30T07:30:39Z</time>
      </trkpt>
      <trkpt lat="46.44113" lon="0.25002">
        <ele>135.03462450655</ele>
        <time>2021-05-30T07:30:45Z</time>
      </trkpt>
      <trkpt lat="46.4412" lon="0.24998">
        <ele>135.14073195475</ele>
        <time>2021-05-30T07:30:51Z</time>
      </trkpt>
      <trkpt lat="46.44129" lon="0.24994">
        <ele>135.26815260032</ele>
        <time>2021-05-30T07:30:59Z</time>
      </trkpt>
      <trkpt lat="46.44136" lon="0.2499">
        <ele>135.35512104994</ele>
        <time>2021-05-30T07:31:06Z</time>
      </trkpt>
      <trkpt lat="46.44144" lon="0.24988">
        <ele>135.41777687269</ele>
        <time>2021-05-30T07:31:13Z</time>
      </trkpt>
      <trkpt lat="46.44152" lon="0.24982">
        <ele>135.48173279733</ele>
        <time>2021-05-30T07:31:20Z</time>
      </trkpt>
      <trkpt lat="46.44159" lon="0.24977">
        <ele>135.54835690596</ele>
        <time>2021-05-30T07:31:27Z</time>
      </trkpt>
      <trkpt lat="46.44167" lon="0.2497">
        <ele>135.59434448582</ele>
        <time>2021-05-30T07:31:32Z</time>
      </trkpt>
      <trkpt lat="46.44174" lon="0.24963">
        <ele>135.65993077434</ele>
        <time>2021-05-30T07:31:40Z</time>
      </trkpt>
      <trkpt lat="46.44181" lon="0.24954">
        <ele>135.68655028478</ele>
        <time>2021-05-30T07:31:44Z</time>
      </trkpt>
      <trkpt lat="46.44188" lon="0.24949">
        <ele>135.74333361604</ele>
        <time>2021-05-30T07:31:53Z</time>
      </trkpt>
      <trkpt lat="46.44196" lon="0.24951">
        <ele>135.80170056519</ele>
        <time>2021-05-30T07:32:01Z</time>
      </trkpt>
      <trkpt lat="46.44204" lon="0.24951">
        <ele>135.83396111821</ele>
        <time>2021-05-30T07:32:05Z</time>
      </trkpt>
      <trkpt lat="46.44212" lon="0.24953">
        <ele>135.87636738641</ele>
        <time>2021-05-30T07:32:10Z</time>
      </trkpt>
      <trkpt lat="46.44221" lon="0.24953">
        <ele>135.92761392405</ele>
        <time>2021-05-30T07:32:16Z</time>
      </trkpt>
      <trkpt lat="46.4423" lon="0.24957">
        <ele>135.97084209329</ele>
        <time>2021-05-30T07:32:21Z</time>
      </trkpt>
      <trkpt lat="46.44238" lon="0.24957">
        <ele>136.0194340923</ele>
        <time>2021-05-30T07:32:27Z</time>
      </trkpt>
      <trkpt lat="46.44246" lon="0.24959">
        <ele>136.06526162939</ele>
        <time>2021-05-30T07:32:34Z</time>
      </trkpt>
      <trkpt lat="46.44254" lon="0.2496">
        <ele>136.09701933772</ele>
        <time>2021-05-30T07:32:41Z</time>
      </trkpt>
      <trkpt lat="46.44262" lon="0.24957">
        <ele>136.11470044612</ele>
        <time>2021-05-30T07:32:47Z</time>
      </trkpt>
      <trkpt lat="46.4427" lon="0.24951">
        <ele>136.13063837529</ele>
        <time>2021-05-30T07:32:53Z</time>
      </trkpt>
      <trkpt lat="46.44278" lon="0.24947">
        <ele>136.14244895416</ele>
        <time>2021-05-30T07:32:59Z</time>
      </trkpt>
      <trkpt lat="46.44284" lon="0.24939">
        <ele>136.15115945508</ele>
        <time>2021-05-30T07:33:05Z</time>
      </trkpt>
      <trkpt lat="46.44292" lon="0.24933">
        <ele>136.15732631944</ele>
        <time>2021-05-30T07:33:12Z</time>
      </trkpt>
      <trkpt lat="46.44299" lon="0.24926">
        <ele>136.15898496749</ele>
        <time>2021-05-30T07:33:18Z</time>
      </trkpt>
      <trkpt lat="46.44305" lon="0.24918">
        <ele>136.15691449206</ele>
        <time>2021-05-30T07:33:24Z</time>
      </trkpt>
      <trkpt lat="46.44311" lon="0.24909">
        <ele>136.14831825841</ele>
        <time>2021-05-30T07:33:30Z</time>
      </trkpt>
      <trkpt lat="46.44317" lon="0.249">
        <ele>136.13816850587</ele>
        <time>2021-05-30T07:33:36Z</time>
      </trkpt>
      <trkpt lat="46.44323" lon="0.24893">
        <ele>136.12716211817</ele>
        <time>2021-05-30T07:33:43Z</time>
      </trkpt>
      <trkpt lat="46.44329" lon="0.24887">
        <ele>136.1148511418</ele>
        <time>2021-05-30T07:33:49Z</time>
      </trkpt>
      <trkpt lat="46.44337" lon="0.2488">
        <ele>136.10787268017</ele>
        <time>2021-05-30T07:33:53Z</time>
      </trkpt>
      <trkpt lat="46.44344" lon="0.24873">
        <ele>136.1082583681</ele>
        <time>2021-05-30T07:33:58Z</time>
      </trkpt>
      <trkpt lat="46.44351" lon="0.24867">
        <ele>136.11844879157</ele>
        <time>2021-05-30T07:34:04Z</time>
      </trkpt>
      <trkpt lat="46.44358" lon="0.2486">
        <ele>136.12613476079</ele>
        <time>2021-05-30T07:34:11Z</time>
      </trkpt>
      <trkpt lat="46.44365" lon="0.24854">
        <ele>136.1216555034</ele>
        <time>2021-05-30T07:34:18Z</time>
      </trkpt>
      <trkpt lat="46.44372" lon="0.24848">
        <ele>136.10591691763</ele>
        <time>2021-05-30T07:34:25Z</time>
      </trkpt>
      <trkpt lat="46.4438" lon="0.24841">
        <ele>136.07510170927</ele>
        <time>2021-05-30T07:34:33Z</time>
      </trkpt>
      <trkpt lat="46.44388" lon="0.24836">
        <ele>136.03684406843</ele>
        <time>2021-05-30T07:34:40Z</time>
      </trkpt>
      <trkpt lat="46.44394" lon="0.2483">
        <ele>136.00374112399</ele>
        <time>2021-05-30T07:34:45Z</time>
      </trkpt>
      <trkpt lat="46.44402" lon="0.24825">
        <ele>135.96692330547</ele>
        <time>2021-05-30T07:34:50Z</time>
      </trkpt>
      <trkpt lat="46.4441" lon="0.24821">
        <ele>135.91386351533</ele>
        <time>2021-05-30T07:34:57Z</time>
      </trkpt>
      <trkpt lat="46.44417" lon="0.24816">
        <ele>135.85764032905</ele>
        <time>2021-05-30T07:35:04Z</time>
      </trkpt>
      <trkpt lat="46.44425" lon="0.24812">
        <ele>135.80804566848</ele>
        <time>2021-05-30T07:35:10Z</time>
      </trkpt>
      <trkpt lat="46.44434" lon="0.24809">
        <ele>135.71966118859</ele>
        <time>2021-05-30T07:35:26Z</time>
      </trkpt>
      <trkpt lat="46.44442" lon="0.24804">
        <ele>135.66563740051</ele>
        <time>2021-05-30T07:35:33Z</time>
      </trkpt>
      <trkpt lat="46.4445" lon="0.24801">
        <ele>135.61228899015</ele>
        <time>2021-05-30T07:35:40Z</time>
      </trkpt>
      <trkpt lat="46.44459" lon="0.24799">
        <ele>135.56978023087</ele>
        <time>2021-05-30T07:35:46Z</time>
      </trkpt>
      <trkpt lat="46.44467" lon="0.24796">
        <ele>135.5216009377</ele>
        <time>2021-05-30T07:35:53Z</time>
      </trkpt>
      <trkpt lat="46.44476" lon="0.24793">
        <ele>135.48035873124</ele>
        <time>2021-05-30T07:35:59Z</time>
      </trkpt>
      <trkpt lat="46.44484" lon="0.2479">
        <ele>135.43603994139</ele>
        <time>2021-05-30T07:36:06Z</time>
      </trkpt>
      <trkpt lat="46.44491" lon="0.24787">
        <ele>135.40376181797</ele>
        <time>2021-05-30T07:36:12Z</time>
      </trkpt>
      <trkpt lat="46.44499" lon="0.24783">
        <ele>135.37967895224</ele>
        <time>2021-05-30T07:36:18Z</time>
      </trkpt>
      <trkpt lat="46.44507" lon="0.24779">
        <ele>135.36261861484</ele>
        <time>2021-05-30T07:36:24Z</time>
      </trkpt>
      <trkpt lat="46.44515" lon="0.24777">
        <ele>135.34950718767</ele>
        <time>2021-05-30T07:36:30Z</time>
      </trkpt>
      <trkpt lat="46.44523" lon="0.24774">
        <ele>135.33778543977</ele>
        <time>2021-05-30T07:36:36Z</time>
      </trkpt>
      <trkpt lat="46.44531" lon="0.24772">
        <ele>135.32673104603</ele>
        <time>2021-05-30T07:36:42Z</time>
      </trkpt>
      <trkpt lat="46.4454" lon="0.24769">
        <ele>135.31727645293</ele>
        <time>2021-05-30T07:36:48Z</time>
      </trkpt>
      <trkpt lat="46.44548" lon="0.24765">
        <ele>135.31195002273</ele>
        <time>2021-05-30T07:36:54Z</time>
      </trkpt>
      <trkpt lat="46.44556" lon="0.24762">
        <ele>135.3122166725</ele>
        <time>2021-05-30T07:36:59Z</time>
      </trkpt>
      <trkpt lat="46.44564" lon="0.24758">
        <ele>135.31833837154</ele>
        <time>2021-05-30T07:37:07Z</time>
      </trkpt>
      <trkpt lat="46.44572" lon="0.24758">
        <ele>135.33016652579</ele>
        <time>2021-05-30T07:37:16Z</time>
      </trkpt>
      <trkpt lat="46.44579" lon="0.24762">
        <ele>135.35747342473</ele>
        <time>2021-05-30T07:37:22Z</time>
      </trkpt>
      <trkpt lat="46.44588" lon="0.24765">
        <ele>135.39515948121</ele>
        <time>2021-05-30T07:37:29Z</time>
      </trkpt>
      <trkpt lat="46.44596" lon="0.24765">
        <ele>135.43329108389</ele>
        <time>2021-05-30T07:37:35Z</time>
      </trkpt>
      <trkpt lat="46.44604" lon="0.24767">
        <ele>135.48908473573</ele>
        <time>2021-05-30T07:37:42Z</time>
      </trkpt>
      <trkpt lat="46.44613" lon="0.24771">
        <ele>135.55123092154</ele>
        <time>2021-05-30T07:37:49Z</time>
      </trkpt>
      <trkpt lat="46.44621" lon="0.24775">
        <ele>135.63167638796</ele>
        <time>2021-05-30T07:37:58Z</time>
      </trkpt>
      <trkpt lat="46.44629" lon="0.24778">
        <ele>135.69931823116</ele>
        <time>2021-05-30T07:38:05Z</time>
      </trkpt>
      <trkpt lat="46.44637" lon="0.24782">
        <ele>135.76517111124</ele>
        <time>2021-05-30T07:38:12Z</time>
      </trkpt>
      <trkpt lat="46.44645" lon="0.24785">
        <ele>135.82866310678</ele>
        <time>2021-05-30T07:38:19Z</time>
      </trkpt>
      <trkpt lat="46.44653" lon="0.2479">
        <ele>135.88365713446</ele>
        <time>2021-05-30T07:38:25Z</time>
      </trkpt>
      <trkpt lat="46.44661" lon="0.24793">
        <ele>135.93701484189</ele>
        <time>2021-05-30T07:38:31Z</time>
      </trkpt>
      <trkpt lat="46.44669" lon="0.24796">
        <ele>135.99911633157</ele>
        <time>2021-05-30T07:38:38Z</time>
      </trkpt>
      <trkpt lat="46.44678" lon="0.248">
        <ele>136.04643042908</ele>
        <time>2021-05-30T07:38:44Z</time>
      </trkpt>
      <trkpt lat="46.44686" lon="0.24802">
        <ele>136.08761117345</ele>
        <time>2021-05-30T07:38:50Z</time>
      </trkpt>
      <trkpt lat="46.44694" lon="0.24803">
        <ele>136.1204690501</ele>
        <time>2021-05-30T07:38:55Z</time>
      </trkpt>
      <trkpt lat="46.44703" lon="0.24804">
        <ele>136.15972960219</ele>
        <time>2021-05-30T07:39:01Z</time>
      </trkpt>
      <trkpt lat="46.44711" lon="0.24807">
        <ele>136.18834117274</ele>
        <time>2021-05-30T07:39:06Z</time>
      </trkpt>
      <trkpt lat="46.44719" lon="0.2481">
        <ele>136.21697818589</ele>
        <time>2021-05-30T07:39:12Z</time>
      </trkpt>
      <trkpt lat="46.44727" lon="0.24813">
        <ele>136.24398646181</ele>
        <time>2021-05-30T07:39:20Z</time>
      </trkpt>
      <trkpt lat="46.44735" lon="0.24816">
        <ele>136.25948034763</ele>
        <time>2021-05-30T07:39:28Z</time>
      </trkpt>
      <trkpt lat="46.44743" lon="0.24819">
        <ele>136.26788259759</ele>
        <time>2021-05-30T07:39:35Z</time>
      </trkpt>
      <trkpt lat="46.44752" lon="0.2482">
        <ele>136.26981683262</ele>
        <time>2021-05-30T07:39:41Z</time>
      </trkpt>
      <trkpt lat="46.4476" lon="0.24821">
        <ele>136.27082637677</ele>
        <time>2021-05-30T07:39:48Z</time>
      </trkpt>
      <trkpt lat="46.44768" lon="0.2482">
        <ele>136.26219964073</ele>
        <time>2021-05-30T07:39:54Z</time>
      </trkpt>
      <trkpt lat="46.44776" lon="0.2482">
        <ele>136.24101084275</ele>
        <time>2021-05-30T07:40:00Z</time>
      </trkpt>
      <trkpt lat="46.44784" lon="0.24819">
        <ele>136.21205558786</ele>
        <time>2021-05-30T07:40:06Z</time>
      </trkpt>
      <trkpt lat="46.44792" lon="0.24818">
        <ele>136.1801935868</ele>
        <time>2021-05-30T07:40:12Z</time>
      </trkpt>
      <trkpt lat="46.448" lon="0.24815">
        <ele>136.14902202085</ele>
        <time>2021-05-30T07:40:19Z</time>
      </trkpt>
      <trkpt lat="46.44808" lon="0.24812">
        <ele>136.12880810769</ele>
        <time>2021-05-30T07:40:26Z</time>
      </trkpt>
      <trkpt lat="46.44816" lon="0.24809">
        <ele>136.11550751235</ele>
        <time>2021-05-30T07:40:33Z</time>
      </trkpt>
      <trkpt lat="46.44824" lon="0.24806">
        <ele>136.10807275227</ele>
        <time>2021-05-30T07:40:39Z</time>
      </trkpt>
      <trkpt lat="46.44832" lon="0.24803">
        <ele>136.10489802795</ele>
        <time>2021-05-30T07:40:45Z</time>
      </trkpt>
      <trkpt lat="46.44839" lon="0.24797">
        <ele>136.11091459584</ele>
        <time>2021-05-30T07:40:51Z</time>
      </trkpt>
      <trkpt lat="46.44847" lon="0.24791">
        <ele>136.11711081455</ele>
        <time>2021-05-30T07:40:57Z</time>
      </trkpt>
      <trkpt lat="46.44855" lon="0.24786">
        <ele>136.11978454561</ele>
        <time>2021-05-30T07:41:04Z</time>
      </trkpt>
      <trkpt lat="46.44862" lon="0.2478">
        <ele>136.11646208061</ele>
        <time>2021-05-30T07:41:10Z</time>
      </trkpt>
      <trkpt lat="46.4487" lon="0.24774">
        <ele>136.11272308876</ele>
        <time>2021-05-30T07:41:17Z</time>
      </trkpt>
      <trkpt lat="46.44878" lon="0.2477">
        <ele>136.11482255328</ele>
        <time>2021-05-30T07:41:25Z</time>
      </trkpt>
      <trkpt lat="46.44886" lon="0.24766">
        <ele>136.1226707634</ele>
        <time>2021-05-30T07:41:31Z</time>
      </trkpt>
      <trkpt lat="46.44894" lon="0.24763">
        <ele>136.1341462899</ele>
        <time>2021-05-30T07:41:37Z</time>
      </trkpt>
      <trkpt lat="46.44902" lon="0.24762">
        <ele>136.14801320701</ele>
        <time>2021-05-30T07:41:43Z</time>
      </trkpt>
      <trkpt lat="46.4491" lon="0.24761">
        <ele>136.17793085027</ele>
        <time>2021-05-30T07:41:52Z</time>
      </trkpt>
      <trkpt lat="46.44918" lon="0.24761">
        <ele>136.20329117327</ele>
        <time>2021-05-30T07:41:59Z</time>
      </trkpt>
      <trkpt lat="46.44925" lon="0.24761">
        <ele>136.22297649192</ele>
        <time>2021-05-30T07:42:05Z</time>
      </trkpt>
      <trkpt lat="46.44933" lon="0.24763">
        <ele>136.23490651023</ele>
        <time>2021-05-30T07:42:09Z</time>
      </trkpt>
      <trkpt lat="46.44942" lon="0.24761">
        <ele>136.24798494537</ele>
        <time>2021-05-30T07:42:15Z</time>
      </trkpt>
      <trkpt lat="46.44951" lon="0.24759">
        <ele>136.27825230913</ele>
        <time>2021-05-30T07:42:23Z</time>
      </trkpt>
      <trkpt lat="46.44959" lon="0.24757">
        <ele>136.30816641585</ele>
        <time>2021-05-30T07:42:29Z</time>
      </trkpt>
      <trkpt lat="46.44967" lon="0.24757">
        <ele>136.328920827</ele>
        <time>2021-05-30T07:42:33Z</time>
      </trkpt>
      <trkpt lat="46.44975" lon="0.24754">
        <ele>136.36006418942</ele>
        <time>2021-05-30T07:42:40Z</time>
      </trkpt>
      <trkpt lat="46.44984" lon="0.2475">
        <ele>136.38404406847</ele>
        <time>2021-05-30T07:42:46Z</time>
      </trkpt>
      <trkpt lat="46.44991" lon="0.24748">
        <ele>136.40232765973</ele>
        <time>2021-05-30T07:42:51Z</time>
      </trkpt>
      <trkpt lat="46.44999" lon="0.24745">
        <ele>136.41488167158</ele>
        <time>2021-05-30T07:42:56Z</time>
      </trkpt>
      <trkpt lat="46.45008" lon="0.24742">
        <ele>136.41675724529</ele>
        <time>2021-05-30T07:43:02Z</time>
      </trkpt>
      <trkpt lat="46.45019" lon="0.24739">
        <ele>136.40753356943</ele>
        <time>2021-05-30T07:43:07Z</time>
      </trkpt>
      <trkpt lat="46.45028" lon="0.24739">
        <ele>136.38738067785</ele>
        <time>2021-05-30T07:43:13Z</time>
      </trkpt>
      <trkpt lat="46.45036" lon="0.24738">
        <ele>136.35665776704</ele>
        <time>2021-05-30T07:43:20Z</time>
      </trkpt>
      <trkpt lat="46.45045" lon="0.24737">
        <ele>136.3128308512</ele>
        <time>2021-05-30T07:43:28Z</time>
      </trkpt>
      <trkpt lat="46.45053" lon="0.24737">
        <ele>136.26496732428</ele>
        <time>2021-05-30T07:43:35Z</time>
      </trkpt>
      <trkpt lat="46.45061" lon="0.24736">
        <ele>136.22632903672</ele>
        <time>2021-05-30T07:43:40Z</time>
      </trkpt>
      <trkpt lat="46.45072" lon="0.24735">
        <ele>136.18329841326</ele>
        <time>2021-05-30T07:43:45Z</time>
      </trkpt>
      <trkpt lat="46.4508" lon="0.24735">
        <ele>136.13890286169</ele>
        <time>2021-05-30T07:43:50Z</time>
      </trkpt>
      <trkpt lat="46.45088" lon="0.24734">
        <ele>136.09307128384</ele>
        <time>2021-05-30T07:43:55Z</time>
      </trkpt>
      <trkpt lat="46.45099" lon="0.2473">
        <ele>136.04226786292</ele>
        <time>2021-05-30T07:44:00Z</time>
      </trkpt>
      <trkpt lat="46.45107" lon="0.24727">
        <ele>135.99748880162</ele>
        <time>2021-05-30T07:44:04Z</time>
      </trkpt>
      <trkpt lat="46.45114" lon="0.24721">
        <ele>135.92845135464</ele>
        <time>2021-05-30T07:44:10Z</time>
      </trkpt>
      <trkpt lat="46.45121" lon="0.24716">
        <ele>135.85537518241</ele>
        <time>2021-05-30T07:44:16Z</time>
      </trkpt>
      <trkpt lat="46.45129" lon="0.24711">
        <ele>135.78334430778</ele>
        <time>2021-05-30T07:44:22Z</time>
      </trkpt>
      <trkpt lat="46.45137" lon="0.24705">
        <ele>135.70573573362</ele>
        <time>2021-05-30T07:44:29Z</time>
      </trkpt>
      <trkpt lat="46.45145" lon="0.24701">
        <ele>135.63696008821</ele>
        <time>2021-05-30T07:44:36Z</time>
      </trkpt>
      <trkpt lat="46.45153" lon="0.24699">
        <ele>135.57727607757</ele>
        <time>2021-05-30T07:44:43Z</time>
      </trkpt>
      <trkpt lat="46.45162" lon="0.24697">
        <ele>135.50472659353</ele>
        <time>2021-05-30T07:44:53Z</time>
      </trkpt>
      <trkpt lat="46.45169" lon="0.24695">
        <ele>135.48242700125</ele>
        <time>2021-05-30T07:44:57Z</time>
      </trkpt>
      <trkpt lat="46.45177" lon="0.24693">
        <ele>135.45679073654</ele>
        <time>2021-05-30T07:45:02Z</time>
      </trkpt>
      <trkpt lat="46.45185" lon="0.24692">
        <ele>135.43614396373</ele>
        <time>2021-05-30T07:45:07Z</time>
      </trkpt>
      <trkpt lat="46.45193" lon="0.24691">
        <ele>135.40471698041</ele>
        <time>2021-05-30T07:45:17Z</time>
      </trkpt>
      <trkpt lat="46.45202" lon="0.24688">
        <ele>135.38246336151</ele>
        <time>2021-05-30T07:45:24Z</time>
      </trkpt>
      <trkpt lat="46.4521" lon="0.24689">
        <ele>135.35751957604</ele>
        <time>2021-05-30T07:45:29Z</time>
      </trkpt>
      <trkpt lat="46.45218" lon="0.24689">
        <ele>135.32256194043</ele>
        <time>2021-05-30T07:45:34Z</time>
      </trkpt>
      <trkpt lat="46.45227" lon="0.24689">
        <ele>135.27631966672</ele>
        <time>2021-05-30T07:45:39Z</time>
      </trkpt>
      <trkpt lat="46.45235" lon="0.24689">
        <ele>135.22208251295</ele>
        <time>2021-05-30T07:45:44Z</time>
      </trkpt>
      <trkpt lat="46.45244" lon="0.24692">
        <ele>135.15148822356</ele>
        <time>2021-05-30T07:45:50Z</time>
      </trkpt>
      <trkpt lat="46.45252" lon="0.24696">
        <ele>135.07209306768</ele>
        <time>2021-05-30T07:45:56Z</time>
      </trkpt>
      <trkpt lat="46.45259" lon="0.24701">
        <ele>135.00216666209</ele>
        <time>2021-05-30T07:46:01Z</time>
      </trkpt>
      <trkpt lat="46.45266" lon="0.24706">
        <ele>134.9126928942</ele>
        <time>2021-05-30T07:46:07Z</time>
      </trkpt>
      <trkpt lat="46.45274" lon="0.24711">
        <ele>134.81694634423</ele>
        <time>2021-05-30T07:46:13Z</time>
      </trkpt>
      <trkpt lat="46.45281" lon="0.24718">
        <ele>134.69532856252</ele>
        <time>2021-05-30T07:46:21Z</time>
      </trkpt>
      <trkpt lat="46.45288" lon="0.24725">
        <ele>134.60392756516</ele>
        <time>2021-05-30T07:46:28Z</time>
      </trkpt>
      <trkpt lat="46.45294" lon="0.24733">
        <ele>134.51792694654</ele>
        <time>2021-05-30T07:46:35Z</time>
      </trkpt>
      <trkpt lat="46.453" lon="0.24742">
        <ele>134.42834855181</ele>
        <time>2021-05-30T07:46:42Z</time>
      </trkpt>
      <trkpt lat="46.45307" lon="0.24751">
        <ele>134.34997716152</ele>
        <time>2021-05-30T07:46:48Z</time>
      </trkpt>
      <trkpt lat="46.45312" lon="0.24758">
        <ele>134.28343879609</ele>
        <time>2021-05-30T07:46:53Z</time>
      </trkpt>
      <trkpt lat="46.45318" lon="0.24766">
        <ele>134.21992977815</ele>
        <time>2021-05-30T07:46:58Z</time>
      </trkpt>
      <trkpt lat="46.45324" lon="0.24772">
        <ele>134.14875671652</ele>
        <time>2021-05-30T07:47:04Z</time>
      </trkpt>
      <trkpt lat="46.45332" lon="0.24779">
        <ele>134.06777156619</ele>
        <time>2021-05-30T07:47:11Z</time>
      </trkpt>
      <trkpt lat="46.45338" lon="0.24786">
        <ele>134.0068778276</ele>
        <time>2021-05-30T07:47:17Z</time>
      </trkpt>
      <trkpt lat="46.45345" lon="0.24792">
        <ele>133.96168102417</ele>
        <time>2021-05-30T07:47:22Z</time>
      </trkpt>
      <trkpt lat="46.45352" lon="0.248">
        <ele>133.90158937618</ele>
        <time>2021-05-30T07:47:30Z</time>
      </trkpt>
      <trkpt lat="46.4536" lon="0.24803">
        <ele>133.86428859034</ele>
        <time>2021-05-30T07:47:37Z</time>
      </trkpt>
      <trkpt lat="46.45369" lon="0.24804">
        <ele>133.841232829</ele>
        <time>2021-05-30T07:47:43Z</time>
      </trkpt>
      <trkpt lat="46.45376" lon="0.24799">
        <ele>133.81628694935</ele>
        <time>2021-05-30T07:47:49Z</time>
      </trkpt>
      <trkpt lat="46.45381" lon="0.24792">
        <ele>133.78698478088</ele>
        <time>2021-05-30T07:47:54Z</time>
      </trkpt>
      <trkpt lat="46.45389" lon="0.24785">
        <ele>133.74410713133</ele>
        <time>2021-05-30T07:48:00Z</time>
      </trkpt>
      <trkpt lat="46.45397" lon="0.24784">
        <ele>133.6888412679</ele>
        <time>2021-05-30T07:48:07Z</time>
      </trkpt>
      <trkpt lat="46.45405" lon="0.24788">
        <ele>133.63049353386</ele>
        <time>2021-05-30T07:48:14Z</time>
      </trkpt>
      <trkpt lat="46.45413" lon="0.24793">
        <ele>133.56678543786</ele>
        <time>2021-05-30T07:48:21Z</time>
      </trkpt>
      <trkpt lat="46.45421" lon="0.24798">
        <ele>133.51589822338</ele>
        <time>2021-05-30T07:48:26Z</time>
      </trkpt>
      <trkpt lat="46.45429" lon="0.24804">
        <ele>133.45083692822</ele>
        <time>2021-05-30T07:48:32Z</time>
      </trkpt>
      <trkpt lat="46.45436" lon="0.24809">
        <ele>133.38418500866</ele>
        <time>2021-05-30T07:48:38Z</time>
      </trkpt>
      <trkpt lat="46.45444" lon="0.24814">
        <ele>133.30619742449</ele>
        <time>2021-05-30T07:48:45Z</time>
      </trkpt>
      <trkpt lat="46.45451" lon="0.24819">
        <ele>133.23143534344</ele>
        <time>2021-05-30T07:48:52Z</time>
      </trkpt>
      <trkpt lat="46.45458" lon="0.24824">
        <ele>133.16669419014</ele>
        <time>2021-05-30T07:48:58Z</time>
      </trkpt>
      <trkpt lat="46.45466" lon="0.24827">
        <ele>133.08961113898</ele>
        <time>2021-05-30T07:49:05Z</time>
      </trkpt>
      <trkpt lat="46.45473" lon="0.24831">
        <ele>133.02258376331</ele>
        <time>2021-05-30T07:49:12Z</time>
      </trkpt>
      <trkpt lat="46.45481" lon="0.24834">
        <ele>132.97236224958</ele>
        <time>2021-05-30T07:49:18Z</time>
      </trkpt>
      <trkpt lat="46.45489" lon="0.24838">
        <ele>132.90849200733</ele>
        <time>2021-05-30T07:49:26Z</time>
      </trkpt>
      <trkpt lat="46.45497" lon="0.24842">
        <ele>132.85094964412</ele>
        <time>2021-05-30T07:49:34Z</time>
      </trkpt>
      <trkpt lat="46.45505" lon="0.24845">
        <ele>132.8078481625</ele>
        <time>2021-05-30T07:49:41Z</time>
      </trkpt>
      <trkpt lat="46.45513" lon="0.24849">
        <ele>132.77556786773</ele>
        <time>2021-05-30T07:49:47Z</time>
      </trkpt>
      <trkpt lat="46.45521" lon="0.24854">
        <ele>132.74197762896</ele>
        <time>2021-05-30T07:49:54Z</time>
      </trkpt>
      <trkpt lat="46.45529" lon="0.24857">
        <ele>132.71275138427</ele>
        <time>2021-05-30T07:50:02Z</time>
      </trkpt>
      <trkpt lat="46.45537" lon="0.2486">
        <ele>132.68929269689</ele>
        <time>2021-05-30T07:50:09Z</time>
      </trkpt>
      <trkpt lat="46.45545" lon="0.24864">
        <ele>132.66867303005</ele>
        <time>2021-05-30T07:50:16Z</time>
      </trkpt>
      <trkpt lat="46.45552" lon="0.24868">
        <ele>132.65088517065</ele>
        <time>2021-05-30T07:50:23Z</time>
      </trkpt>
      <trkpt lat="46.45561" lon="0.2487">
        <ele>132.64060732348</ele>
        <time>2021-05-30T07:50:28Z</time>
      </trkpt>
      <trkpt lat="46.45573" lon="0.24871">
        <ele>132.63429400514</ele>
        <time>2021-05-30T07:50:32Z</time>
      </trkpt>
      <trkpt lat="46.45581" lon="0.24874">
        <ele>132.62409015369</ele>
        <time>2021-05-30T07:50:38Z</time>
      </trkpt>
      <trkpt lat="46.45589" lon="0.24877">
        <ele>132.60910136878</ele>
        <time>2021-05-30T07:50:45Z</time>
      </trkpt>
      <trkpt lat="46.45598" lon="0.2488">
        <ele>132.59180149601</ele>
        <time>2021-05-30T07:50:53Z</time>
      </trkpt>
      <trkpt lat="46.45607" lon="0.2488">
        <ele>132.58010218492</ele>
        <time>2021-05-30T07:51:00Z</time>
      </trkpt>
      <trkpt lat="46.45614" lon="0.24877">
        <ele>132.57937764353</ele>
        <time>2021-05-30T07:51:05Z</time>
      </trkpt>
      <trkpt lat="46.45622" lon="0.24871">
        <ele>132.58491249014</ele>
        <time>2021-05-30T07:51:11Z</time>
      </trkpt>
      <trkpt lat="46.45629" lon="0.24869">
        <ele>132.59952738949</ele>
        <time>2021-05-30T07:51:15Z</time>
      </trkpt>
      <trkpt lat="46.45637" lon="0.24862">
        <ele>132.63258301638</ele>
        <time>2021-05-30T07:51:21Z</time>
      </trkpt>
      <trkpt lat="46.45644" lon="0.24857">
        <ele>132.66703169548</ele>
        <time>2021-05-30T07:51:27Z</time>
      </trkpt>
      <trkpt lat="46.45652" lon="0.24852">
        <ele>132.70711512872</ele>
        <time>2021-05-30T07:51:35Z</time>
      </trkpt>
      <trkpt lat="46.45661" lon="0.2485">
        <ele>132.7333956231</ele>
        <time>2021-05-30T07:51:41Z</time>
      </trkpt>
      <trkpt lat="46.45668" lon="0.24847">
        <ele>132.75719211553</ele>
        <time>2021-05-30T07:51:47Z</time>
      </trkpt>
      <trkpt lat="46.45677" lon="0.24845">
        <ele>132.78035969883</ele>
        <time>2021-05-30T07:51:53Z</time>
      </trkpt>
      <trkpt lat="46.45685" lon="0.24843">
        <ele>132.81127499517</ele>
        <time>2021-05-30T07:52:01Z</time>
      </trkpt>
      <trkpt lat="46.45693" lon="0.24841">
        <ele>132.84187474968</ele>
        <time>2021-05-30T07:52:09Z</time>
      </trkpt>
      <trkpt lat="46.45701" lon="0.24838">
        <ele>132.86038284053</ele>
        <time>2021-05-30T07:52:14Z</time>
      </trkpt>
      <trkpt lat="46.45709" lon="0.24834">
        <ele>132.88570719703</ele>
        <time>2021-05-30T07:52:20Z</time>
      </trkpt>
      <trkpt lat="46.45717" lon="0.2483">
        <ele>132.91578994982</ele>
        <time>2021-05-30T07:52:26Z</time>
      </trkpt>
      <trkpt lat="46.45726" lon="0.24831">
        <ele>132.97108911456</ele>
        <time>2021-05-30T07:52:35Z</time>
      </trkpt>
      <trkpt lat="46.45734" lon="0.2483">
        <ele>133.02245841644</ele>
        <time>2021-05-30T07:52:41Z</time>
      </trkpt>
      <trkpt lat="46.45742" lon="0.24827">
        <ele>133.09475839231</ele>
        <time>2021-05-30T07:52:48Z</time>
      </trkpt>
      <trkpt lat="46.4575" lon="0.24827">
        <ele>133.18923542894</ele>
        <time>2021-05-30T07:52:56Z</time>
      </trkpt>
      <trkpt lat="46.45759" lon="0.2483">
        <ele>133.27458142178</ele>
        <time>2021-05-30T07:53:03Z</time>
      </trkpt>
      <trkpt lat="46.45764" lon="0.2483">
        <ele>133.32075541322</ele>
        <time>2021-05-30T07:53:07Z</time>
      </trkpt>
      <trkpt lat="46.45774" lon="0.24837">
        <ele>133.37490993702</ele>
        <time>2021-05-30T07:53:11Z</time>
      </trkpt>
      <trkpt lat="46.45783" lon="0.24837">
        <ele>133.4992835146</ele>
        <time>2021-05-30T07:53:20Z</time>
      </trkpt>
      <trkpt lat="46.4579" lon="0.2483">
        <ele>133.63552517488</ele>
        <time>2021-05-30T07:53:31Z</time>
      </trkpt>
      <trkpt lat="46.45796" lon="0.24821">
        <ele>133.73071724384</ele>
        <time>2021-05-30T07:53:40Z</time>
      </trkpt>
      <trkpt lat="46.458" lon="0.2481">
        <ele>133.7946110131</ele>
        <time>2021-05-30T07:53:46Z</time>
      </trkpt>
      <trkpt lat="46.45804" lon="0.24801">
        <ele>133.85796310733</ele>
        <time>2021-05-30T07:53:52Z</time>
      </trkpt>
      <trkpt lat="46.45807" lon="0.24789">
        <ele>133.90786870767</ele>
        <time>2021-05-30T07:53:57Z</time>
      </trkpt>
      <trkpt lat="46.45809" lon="0.24777">
        <ele>133.9813128877</ele>
        <time>2021-05-30T07:54:04Z</time>
      </trkpt>
      <trkpt lat="46.45812" lon="0.24765">
        <ele>134.07140411857</ele>
        <time>2021-05-30T07:54:11Z</time>
      </trkpt>
      <trkpt lat="46.45814" lon="0.24751">
        <ele>134.14611018594</ele>
        <time>2021-05-30T07:54:16Z</time>
      </trkpt>
      <trkpt lat="46.45815" lon="0.24737">
        <ele>134.22546558687</ele>
        <time>2021-05-30T07:54:21Z</time>
      </trkpt>
      <trkpt lat="46.45815" lon="0.24726">
        <ele>134.33745628799</ele>
        <time>2021-05-30T07:54:28Z</time>
      </trkpt>
      <trkpt lat="46.45817" lon="0.24714">
        <ele>134.40036294972</ele>
        <time>2021-05-30T07:54:32Z</time>
      </trkpt>
      <trkpt lat="46.45818" lon="0.24702">
        <ele>134.48204281269</ele>
        <time>2021-05-30T07:54:37Z</time>
      </trkpt>
      <trkpt lat="46.4582" lon="0.2469">
        <ele>134.59481097236</ele>
        <time>2021-05-30T07:54:44Z</time>
      </trkpt>
      <trkpt lat="46.45823" lon="0.2468">
        <ele>134.70379338801</ele>
        <time>2021-05-30T07:54:51Z</time>
      </trkpt>
      <trkpt lat="46.45827" lon="0.24669">
        <ele>134.79052305686</ele>
        <time>2021-05-30T07:54:57Z</time>
      </trkpt>
      <trkpt lat="46.4583" lon="0.24658">
        <ele>134.87377412998</ele>
        <time>2021-05-30T07:55:03Z</time>
      </trkpt>
      <trkpt lat="46.45833" lon="0.24647">
        <ele>134.95974546511</ele>
        <time>2021-05-30T07:55:09Z</time>
      </trkpt>
      <trkpt lat="46.45836" lon="0.24635">
        <ele>135.06314270904</ele>
        <time>2021-05-30T07:55:16Z</time>
      </trkpt>
      <trkpt lat="46.45836" lon="0.24623">
        <ele>135.16110660413</ele>
        <time>2021-05-30T07:55:23Z</time>
      </trkpt>
      <trkpt lat="46.45832" lon="0.24613">
        <ele>135.24215178545</ele>
        <time>2021-05-30T07:55:30Z</time>
      </trkpt>
      <trkpt lat="46.45828" lon="0.24601">
        <ele>135.33908560258</ele>
        <time>2021-05-30T07:55:56Z</time>
      </trkpt>
      <trkpt lat="46.45823" lon="0.24592">
        <ele>135.37453634569</ele>
        <time>2021-05-30T07:56:37Z</time>
      </trkpt>
      <trkpt lat="46.45817" lon="0.24583">
        <ele>135.40523976499</ele>
        <time>2021-05-30T07:56:46Z</time>
      </trkpt>
      <trkpt lat="46.45811" lon="0.24573">
        <ele>135.433067592</ele>
        <time>2021-05-30T07:56:55Z</time>
      </trkpt>
      <trkpt lat="46.45804" lon="0.24567">
        <ele>135.44751917448</ele>
        <time>2021-05-30T07:57:01Z</time>
      </trkpt>
      <trkpt lat="46.45795" lon="0.24563">
        <ele>135.46511450567</ele>
        <time>2021-05-30T07:57:07Z</time>
      </trkpt>
      <trkpt lat="46.45787" lon="0.24561">
        <ele>135.47896059835</ele>
        <time>2021-05-30T07:57:12Z</time>
      </trkpt>
      <trkpt lat="46.45779" lon="0.24559">
        <ele>135.49298233175</ele>
        <time>2021-05-30T07:57:17Z</time>
      </trkpt>
      <trkpt lat="46.4577" lon="0.24558">
        <ele>135.5098160474</ele>
        <time>2021-05-30T07:57:24Z</time>
      </trkpt>
      <trkpt lat="46.45762" lon="0.24557">
        <ele>135.51953707607</ele>
        <time>2021-05-30T07:57:30Z</time>
      </trkpt>
      <trkpt lat="46.45754" lon="0.24557">
        <ele>135.52304990247</ele>
        <time>2021-05-30T07:57:35Z</time>
      </trkpt>
      <trkpt lat="46.45747" lon="0.24556">
        <ele>135.52230657656</ele>
        <time>2021-05-30T07:57:40Z</time>
      </trkpt>
      <trkpt lat="46.45739" lon="0.24556">
        <ele>135.51549232357</ele>
        <time>2021-05-30T07:57:46Z</time>
      </trkpt>
      <trkpt lat="46.45731" lon="0.24556">
        <ele>135.50599596591</ele>
        <time>2021-05-30T07:57:51Z</time>
      </trkpt>
      <trkpt lat="46.45723" lon="0.24555">
        <ele>135.4933482372</ele>
        <time>2021-05-30T07:57:56Z</time>
      </trkpt>
      <trkpt lat="46.45716" lon="0.24554">
        <ele>135.47767524996</ele>
        <time>2021-05-30T07:58:01Z</time>
      </trkpt>
      <trkpt lat="46.45708" lon="0.24552">
        <ele>135.45562495401</ele>
        <time>2021-05-30T07:58:07Z</time>
      </trkpt>
      <trkpt lat="46.45699" lon="0.24552">
        <ele>135.42665035046</ele>
        <time>2021-05-30T07:58:14Z</time>
      </trkpt>
      <trkpt lat="46.4569" lon="0.24551">
        <ele>135.38250989592</ele>
        <time>2021-05-30T07:58:22Z</time>
      </trkpt>
      <trkpt lat="46.45682" lon="0.24547">
        <ele>135.34891686471</ele>
        <time>2021-05-30T07:58:27Z</time>
      </trkpt>
      <trkpt lat="46.45674" lon="0.24543">
        <ele>135.30596764379</ele>
        <time>2021-05-30T07:58:33Z</time>
      </trkpt>
      <trkpt lat="46.45666" lon="0.24538">
        <ele>135.2607331728</ele>
        <time>2021-05-30T07:58:39Z</time>
      </trkpt>
      <trkpt lat="46.45659" lon="0.24533">
        <ele>135.22172742406</ele>
        <time>2021-05-30T07:58:44Z</time>
      </trkpt>
      <trkpt lat="46.45653" lon="0.24525">
        <ele>135.17344604476</ele>
        <time>2021-05-30T07:58:50Z</time>
      </trkpt>
      <trkpt lat="46.45647" lon="0.24518">
        <ele>135.13334216047</ele>
        <time>2021-05-30T07:58:55Z</time>
      </trkpt>
      <trkpt lat="46.45641" lon="0.2451">
        <ele>135.08580651057</ele>
        <time>2021-05-30T07:59:01Z</time>
      </trkpt>
      <trkpt lat="46.45634" lon="0.24502">
        <ele>135.03931927916</ele>
        <time>2021-05-30T07:59:07Z</time>
      </trkpt>
      <trkpt lat="46.45628" lon="0.24493">
        <ele>134.99419142983</ele>
        <time>2021-05-30T07:59:13Z</time>
      </trkpt>
      <trkpt lat="46.45622" lon="0.24486">
        <ele>134.95658710846</ele>
        <time>2021-05-30T07:59:18Z</time>
      </trkpt>
      <trkpt lat="46.45615" lon="0.24478">
        <ele>134.91010475999</ele>
        <time>2021-05-30T07:59:24Z</time>
      </trkpt>
      <trkpt lat="46.45609" lon="0.24471">
        <ele>134.86250962303</ele>
        <time>2021-05-30T07:59:30Z</time>
      </trkpt>
      <trkpt lat="46.45603" lon="0.24463">
        <ele>134.80889187871</ele>
        <time>2021-05-30T07:59:37Z</time>
      </trkpt>
      <trkpt lat="46.45598" lon="0.24455">
        <ele>134.77004173235</ele>
        <time>2021-05-30T07:59:42Z</time>
      </trkpt>
      <trkpt lat="46.45593" lon="0.24446">
        <ele>134.72984623867</ele>
        <time>2021-05-30T07:59:47Z</time>
      </trkpt>
      <trkpt lat="46.45587" lon="0.24437">
        <ele>134.68098994282</ele>
        <time>2021-05-30T07:59:53Z</time>
      </trkpt>
      <trkpt lat="46.45583" lon="0.24427">
        <ele>134.62997347131</ele>
        <time>2021-05-30T07:59:59Z</time>
      </trkpt>
      <trkpt lat="46.45579" lon="0.24416">
        <ele>134.56676856972</ele>
        <time>2021-05-30T08:00:06Z</time>
      </trkpt>
      <trkpt lat="46.45574" lon="0.24405">
        <ele>134.49946532553</ele>
        <time>2021-05-30T08:00:13Z</time>
      </trkpt>
      <trkpt lat="46.4557" lon="0.24395">
        <ele>134.43013141081</ele>
        <time>2021-05-30T08:00:20Z</time>
      </trkpt>
      <trkpt lat="46.45565" lon="0.24384">
        <ele>134.36009114037</ele>
        <time>2021-05-30T08:00:27Z</time>
      </trkpt>
      <trkpt lat="46.4556" lon="0.24374">
        <ele>134.29153057878</ele>
        <time>2021-05-30T08:00:34Z</time>
      </trkpt>
      <trkpt lat="46.45555" lon="0.24364">
        <ele>134.23506850092</ele>
        <time>2021-05-30T08:00:40Z</time>
      </trkpt>
      <trkpt lat="46.4555" lon="0.24355">
        <ele>134.18061328947</ele>
        <time>2021-05-30T08:00:46Z</time>
      </trkpt>
      <trkpt lat="46.45545" lon="0.24345">
        <ele>134.12882937626</ele>
        <time>2021-05-30T08:00:52Z</time>
      </trkpt>
      <trkpt lat="46.45539" lon="0.24335">
        <ele>134.0774267135</ele>
        <time>2021-05-30T08:00:58Z</time>
      </trkpt>
      <trkpt lat="46.45535" lon="0.24323">
        <ele>134.02429866271</ele>
        <time>2021-05-30T08:01:04Z</time>
      </trkpt>
      <trkpt lat="46.45532" lon="0.24313">
        <ele>133.9737360088</ele>
        <time>2021-05-30T08:01:10Z</time>
      </trkpt>
      <trkpt lat="46.4553" lon="0.243">
        <ele>133.92484887278</ele>
        <time>2021-05-30T08:01:16Z</time>
      </trkpt>
      <trkpt lat="46.4553" lon="0.24288">
        <ele>133.87905267107</ele>
        <time>2021-05-30T08:01:22Z</time>
      </trkpt>
      <trkpt lat="46.45529" lon="0.24276">
        <ele>133.82738993235</ele>
        <time>2021-05-30T08:01:29Z</time>
      </trkpt>
      <trkpt lat="46.45529" lon="0.24264">
        <ele>133.78049642142</ele>
        <time>2021-05-30T08:01:35Z</time>
      </trkpt>
      <trkpt lat="46.45529" lon="0.24252">
        <ele>133.73299071084</ele>
        <time>2021-05-30T08:01:41Z</time>
      </trkpt>
      <trkpt lat="46.4553" lon="0.2424">
        <ele>133.68316032218</ele>
        <time>2021-05-30T08:01:47Z</time>
      </trkpt>
      <trkpt lat="46.45532" lon="0.24228">
        <ele>133.5955219284</ele>
        <time>2021-05-30T08:01:59Z</time>
      </trkpt>
      <trkpt lat="46.45536" lon="0.24218">
        <ele>133.48010723513</ele>
        <time>2021-05-30T08:02:25Z</time>
      </trkpt>
      <trkpt lat="46.45538" lon="0.24206">
        <ele>133.4082102984</ele>
        <time>2021-05-30T08:02:31Z</time>
      </trkpt>
      <trkpt lat="46.45537" lon="0.24194">
        <ele>133.33502440897</ele>
        <time>2021-05-30T08:02:39Z</time>
      </trkpt>
      <trkpt lat="46.45539" lon="0.24198">
        <ele>128.51882095705</ele>
        <time>2021-05-30T08:49:39Z</time>
      </trkpt>
      <trkpt lat="46.45539" lon="0.24198">
        <ele>128.51882095705</ele>
        <time>2021-05-30T08:49:39Z</time>
      </trkpt>
      <trkpt lat="46.45532" lon="0.24192">
        <ele>128.75170101702</ele>
        <time>2021-05-30T08:49:45Z</time>
      </trkpt>
      <trkpt lat="46.45525" lon="0.24188">
        <ele>128.98503490597</ele>
        <time>2021-05-30T08:49:51Z</time>
      </trkpt>
      <trkpt lat="46.45516" lon="0.24184">
        <ele>129.21575094442</ele>
        <time>2021-05-30T08:49:57Z</time>
      </trkpt>
      <trkpt lat="46.45508" lon="0.2418">
        <ele>129.44929045986</ele>
        <time>2021-05-30T08:50:03Z</time>
      </trkpt>
      <trkpt lat="46.455" lon="0.24176">
        <ele>129.68584620548</ele>
        <time>2021-05-30T08:50:09Z</time>
      </trkpt>
      <trkpt lat="46.45493" lon="0.2417">
        <ele>129.92957918324</ele>
        <time>2021-05-30T08:50:15Z</time>
      </trkpt>
      <trkpt lat="46.45486" lon="0.24163">
        <ele>130.17159390756</ele>
        <time>2021-05-30T08:50:21Z</time>
      </trkpt>
      <trkpt lat="46.45482" lon="0.24154">
        <ele>130.40852146756</ele>
        <time>2021-05-30T08:50:27Z</time>
      </trkpt>
      <trkpt lat="46.45477" lon="0.24146">
        <ele>130.60059466605</ele>
        <time>2021-05-30T08:50:32Z</time>
      </trkpt>
      <trkpt lat="46.45471" lon="0.24137">
        <ele>130.82478186807</ele>
        <time>2021-05-30T08:50:38Z</time>
      </trkpt>
      <trkpt lat="46.45465" lon="0.24127">
        <ele>131.04387313029</ele>
        <time>2021-05-30T08:50:44Z</time>
      </trkpt>
      <trkpt lat="46.4546" lon="0.24119">
        <ele>131.26334520576</ele>
        <time>2021-05-30T08:50:50Z</time>
      </trkpt>
      <trkpt lat="46.45453" lon="0.2411">
        <ele>131.51999960866</ele>
        <time>2021-05-30T08:50:57Z</time>
      </trkpt>
      <trkpt lat="46.45446" lon="0.24103">
        <ele>131.74068534469</ele>
        <time>2021-05-30T08:51:03Z</time>
      </trkpt>
      <trkpt lat="46.45438" lon="0.24098">
        <ele>131.96066661979</ele>
        <time>2021-05-30T08:51:09Z</time>
      </trkpt>
      <trkpt lat="46.45432" lon="0.24091">
        <ele>132.17881093142</ele>
        <time>2021-05-30T08:51:15Z</time>
      </trkpt>
      <trkpt lat="46.45425" lon="0.24085">
        <ele>132.39537309917</ele>
        <time>2021-05-30T08:51:21Z</time>
      </trkpt>
      <trkpt lat="46.45418" lon="0.24078">
        <ele>132.65599047399</ele>
        <time>2021-05-30T08:51:28Z</time>
      </trkpt>
      <trkpt lat="46.4541" lon="0.24072">
        <ele>132.91460404312</ele>
        <time>2021-05-30T08:51:35Z</time>
      </trkpt>
      <trkpt lat="46.45402" lon="0.24066">
        <ele>133.1680292893</ele>
        <time>2021-05-30T08:51:42Z</time>
      </trkpt>
      <trkpt lat="46.45395" lon="0.24062">
        <ele>133.34507579884</ele>
        <time>2021-05-30T08:51:47Z</time>
      </trkpt>
      <trkpt lat="46.45388" lon="0.24057">
        <ele>133.5192262282</ele>
        <time>2021-05-30T08:51:52Z</time>
      </trkpt>
      <trkpt lat="46.45381" lon="0.24051">
        <ele>133.6900176184</ele>
        <time>2021-05-30T08:51:57Z</time>
      </trkpt>
      <trkpt lat="46.45374" lon="0.24044">
        <ele>133.85200142824</ele>
        <time>2021-05-30T08:52:02Z</time>
      </trkpt>
      <trkpt lat="46.45366" lon="0.24036">
        <ele>134.03496430166</ele>
        <time>2021-05-30T08:52:08Z</time>
      </trkpt>
      <trkpt lat="46.4536" lon="0.2403">
        <ele>134.24081169605</ele>
        <time>2021-05-30T08:52:15Z</time>
      </trkpt>
      <trkpt lat="46.45352" lon="0.24025">
        <ele>134.40998896489</ele>
        <time>2021-05-30T08:52:21Z</time>
      </trkpt>
      <trkpt lat="46.45345" lon="0.24017">
        <ele>134.59604256115</ele>
        <time>2021-05-30T08:52:28Z</time>
      </trkpt>
      <trkpt lat="46.45343" lon="0.24005">
        <ele>134.75369350264</ele>
        <time>2021-05-30T08:52:34Z</time>
      </trkpt>
      <trkpt lat="46.4534" lon="0.23993">
        <ele>134.94346153343</ele>
        <time>2021-05-30T08:52:41Z</time>
      </trkpt>
      <trkpt lat="46.45338" lon="0.23981">
        <ele>135.13315028607</ele>
        <time>2021-05-30T08:52:48Z</time>
      </trkpt>
      <trkpt lat="46.45335" lon="0.2397">
        <ele>135.28996939831</ele>
        <time>2021-05-30T08:52:54Z</time>
      </trkpt>
      <trkpt lat="46.45331" lon="0.2396">
        <ele>135.4439516078</ele>
        <time>2021-05-30T08:53:00Z</time>
      </trkpt>
      <trkpt lat="46.45326" lon="0.2395">
        <ele>135.59490496223</ele>
        <time>2021-05-30T08:53:06Z</time>
      </trkpt>
      <trkpt lat="46.45319" lon="0.23942">
        <ele>135.76450574455</ele>
        <time>2021-05-30T08:53:13Z</time>
      </trkpt>
      <trkpt lat="46.45314" lon="0.23935">
        <ele>135.90926522237</ele>
        <time>2021-05-30T08:53:19Z</time>
      </trkpt>
      <trkpt lat="46.45309" lon="0.23927">
        <ele>136.02636591456</ele>
        <time>2021-05-30T08:53:24Z</time>
      </trkpt>
      <trkpt lat="46.45303" lon="0.23919">
        <ele>136.14044411937</ele>
        <time>2021-05-30T08:53:29Z</time>
      </trkpt>
      <trkpt lat="46.45297" lon="0.23911">
        <ele>136.27733023929</ele>
        <time>2021-05-30T08:53:35Z</time>
      </trkpt>
      <trkpt lat="46.45292" lon="0.23903">
        <ele>136.39043681078</ele>
        <time>2021-05-30T08:53:40Z</time>
      </trkpt>
      <trkpt lat="46.45285" lon="0.23894">
        <ele>136.54922741319</ele>
        <time>2021-05-30T08:53:47Z</time>
      </trkpt>
      <trkpt lat="46.45279" lon="0.23887">
        <ele>136.70570813805</ele>
        <time>2021-05-30T08:53:54Z</time>
      </trkpt>
      <trkpt lat="46.45272" lon="0.23879">
        <ele>136.86552463281</ele>
        <time>2021-05-30T08:54:01Z</time>
      </trkpt>
      <trkpt lat="46.45265" lon="0.23871">
        <ele>137.03227319498</ele>
        <time>2021-05-30T08:54:08Z</time>
      </trkpt>
      <trkpt lat="46.45259" lon="0.23864">
        <ele>137.1724630216</ele>
        <time>2021-05-30T08:54:14Z</time>
      </trkpt>
      <trkpt lat="46.45253" lon="0.23855">
        <ele>137.36018592509</ele>
        <time>2021-05-30T08:54:22Z</time>
      </trkpt>
      <trkpt lat="46.45247" lon="0.23848">
        <ele>137.49569207292</ele>
        <time>2021-05-30T08:54:28Z</time>
      </trkpt>
      <trkpt lat="46.45243" lon="0.23838">
        <ele>137.62073401275</ele>
        <time>2021-05-30T08:54:34Z</time>
      </trkpt>
      <trkpt lat="46.45238" lon="0.23829">
        <ele>137.75655262934</ele>
        <time>2021-05-30T08:54:41Z</time>
      </trkpt>
      <trkpt lat="46.45232" lon="0.2382">
        <ele>137.88561608132</ele>
        <time>2021-05-30T08:54:48Z</time>
      </trkpt>
      <trkpt lat="46.45225" lon="0.23811">
        <ele>137.99354426987</ele>
        <time>2021-05-30T08:54:54Z</time>
      </trkpt>
      <trkpt lat="46.4522" lon="0.23802">
        <ele>138.10157698538</ele>
        <time>2021-05-30T08:55:00Z</time>
      </trkpt>
      <trkpt lat="46.45214" lon="0.23793">
        <ele>138.20953067218</ele>
        <time>2021-05-30T08:55:06Z</time>
      </trkpt>
      <trkpt lat="46.45209" lon="0.23784">
        <ele>138.31310793919</ele>
        <time>2021-05-30T08:55:12Z</time>
      </trkpt>
      <trkpt lat="46.45204" lon="0.23775">
        <ele>138.41502400077</ele>
        <time>2021-05-30T08:55:18Z</time>
      </trkpt>
      <trkpt lat="46.45199" lon="0.23767">
        <ele>138.51544287953</ele>
        <time>2021-05-30T08:55:24Z</time>
      </trkpt>
      <trkpt lat="46.45195" lon="0.23756">
        <ele>138.60838420103</ele>
        <time>2021-05-30T08:55:30Z</time>
      </trkpt>
      <trkpt lat="46.45191" lon="0.23747">
        <ele>138.67711095858</ele>
        <time>2021-05-30T08:55:35Z</time>
      </trkpt>
      <trkpt lat="46.45186" lon="0.23736">
        <ele>138.76637593563</ele>
        <time>2021-05-30T08:55:42Z</time>
      </trkpt>
      <trkpt lat="46.4518" lon="0.23727">
        <ele>138.83903485344</ele>
        <time>2021-05-30T08:55:48Z</time>
      </trkpt>
      <trkpt lat="46.45174" lon="0.2372">
        <ele>138.91346075209</ele>
        <time>2021-05-30T08:55:54Z</time>
      </trkpt>
      <trkpt lat="46.45168" lon="0.23712">
        <ele>138.98933842422</ele>
        <time>2021-05-30T08:56:00Z</time>
      </trkpt>
      <trkpt lat="46.45164" lon="0.23703">
        <ele>139.06478783597</ele>
        <time>2021-05-30T08:56:06Z</time>
      </trkpt>
      <trkpt lat="46.45158" lon="0.23695">
        <ele>139.14046651623</ele>
        <time>2021-05-30T08:56:12Z</time>
      </trkpt>
      <trkpt lat="46.45151" lon="0.23687">
        <ele>139.23462080026</ele>
        <time>2021-05-30T08:56:19Z</time>
      </trkpt>
      <trkpt lat="46.45145" lon="0.2368">
        <ele>139.31851004104</ele>
        <time>2021-05-30T08:56:25Z</time>
      </trkpt>
      <trkpt lat="46.45139" lon="0.23672">
        <ele>139.40151066627</ele>
        <time>2021-05-30T08:56:31Z</time>
      </trkpt>
      <trkpt lat="46.45133" lon="0.23664">
        <ele>139.47814407292</ele>
        <time>2021-05-30T08:56:37Z</time>
      </trkpt>
      <trkpt lat="46.45128" lon="0.23655">
        <ele>139.54881782838</ele>
        <time>2021-05-30T08:56:43Z</time>
      </trkpt>
      <trkpt lat="46.45121" lon="0.23646">
        <ele>139.6146454196</ele>
        <time>2021-05-30T08:56:49Z</time>
      </trkpt>
      <trkpt lat="46.45114" lon="0.23639">
        <ele>139.68747638281</ele>
        <time>2021-05-30T08:56:56Z</time>
      </trkpt>
      <trkpt lat="46.45106" lon="0.23636">
        <ele>139.74570811461</ele>
        <time>2021-05-30T08:57:02Z</time>
      </trkpt>
      <trkpt lat="46.45098" lon="0.2364">
        <ele>139.8063259422</ele>
        <time>2021-05-30T08:57:09Z</time>
      </trkpt>
      <trkpt lat="46.4509" lon="0.23647">
        <ele>139.85841044468</ele>
        <time>2021-05-30T08:57:16Z</time>
      </trkpt>
      <trkpt lat="46.45084" lon="0.23655">
        <ele>139.9051888697</ele>
        <time>2021-05-30T08:57:23Z</time>
      </trkpt>
      <trkpt lat="46.45078" lon="0.23664">
        <ele>139.94919583459</ele>
        <time>2021-05-30T08:57:30Z</time>
      </trkpt>
      <trkpt lat="46.4507" lon="0.2367">
        <ele>139.98849586335</ele>
        <time>2021-05-30T08:57:37Z</time>
      </trkpt>
      <trkpt lat="46.45062" lon="0.23667">
        <ele>140.02158302124</ele>
        <time>2021-05-30T08:57:44Z</time>
      </trkpt>
      <trkpt lat="46.45054" lon="0.23664">
        <ele>140.0506439368</ele>
        <time>2021-05-30T08:57:51Z</time>
      </trkpt>
      <trkpt lat="46.45046" lon="0.23661">
        <ele>140.08094555024</ele>
        <time>2021-05-30T08:57:59Z</time>
      </trkpt>
      <trkpt lat="46.45038" lon="0.23657">
        <ele>140.10172212363</ele>
        <time>2021-05-30T08:58:06Z</time>
      </trkpt>
      <trkpt lat="46.4503" lon="0.23653">
        <ele>140.11471022291</ele>
        <time>2021-05-30T08:58:12Z</time>
      </trkpt>
      <trkpt lat="46.45023" lon="0.23648">
        <ele>140.12109198807</ele>
        <time>2021-05-30T08:58:18Z</time>
      </trkpt>
      <trkpt lat="46.45016" lon="0.23643">
        <ele>140.12067784085</ele>
        <time>2021-05-30T08:58:25Z</time>
      </trkpt>
      <trkpt lat="46.45009" lon="0.23637">
        <ele>140.11726791441</ele>
        <time>2021-05-30T08:58:31Z</time>
      </trkpt>
      <trkpt lat="46.45002" lon="0.23631">
        <ele>140.10646208695</ele>
        <time>2021-05-30T08:58:37Z</time>
      </trkpt>
      <trkpt lat="46.44994" lon="0.23625">
        <ele>140.09092917638</ele>
        <time>2021-05-30T08:58:43Z</time>
      </trkpt>
      <trkpt lat="46.44987" lon="0.23619">
        <ele>140.07075955554</ele>
        <time>2021-05-30T08:58:49Z</time>
      </trkpt>
      <trkpt lat="46.44978" lon="0.23615">
        <ele>140.0538286946</ele>
        <time>2021-05-30T08:58:54Z</time>
      </trkpt>
      <trkpt lat="46.44971" lon="0.23612">
        <ele>140.03981528931</ele>
        <time>2021-05-30T08:58:59Z</time>
      </trkpt>
      <trkpt lat="46.44963" lon="0.23607">
        <ele>140.02871971612</ele>
        <time>2021-05-30T08:59:04Z</time>
      </trkpt>
      <trkpt lat="46.44956" lon="0.23602">
        <ele>140.02284207397</ele>
        <time>2021-05-30T08:59:09Z</time>
      </trkpt>
      <trkpt lat="46.44948" lon="0.23596">
        <ele>140.02336931718</ele>
        <time>2021-05-30T08:59:14Z</time>
      </trkpt>
      <trkpt lat="46.4494" lon="0.23592">
        <ele>140.03182932095</ele>
        <time>2021-05-30T08:59:21Z</time>
      </trkpt>
      <trkpt lat="46.44932" lon="0.23588">
        <ele>140.04618155223</ele>
        <time>2021-05-30T08:59:27Z</time>
      </trkpt>
      <trkpt lat="46.44924" lon="0.23584">
        <ele>140.06384351618</ele>
        <time>2021-05-30T08:59:33Z</time>
      </trkpt>
      <trkpt lat="46.44916" lon="0.2358">
        <ele>140.08340020703</ele>
        <time>2021-05-30T08:59:40Z</time>
      </trkpt>
      <trkpt lat="46.44909" lon="0.23576">
        <ele>140.11331939726</ele>
        <time>2021-05-30T08:59:49Z</time>
      </trkpt>
      <trkpt lat="46.449" lon="0.23574">
        <ele>140.13973731711</ele>
        <time>2021-05-30T08:59:56Z</time>
      </trkpt>
      <trkpt lat="46.44893" lon="0.23571">
        <ele>140.16353639539</ele>
        <time>2021-05-30T09:00:02Z</time>
      </trkpt>
      <trkpt lat="46.44886" lon="0.23565">
        <ele>140.18543218009</ele>
        <time>2021-05-30T09:00:07Z</time>
      </trkpt>
      <trkpt lat="46.44879" lon="0.23562">
        <ele>140.20868872338</ele>
        <time>2021-05-30T09:00:12Z</time>
      </trkpt>
      <trkpt lat="46.44871" lon="0.2356">
        <ele>140.24947891159</ele>
        <time>2021-05-30T09:00:20Z</time>
      </trkpt>
      <trkpt lat="46.44862" lon="0.23556">
        <ele>140.28620286535</ele>
        <time>2021-05-30T09:00:27Z</time>
      </trkpt>
      <trkpt lat="46.44854" lon="0.23552">
        <ele>140.32672865721</ele>
        <time>2021-05-30T09:00:35Z</time>
      </trkpt>
      <trkpt lat="46.44846" lon="0.23549">
        <ele>140.35384587575</ele>
        <time>2021-05-30T09:00:40Z</time>
      </trkpt>
      <trkpt lat="46.44838" lon="0.23546">
        <ele>140.3878686716</ele>
        <time>2021-05-30T09:00:46Z</time>
      </trkpt>
      <trkpt lat="46.44831" lon="0.23541">
        <ele>140.41242364179</ele>
        <time>2021-05-30T09:00:51Z</time>
      </trkpt>
      <trkpt lat="46.44824" lon="0.23533">
        <ele>140.44056007414</ele>
        <time>2021-05-30T09:01:06Z</time>
      </trkpt>
      <trkpt lat="46.44817" lon="0.23528">
        <ele>140.47634769138</ele>
        <time>2021-05-30T09:01:18Z</time>
      </trkpt>
      <trkpt lat="46.44809" lon="0.23523">
        <ele>140.50065145889</ele>
        <time>2021-05-30T09:01:24Z</time>
      </trkpt>
      <trkpt lat="46.44804" lon="0.23514">
        <ele>140.53112405804</ele>
        <time>2021-05-30T09:01:31Z</time>
      </trkpt>
      <trkpt lat="46.44799" lon="0.23506">
        <ele>140.55743522724</ele>
        <time>2021-05-30T09:01:37Z</time>
      </trkpt>
      <trkpt lat="46.44793" lon="0.23498">
        <ele>140.57896962358</ele>
        <time>2021-05-30T09:01:43Z</time>
      </trkpt>
      <trkpt lat="46.44785" lon="0.23491">
        <ele>140.59601543059</ele>
        <time>2021-05-30T09:01:49Z</time>
      </trkpt>
      <trkpt lat="46.44779" lon="0.23483">
        <ele>140.61509972627</ele>
        <time>2021-05-30T09:01:57Z</time>
      </trkpt>
      <trkpt lat="46.44772" lon="0.23476">
        <ele>140.62711628444</ele>
        <time>2021-05-30T09:02:03Z</time>
      </trkpt>
      <trkpt lat="46.44764" lon="0.23471">
        <ele>140.65034822616</ele>
        <time>2021-05-30T09:02:10Z</time>
      </trkpt>
      <trkpt lat="46.44758" lon="0.23464">
        <ele>140.67640928954</ele>
        <time>2021-05-30T09:02:17Z</time>
      </trkpt>
      <trkpt lat="46.44752" lon="0.23455">
        <ele>140.69435038856</ele>
        <time>2021-05-30T09:02:21Z</time>
      </trkpt>
      <trkpt lat="46.44747" lon="0.23446">
        <ele>140.72308066596</ele>
        <time>2021-05-30T09:02:27Z</time>
      </trkpt>
      <trkpt lat="46.44743" lon="0.23436">
        <ele>140.768872856</ele>
        <time>2021-05-30T09:02:36Z</time>
      </trkpt>
      <trkpt lat="46.44739" lon="0.23423">
        <ele>140.78472784805</ele>
        <time>2021-05-30T09:02:40Z</time>
      </trkpt>
      <trkpt lat="46.44735" lon="0.23411">
        <ele>140.80367353431</ele>
        <time>2021-05-30T09:02:47Z</time>
      </trkpt>
      <trkpt lat="46.44733" lon="0.234">
        <ele>140.81028942404</ele>
        <time>2021-05-30T09:02:53Z</time>
      </trkpt>
      <trkpt lat="46.4473" lon="0.23388">
        <ele>140.79676580438</ele>
        <time>2021-05-30T09:02:59Z</time>
      </trkpt>
      <trkpt lat="46.44725" lon="0.2338">
        <ele>140.77313903276</ele>
        <time>2021-05-30T09:03:05Z</time>
      </trkpt>
      <trkpt lat="46.44719" lon="0.23374">
        <ele>140.73804857733</ele>
        <time>2021-05-30T09:03:12Z</time>
      </trkpt>
      <trkpt lat="46.44713" lon="0.23366">
        <ele>140.69480474082</ele>
        <time>2021-05-30T09:03:21Z</time>
      </trkpt>
      <trkpt lat="46.44707" lon="0.23358">
        <ele>140.65981560988</ele>
        <time>2021-05-30T09:03:28Z</time>
      </trkpt>
      <trkpt lat="46.44699" lon="0.23352">
        <ele>140.6160417296</ele>
        <time>2021-05-30T09:03:36Z</time>
      </trkpt>
      <trkpt lat="46.44692" lon="0.23343">
        <ele>140.59487063373</ele>
        <time>2021-05-30T09:03:40Z</time>
      </trkpt>
      <trkpt lat="46.44683" lon="0.23341">
        <ele>140.55768895019</ele>
        <time>2021-05-30T09:03:48Z</time>
      </trkpt>
      <trkpt lat="46.44676" lon="0.23339">
        <ele>140.52009706257</ele>
        <time>2021-05-30T09:03:55Z</time>
      </trkpt>
      <trkpt lat="46.44667" lon="0.23336">
        <ele>140.48243029688</ele>
        <time>2021-05-30T09:04:03Z</time>
      </trkpt>
      <trkpt lat="46.44657" lon="0.23329">
        <ele>140.45975804113</ele>
        <time>2021-05-30T09:04:07Z</time>
      </trkpt>
      <trkpt lat="46.44651" lon="0.23328">
        <ele>140.40663672448</ele>
        <time>2021-05-30T09:04:15Z</time>
      </trkpt>
      <trkpt lat="46.44644" lon="0.2332">
        <ele>140.36154140871</ele>
        <time>2021-05-30T09:04:22Z</time>
      </trkpt>
      <trkpt lat="46.4464" lon="0.23317">
        <ele>140.33511402177</ele>
        <time>2021-05-30T09:04:26Z</time>
      </trkpt>
      <trkpt lat="46.4463" lon="0.23309">
        <ele>140.29991486411</ele>
        <time>2021-05-30T09:04:31Z</time>
      </trkpt>
      <trkpt lat="46.44622" lon="0.23309">
        <ele>140.21809106794</ele>
        <time>2021-05-30T09:04:40Z</time>
      </trkpt>
      <trkpt lat="46.44615" lon="0.23305">
        <ele>140.16863096235</ele>
        <time>2021-05-30T09:04:44Z</time>
      </trkpt>
      <trkpt lat="46.44607" lon="0.23305">
        <ele>140.07066669174</ele>
        <time>2021-05-30T09:04:51Z</time>
      </trkpt>
      <trkpt lat="46.44602" lon="0.23295">
        <ele>139.87198219397</ele>
        <time>2021-05-30T09:05:07Z</time>
      </trkpt>
      <trkpt lat="46.44596" lon="0.23287">
        <ele>139.75869937672</ele>
        <time>2021-05-30T09:05:14Z</time>
      </trkpt>
      <trkpt lat="46.44583" lon="0.23281">
        <ele>139.67935936993</ele>
        <time>2021-05-30T09:05:19Z</time>
      </trkpt>
      <trkpt lat="46.44575" lon="0.23277">
        <ele>139.62001930352</ele>
        <time>2021-05-30T09:05:23Z</time>
      </trkpt>
      <trkpt lat="46.44568" lon="0.23275">
        <ele>139.55200239889</ele>
        <time>2021-05-30T09:05:28Z</time>
      </trkpt>
      <trkpt lat="46.44559" lon="0.23274">
        <ele>139.48951766775</ele>
        <time>2021-05-30T09:05:33Z</time>
      </trkpt>
      <trkpt lat="46.44551" lon="0.23272">
        <ele>139.41076029227</ele>
        <time>2021-05-30T09:05:40Z</time>
      </trkpt>
      <trkpt lat="46.44543" lon="0.23269">
        <ele>139.34144688116</ele>
        <time>2021-05-30T09:05:46Z</time>
      </trkpt>
      <trkpt lat="46.44536" lon="0.23263">
        <ele>139.28005270662</ele>
        <time>2021-05-30T09:05:51Z</time>
      </trkpt>
      <trkpt lat="46.44528" lon="0.23257">
        <ele>139.19557380263</ele>
        <time>2021-05-30T09:05:58Z</time>
      </trkpt>
      <trkpt lat="46.44519" lon="0.23254">
        <ele>139.13104773871</ele>
        <time>2021-05-30T09:06:04Z</time>
      </trkpt>
      <trkpt lat="46.44511" lon="0.2325">
        <ele>139.05466801968</ele>
        <time>2021-05-30T09:06:12Z</time>
      </trkpt>
      <trkpt lat="46.44503" lon="0.23245">
        <ele>139.00354112512</ele>
        <time>2021-05-30T09:06:18Z</time>
      </trkpt>
      <trkpt lat="46.44496" lon="0.23239">
        <ele>138.92893988263</ele>
        <time>2021-05-30T09:06:27Z</time>
      </trkpt>
      <trkpt lat="46.44488" lon="0.23234">
        <ele>138.80546099582</ele>
        <time>2021-05-30T09:06:38Z</time>
      </trkpt>
      <trkpt lat="46.4448" lon="0.23231">
        <ele>138.71641339325</ele>
        <time>2021-05-30T09:06:45Z</time>
      </trkpt>
      <trkpt lat="46.44472" lon="0.23227">
        <ele>138.61759578043</ele>
        <time>2021-05-30T09:06:52Z</time>
      </trkpt>
      <trkpt lat="46.44465" lon="0.23223">
        <ele>138.52980309426</ele>
        <time>2021-05-30T09:06:58Z</time>
      </trkpt>
      <trkpt lat="46.44457" lon="0.2322">
        <ele>138.43542880421</ele>
        <time>2021-05-30T09:07:04Z</time>
      </trkpt>
      <trkpt lat="46.44449" lon="0.23216">
        <ele>138.32384818396</ele>
        <time>2021-05-30T09:07:11Z</time>
      </trkpt>
      <trkpt lat="46.44441" lon="0.23213">
        <ele>138.24889119352</ele>
        <time>2021-05-30T09:07:16Z</time>
      </trkpt>
      <trkpt lat="46.44432" lon="0.2321">
        <ele>138.10274923878</ele>
        <time>2021-05-30T09:07:26Z</time>
      </trkpt>
      <trkpt lat="46.44424" lon="0.23205">
        <ele>137.98739811274</ele>
        <time>2021-05-30T09:07:34Z</time>
      </trkpt>
      <trkpt lat="46.44416" lon="0.23201">
        <ele>137.84977817567</ele>
        <time>2021-05-30T09:07:44Z</time>
      </trkpt>
      <trkpt lat="46.44409" lon="0.23207">
        <ele>137.73842868789</ele>
        <time>2021-05-30T09:07:55Z</time>
      </trkpt>
      <trkpt lat="46.44396" lon="0.2321">
        <ele>137.70332833925</ele>
        <time>2021-05-30T09:07:59Z</time>
      </trkpt>
      <trkpt lat="46.44388" lon="0.23216">
        <ele>137.66269570097</ele>
        <time>2021-05-30T09:08:05Z</time>
      </trkpt>
      <trkpt lat="46.44381" lon="0.23223">
        <ele>137.62423869561</ele>
        <time>2021-05-30T09:08:12Z</time>
      </trkpt>
      <trkpt lat="46.44379" lon="0.23234">
        <ele>137.5907867781</ele>
        <time>2021-05-30T09:08:17Z</time>
      </trkpt>
      <trkpt lat="46.44377" lon="0.23245">
        <ele>137.54599855449</ele>
        <time>2021-05-30T09:08:23Z</time>
      </trkpt>
      <trkpt lat="46.44373" lon="0.23255">
        <ele>137.50783700892</ele>
        <time>2021-05-30T09:08:28Z</time>
      </trkpt>
      <trkpt lat="46.44369" lon="0.23264">
        <ele>137.464175132</ele>
        <time>2021-05-30T09:08:34Z</time>
      </trkpt>
      <trkpt lat="46.44364" lon="0.23275">
        <ele>137.4150170938</ele>
        <time>2021-05-30T09:08:41Z</time>
      </trkpt>
      <trkpt lat="46.4436" lon="0.23284">
        <ele>137.36986744831</ele>
        <time>2021-05-30T09:08:48Z</time>
      </trkpt>
      <trkpt lat="46.44356" lon="0.23294">
        <ele>137.3360342323</ele>
        <time>2021-05-30T09:08:53Z</time>
      </trkpt>
      <trkpt lat="46.4435" lon="0.23303">
        <ele>137.29975410104</ele>
        <time>2021-05-30T09:08:58Z</time>
      </trkpt>
      <trkpt lat="46.44345" lon="0.23311">
        <ele>137.25339037318</ele>
        <time>2021-05-30T09:09:04Z</time>
      </trkpt>
      <trkpt lat="46.44339" lon="0.23319">
        <ele>137.2011153905</ele>
        <time>2021-05-30T09:09:10Z</time>
      </trkpt>
      <trkpt lat="46.44336" lon="0.23329">
        <ele>137.12947621581</ele>
        <time>2021-05-30T09:09:17Z</time>
      </trkpt>
      <trkpt lat="46.44331" lon="0.23339">
        <ele>137.05985653617</ele>
        <time>2021-05-30T09:09:23Z</time>
      </trkpt>
      <trkpt lat="46.44326" lon="0.23349">
        <ele>136.98632262459</ele>
        <time>2021-05-30T09:09:29Z</time>
      </trkpt>
      <trkpt lat="46.44319" lon="0.23357">
        <ele>136.91153668764</ele>
        <time>2021-05-30T09:09:35Z</time>
      </trkpt>
      <trkpt lat="46.44313" lon="0.23366">
        <ele>136.82042000047</ele>
        <time>2021-05-30T09:09:42Z</time>
      </trkpt>
      <trkpt lat="46.44307" lon="0.23376">
        <ele>136.73546209428</ele>
        <time>2021-05-30T09:09:48Z</time>
      </trkpt>
      <trkpt lat="46.443" lon="0.23384">
        <ele>136.65050069243</ele>
        <time>2021-05-30T09:09:54Z</time>
      </trkpt>
      <trkpt lat="46.44296" lon="0.23395">
        <ele>136.53301774545</ele>
        <time>2021-05-30T09:10:02Z</time>
      </trkpt>
      <trkpt lat="46.44292" lon="0.23406">
        <ele>136.4436394577</ele>
        <time>2021-05-30T09:10:08Z</time>
      </trkpt>
      <trkpt lat="46.44287" lon="0.23415">
        <ele>136.36825273455</ele>
        <time>2021-05-30T09:10:13Z</time>
      </trkpt>
      <trkpt lat="46.44281" lon="0.23425">
        <ele>136.2786238835</ele>
        <time>2021-05-30T09:10:19Z</time>
      </trkpt>
      <trkpt lat="46.44277" lon="0.23436">
        <ele>136.18174465407</ele>
        <time>2021-05-30T09:10:26Z</time>
      </trkpt>
      <trkpt lat="46.44274" lon="0.23447">
        <ele>136.0874657598</ele>
        <time>2021-05-30T09:10:34Z</time>
      </trkpt>
      <trkpt lat="46.4427" lon="0.23456">
        <ele>136.0213981372</ele>
        <time>2021-05-30T09:10:41Z</time>
      </trkpt>
      <trkpt lat="46.44265" lon="0.23467">
        <ele>135.97150617741</ele>
        <time>2021-05-30T09:10:47Z</time>
      </trkpt>
      <trkpt lat="46.44262" lon="0.23479">
        <ele>135.91276091658</ele>
        <time>2021-05-30T09:10:54Z</time>
      </trkpt>
      <trkpt lat="46.44258" lon="0.23488">
        <ele>135.85942147433</ele>
        <time>2021-05-30T09:11:00Z</time>
      </trkpt>
      <trkpt lat="46.44254" lon="0.23498">
        <ele>135.79868830583</ele>
        <time>2021-05-30T09:11:07Z</time>
      </trkpt>
      <trkpt lat="46.44251" lon="0.2351">
        <ele>135.74417253496</ele>
        <time>2021-05-30T09:11:13Z</time>
      </trkpt>
      <trkpt lat="46.44245" lon="0.2352">
        <ele>135.68625393919</ele>
        <time>2021-05-30T09:11:20Z</time>
      </trkpt>
      <trkpt lat="46.44239" lon="0.23529">
        <ele>135.65374265539</ele>
        <time>2021-05-30T09:11:25Z</time>
      </trkpt>
      <trkpt lat="46.44234" lon="0.23537">
        <ele>135.6236222124</ele>
        <time>2021-05-30T09:11:30Z</time>
      </trkpt>
      <trkpt lat="46.4423" lon="0.23547">
        <ele>135.59562921163</ele>
        <time>2021-05-30T09:11:35Z</time>
      </trkpt>
      <trkpt lat="46.44226" lon="0.23558">
        <ele>135.5580070283</ele>
        <time>2021-05-30T09:11:42Z</time>
      </trkpt>
      <trkpt lat="46.44221" lon="0.23567">
        <ele>135.52250313061</ele>
        <time>2021-05-30T09:11:49Z</time>
      </trkpt>
      <trkpt lat="46.44217" lon="0.23577">
        <ele>135.50211921781</ele>
        <time>2021-05-30T09:11:54Z</time>
      </trkpt>
      <trkpt lat="46.44212" lon="0.23587">
        <ele>135.48700958421</ele>
        <time>2021-05-30T09:11:59Z</time>
      </trkpt>
      <trkpt lat="46.44208" lon="0.23596">
        <ele>135.47585412726</ele>
        <time>2021-05-30T09:12:04Z</time>
      </trkpt>
      <trkpt lat="46.44203" lon="0.23606">
        <ele>135.46870302665</ele>
        <time>2021-05-30T09:12:11Z</time>
      </trkpt>
      <trkpt lat="46.44198" lon="0.23616">
        <ele>135.4706198402</ele>
        <time>2021-05-30T09:12:18Z</time>
      </trkpt>
      <trkpt lat="46.44194" lon="0.23626">
        <ele>135.47679864632</ele>
        <time>2021-05-30T09:12:25Z</time>
      </trkpt>
      <trkpt lat="46.44189" lon="0.23636">
        <ele>135.48885945309</ele>
        <time>2021-05-30T09:12:31Z</time>
      </trkpt>
      <trkpt lat="46.44184" lon="0.23645">
        <ele>135.50600707924</ele>
        <time>2021-05-30T09:12:37Z</time>
      </trkpt>
      <trkpt lat="46.4418" lon="0.23656">
        <ele>135.5337985993</ele>
        <time>2021-05-30T09:12:45Z</time>
      </trkpt>
      <trkpt lat="46.44177" lon="0.23667">
        <ele>135.5588963304</ele>
        <time>2021-05-30T09:12:52Z</time>
      </trkpt>
      <trkpt lat="46.44171" lon="0.23675">
        <ele>135.57406504231</ele>
        <time>2021-05-30T09:12:56Z</time>
      </trkpt>
      <trkpt lat="46.44167" lon="0.23686">
        <ele>135.60105978145</ele>
        <time>2021-05-30T09:13:03Z</time>
      </trkpt>
      <trkpt lat="46.44163" lon="0.23697">
        <ele>135.62427766808</ele>
        <time>2021-05-30T09:13:10Z</time>
      </trkpt>
      <trkpt lat="46.44158" lon="0.23706">
        <ele>135.64112603948</ele>
        <time>2021-05-30T09:13:15Z</time>
      </trkpt>
      <trkpt lat="46.44152" lon="0.23715">
        <ele>135.66337449217</ele>
        <time>2021-05-30T09:13:20Z</time>
      </trkpt>
      <trkpt lat="46.44147" lon="0.23723">
        <ele>135.68799034879</ele>
        <time>2021-05-30T09:13:25Z</time>
      </trkpt>
      <trkpt lat="46.4414" lon="0.2373">
        <ele>135.71820357987</ele>
        <time>2021-05-30T09:13:30Z</time>
      </trkpt>
      <trkpt lat="46.44134" lon="0.23738">
        <ele>135.75249928519</ele>
        <time>2021-05-30T09:13:35Z</time>
      </trkpt>
      <trkpt lat="46.44129" lon="0.23745">
        <ele>135.79043225417</ele>
        <time>2021-05-30T09:13:40Z</time>
      </trkpt>
      <trkpt lat="46.44126" lon="0.23756">
        <ele>136.15247397153</ele>
        <time>2021-05-30T09:14:36Z</time>
      </trkpt>
      <trkpt lat="46.44121" lon="0.23766">
        <ele>136.26237583938</ele>
        <time>2021-05-30T09:14:49Z</time>
      </trkpt>
      <trkpt lat="46.44116" lon="0.23775">
        <ele>136.39790292701</ele>
        <time>2021-05-30T09:15:02Z</time>
      </trkpt>
      <trkpt lat="46.44118" lon="0.23787">
        <ele>136.48273760811</ele>
        <time>2021-05-30T09:15:09Z</time>
      </trkpt>
      <trkpt lat="46.44123" lon="0.23798">
        <ele>136.52929169461</ele>
        <time>2021-05-30T09:15:14Z</time>
      </trkpt>
      <trkpt lat="46.44128" lon="0.23809">
        <ele>136.64433774426</ele>
        <time>2021-05-30T09:15:25Z</time>
      </trkpt>
      <trkpt lat="46.44134" lon="0.23818">
        <ele>136.72585995904</ele>
        <time>2021-05-30T09:15:33Z</time>
      </trkpt>
      <trkpt lat="46.44141" lon="0.23824">
        <ele>136.77836602862</ele>
        <time>2021-05-30T09:15:38Z</time>
      </trkpt>
      <trkpt lat="46.44145" lon="0.23835">
        <ele>136.87012515302</ele>
        <time>2021-05-30T09:15:50Z</time>
      </trkpt>
      <trkpt lat="46.44152" lon="0.2385">
        <ele>136.93626892708</ele>
        <time>2021-05-30T09:15:55Z</time>
      </trkpt>
      <trkpt lat="46.44149" lon="0.23862">
        <ele>137.13314848457</ele>
        <time>2021-05-30T09:16:10Z</time>
      </trkpt>
      <trkpt lat="46.44148" lon="0.23873">
        <ele>137.16876835021</ele>
        <time>2021-05-30T09:16:15Z</time>
      </trkpt>
      <trkpt lat="46.44154" lon="0.23883">
        <ele>137.25392760537</ele>
        <time>2021-05-30T09:16:42Z</time>
      </trkpt>
      <trkpt lat="46.44162" lon="0.23884">
        <ele>137.42060524189</ele>
        <time>2021-05-30T09:17:19Z</time>
      </trkpt>
      <trkpt lat="46.44169" lon="0.23877">
        <ele>137.73546569064</ele>
        <time>2021-05-30T09:18:01Z</time>
      </trkpt>
      <trkpt lat="46.44175" lon="0.23867">
        <ele>137.92450593252</ele>
        <time>2021-05-30T09:18:14Z</time>
      </trkpt>
      <trkpt lat="46.44183" lon="0.23865">
        <ele>138.11724016725</ele>
        <time>2021-05-30T09:18:23Z</time>
      </trkpt>
      <trkpt lat="46.44192" lon="0.23866">
        <ele>138.30281843783</ele>
        <time>2021-05-30T09:18:40Z</time>
      </trkpt>
      <trkpt lat="46.44205" lon="0.23876">
        <ele>138.39091305321</ele>
        <time>2021-05-30T09:18:45Z</time>
      </trkpt>
      <trkpt lat="46.44213" lon="0.23879">
        <ele>138.51854367592</ele>
        <time>2021-05-30T09:18:54Z</time>
      </trkpt>
      <trkpt lat="46.4422" lon="0.23886">
        <ele>138.61019261644</ele>
        <time>2021-05-30T09:19:04Z</time>
      </trkpt>
      <trkpt lat="46.44227" lon="0.23892">
        <ele>138.65937671825</ele>
        <time>2021-05-30T09:19:17Z</time>
      </trkpt>
      <trkpt lat="46.44235" lon="0.23899">
        <ele>138.67402159232</ele>
        <time>2021-05-30T09:19:28Z</time>
      </trkpt>
      <trkpt lat="46.44242" lon="0.23904">
        <ele>138.66737684945</ele>
        <time>2021-05-30T09:19:33Z</time>
      </trkpt>
      <trkpt lat="46.44249" lon="0.23912">
        <ele>138.64952002332</ele>
        <time>2021-05-30T09:19:38Z</time>
      </trkpt>
      <trkpt lat="46.44258" lon="0.23914">
        <ele>138.62755320983</ele>
        <time>2021-05-30T09:19:52Z</time>
      </trkpt>
      <trkpt lat="46.44267" lon="0.23915">
        <ele>138.59765811402</ele>
        <time>2021-05-30T09:19:59Z</time>
      </trkpt>
      <trkpt lat="46.44272" lon="0.23925">
        <ele>138.56244872142</ele>
        <time>2021-05-30T09:20:09Z</time>
      </trkpt>
      <trkpt lat="46.44274" lon="0.23936">
        <ele>138.55685376077</ele>
        <time>2021-05-30T09:20:17Z</time>
      </trkpt>
      <trkpt lat="46.44273" lon="0.23948">
        <ele>138.56923442905</ele>
        <time>2021-05-30T09:20:24Z</time>
      </trkpt>
      <trkpt lat="46.44272" lon="0.23961">
        <ele>138.58882132172</ele>
        <time>2021-05-30T09:20:33Z</time>
      </trkpt>
      <trkpt lat="46.44273" lon="0.23973">
        <ele>138.59255451415</ele>
        <time>2021-05-30T09:20:40Z</time>
      </trkpt>
      <trkpt lat="46.44273" lon="0.23985">
        <ele>138.59317015437</ele>
        <time>2021-05-30T09:20:48Z</time>
      </trkpt>
      <trkpt lat="46.44275" lon="0.24">
        <ele>138.59172446883</ele>
        <time>2021-05-30T09:20:53Z</time>
      </trkpt>
      <trkpt lat="46.44278" lon="0.24012">
        <ele>138.58383148515</ele>
        <time>2021-05-30T09:20:59Z</time>
      </trkpt>
      <trkpt lat="46.44278" lon="0.24025">
        <ele>138.56943592077</ele>
        <time>2021-05-30T09:21:05Z</time>
      </trkpt>
      <trkpt lat="46.44277" lon="0.24036">
        <ele>138.55590350027</ele>
        <time>2021-05-30T09:21:11Z</time>
      </trkpt>
      <trkpt lat="46.44275" lon="0.24048">
        <ele>138.5440759679</ele>
        <time>2021-05-30T09:21:18Z</time>
      </trkpt>
      <trkpt lat="46.44277" lon="0.24058">
        <ele>138.53553669869</ele>
        <time>2021-05-30T09:21:23Z</time>
      </trkpt>
      <trkpt lat="46.44279" lon="0.2407">
        <ele>138.51891654581</ele>
        <time>2021-05-30T09:21:28Z</time>
      </trkpt>
      <trkpt lat="46.44281" lon="0.24082">
        <ele>138.48607808909</ele>
        <time>2021-05-30T09:21:34Z</time>
      </trkpt>
      <trkpt lat="46.44283" lon="0.24095">
        <ele>138.44932589222</ele>
        <time>2021-05-30T09:21:39Z</time>
      </trkpt>
      <trkpt lat="46.44285" lon="0.24107">
        <ele>138.38567446949</ele>
        <time>2021-05-30T09:21:46Z</time>
      </trkpt>
      <trkpt lat="46.44285" lon="0.2412">
        <ele>138.26993273731</ele>
        <time>2021-05-30T09:21:57Z</time>
      </trkpt>
      <trkpt lat="46.44287" lon="0.24133">
        <ele>138.18482794442</ele>
        <time>2021-05-30T09:22:05Z</time>
      </trkpt>
      <trkpt lat="46.44288" lon="0.24145">
        <ele>138.11079270819</ele>
        <time>2021-05-30T09:22:12Z</time>
      </trkpt>
      <trkpt lat="46.44294" lon="0.24159">
        <ele>138.05432355382</ele>
        <time>2021-05-30T09:22:17Z</time>
      </trkpt>
      <trkpt lat="46.44295" lon="0.24171">
        <ele>137.96930758092</ele>
        <time>2021-05-30T09:22:25Z</time>
      </trkpt>
      <trkpt lat="46.44297" lon="0.24182">
        <ele>137.92208244773</ele>
        <time>2021-05-30T09:22:31Z</time>
      </trkpt>
      <trkpt lat="46.44298" lon="0.24195">
        <ele>137.88286661054</ele>
        <time>2021-05-30T09:22:37Z</time>
      </trkpt>
      <trkpt lat="46.44298" lon="0.24207">
        <ele>137.83320386037</ele>
        <time>2021-05-30T09:22:44Z</time>
      </trkpt>
      <trkpt lat="46.44299" lon="0.2422">
        <ele>137.7685623962</ele>
        <time>2021-05-30T09:22:52Z</time>
      </trkpt>
      <trkpt lat="46.44301" lon="0.24231">
        <ele>137.72050133745</ele>
        <time>2021-05-30T09:22:57Z</time>
      </trkpt>
      <trkpt lat="46.44302" lon="0.24243">
        <ele>137.63844346444</ele>
        <time>2021-05-30T09:23:04Z</time>
      </trkpt>
      <trkpt lat="46.44303" lon="0.24255">
        <ele>137.56075422303</ele>
        <time>2021-05-30T09:23:10Z</time>
      </trkpt>
      <trkpt lat="46.443" lon="0.24268">
        <ele>137.46185458852</ele>
        <time>2021-05-30T09:23:17Z</time>
      </trkpt>
      <trkpt lat="46.44295" lon="0.24278">
        <ele>137.37456501409</ele>
        <time>2021-05-30T09:23:23Z</time>
      </trkpt>
      <trkpt lat="46.44289" lon="0.24287">
        <ele>137.30325240747</ele>
        <time>2021-05-30T09:23:28Z</time>
      </trkpt>
      <trkpt lat="46.44285" lon="0.24298">
        <ele>137.21814952563</ele>
        <time>2021-05-30T09:23:34Z</time>
      </trkpt>
      <trkpt lat="46.44285" lon="0.24309">
        <ele>137.14924239093</ele>
        <time>2021-05-30T09:23:39Z</time>
      </trkpt>
      <trkpt lat="46.44283" lon="0.2432">
        <ele>137.05774576798</ele>
        <time>2021-05-30T09:23:46Z</time>
      </trkpt>
      <trkpt lat="46.44281" lon="0.24332">
        <ele>136.96874495767</ele>
        <time>2021-05-30T09:23:53Z</time>
      </trkpt>
      <trkpt lat="46.44278" lon="0.24344">
        <ele>136.82508998511</ele>
        <time>2021-05-30T09:24:06Z</time>
      </trkpt>
      <trkpt lat="46.44275" lon="0.24355">
        <ele>136.71663360144</ele>
        <time>2021-05-30T09:24:16Z</time>
      </trkpt>
      <trkpt lat="46.44278" lon="0.24367">
        <ele>136.63435225389</ele>
        <time>2021-05-30T09:24:22Z</time>
      </trkpt>
      <trkpt lat="46.44283" lon="0.24375">
        <ele>136.5768425456</ele>
        <time>2021-05-30T09:24:27Z</time>
      </trkpt>
      <trkpt lat="46.44291" lon="0.24383">
        <ele>136.50284916207</ele>
        <time>2021-05-30T09:24:32Z</time>
      </trkpt>
      <trkpt lat="46.44298" lon="0.24391">
        <ele>136.40094122419</ele>
        <time>2021-05-30T09:24:39Z</time>
      </trkpt>
      <trkpt lat="46.44307" lon="0.24392">
        <ele>136.20387886561</ele>
        <time>2021-05-30T09:24:54Z</time>
      </trkpt>
      <trkpt lat="46.44314" lon="0.24386">
        <ele>136.12432856987</ele>
        <time>2021-05-30T09:25:02Z</time>
      </trkpt>
      <trkpt lat="46.44322" lon="0.2438">
        <ele>136.04424824941</ele>
        <time>2021-05-30T09:25:09Z</time>
      </trkpt>
      <trkpt lat="46.44331" lon="0.24377">
        <ele>135.92063747821</ele>
        <time>2021-05-30T09:25:18Z</time>
      </trkpt>
      <trkpt lat="46.44338" lon="0.24378">
        <ele>135.81676777026</ele>
        <time>2021-05-30T09:25:26Z</time>
      </trkpt>
      <trkpt lat="46.44347" lon="0.2438">
        <ele>135.74315041702</ele>
        <time>2021-05-30T09:25:31Z</time>
      </trkpt>
      <trkpt lat="46.44356" lon="0.24382">
        <ele>135.64164230503</ele>
        <time>2021-05-30T09:25:38Z</time>
      </trkpt>
      <trkpt lat="46.44364" lon="0.24385">
        <ele>135.5508679192</ele>
        <time>2021-05-30T09:25:44Z</time>
      </trkpt>
      <trkpt lat="46.44373" lon="0.24386">
        <ele>135.4370722213</ele>
        <time>2021-05-30T09:25:51Z</time>
      </trkpt>
      <trkpt lat="46.44381" lon="0.2439">
        <ele>135.31771759514</ele>
        <time>2021-05-30T09:25:58Z</time>
      </trkpt>
      <trkpt lat="46.44385" lon="0.24401">
        <ele>135.19494976247</ele>
        <time>2021-05-30T09:26:05Z</time>
      </trkpt>
      <trkpt lat="46.44385" lon="0.24414">
        <ele>135.01653417719</ele>
        <time>2021-05-30T09:26:17Z</time>
      </trkpt>
      <trkpt lat="46.44385" lon="0.24425">
        <ele>134.91420503323</ele>
        <time>2021-05-30T09:26:23Z</time>
      </trkpt>
      <trkpt lat="46.44379" lon="0.24435">
        <ele>134.80298320663</ele>
        <time>2021-05-30T09:26:30Z</time>
      </trkpt>
      <trkpt lat="46.44374" lon="0.24445">
        <ele>134.71524972018</ele>
        <time>2021-05-30T09:26:36Z</time>
      </trkpt>
      <trkpt lat="46.44369" lon="0.24453">
        <ele>134.63114272632</ele>
        <time>2021-05-30T09:26:42Z</time>
      </trkpt>
      <trkpt lat="46.44364" lon="0.24463">
        <ele>134.53346597711</ele>
        <time>2021-05-30T09:26:50Z</time>
      </trkpt>
      <trkpt lat="46.44359" lon="0.24473">
        <ele>134.44185314194</ele>
        <time>2021-05-30T09:26:57Z</time>
      </trkpt>
      <trkpt lat="46.44352" lon="0.2448">
        <ele>134.35448447543</ele>
        <time>2021-05-30T09:27:04Z</time>
      </trkpt>
      <trkpt lat="46.44344" lon="0.24484">
        <ele>134.29176591147</ele>
        <time>2021-05-30T09:27:09Z</time>
      </trkpt>
      <trkpt lat="46.44337" lon="0.24491">
        <ele>134.15325510765</ele>
        <time>2021-05-30T09:27:19Z</time>
      </trkpt>
      <trkpt lat="46.44332" lon="0.24498">
        <ele>134.07257276819</ele>
        <time>2021-05-30T09:27:26Z</time>
      </trkpt>
      <trkpt lat="46.44324" lon="0.24505">
        <ele>133.95055847988</ele>
        <time>2021-05-30T09:27:35Z</time>
      </trkpt>
      <trkpt lat="46.44317" lon="0.2451">
        <ele>133.86228082424</ele>
        <time>2021-05-30T09:27:40Z</time>
      </trkpt>
      <trkpt lat="46.44311" lon="0.24512">
        <ele>133.75719907044</ele>
        <time>2021-05-30T09:27:47Z</time>
      </trkpt>
      <trkpt lat="46.44303" lon="0.2452">
        <ele>133.68888634036</ele>
        <time>2021-05-30T09:27:51Z</time>
      </trkpt>
      <trkpt lat="46.44296" lon="0.24517">
        <ele>133.58319116749</ele>
        <time>2021-05-30T09:27:57Z</time>
      </trkpt>
      <trkpt lat="46.44289" lon="0.24517">
        <ele>133.49001791326</ele>
        <time>2021-05-30T09:28:02Z</time>
      </trkpt>
      <trkpt lat="46.44281" lon="0.24516">
        <ele>133.39505695966</ele>
        <time>2021-05-30T09:28:07Z</time>
      </trkpt>
      <trkpt lat="46.44274" lon="0.24516">
        <ele>133.31884684172</ele>
        <time>2021-05-30T09:28:11Z</time>
      </trkpt>
      <trkpt lat="46.44265" lon="0.24515">
        <ele>133.20578212874</ele>
        <time>2021-05-30T09:28:17Z</time>
      </trkpt>
      <trkpt lat="46.44256" lon="0.24514">
        <ele>133.08769311744</ele>
        <time>2021-05-30T09:28:24Z</time>
      </trkpt>
      <trkpt lat="46.44248" lon="0.24512">
        <ele>132.95128137151</ele>
        <time>2021-05-30T09:28:31Z</time>
      </trkpt>
      <trkpt lat="46.4424" lon="0.24508">
        <ele>132.83078410913</ele>
        <time>2021-05-30T09:28:38Z</time>
      </trkpt>
      <trkpt lat="46.44233" lon="0.24506">
        <ele>132.71217346248</ele>
        <time>2021-05-30T09:28:45Z</time>
      </trkpt>
      <trkpt lat="46.44225" lon="0.24501">
        <ele>132.61945594243</ele>
        <time>2021-05-30T09:28:50Z</time>
      </trkpt>
      <trkpt lat="46.44217" lon="0.24497">
        <ele>132.54846443613</ele>
        <time>2021-05-30T09:28:54Z</time>
      </trkpt>
      <trkpt lat="46.4421" lon="0.24492">
        <ele>132.44524061267</ele>
        <time>2021-05-30T09:29:00Z</time>
      </trkpt>
      <trkpt lat="46.44202" lon="0.24487">
        <ele>132.34581104688</ele>
        <time>2021-05-30T09:29:06Z</time>
      </trkpt>
      <trkpt lat="46.44195" lon="0.24481">
        <ele>132.23214335296</ele>
        <time>2021-05-30T09:29:13Z</time>
      </trkpt>
      <trkpt lat="46.44188" lon="0.24475">
        <ele>132.16486220313</ele>
        <time>2021-05-30T09:29:17Z</time>
      </trkpt>
      <trkpt lat="46.44181" lon="0.24469">
        <ele>132.04685258765</ele>
        <time>2021-05-30T09:29:24Z</time>
      </trkpt>
      <trkpt lat="46.44174" lon="0.24461">
        <ele>131.90873597135</ele>
        <time>2021-05-30T09:29:31Z</time>
      </trkpt>
      <trkpt lat="46.44167" lon="0.24453">
        <ele>131.78829481857</ele>
        <time>2021-05-30T09:29:36Z</time>
      </trkpt>
      <trkpt lat="46.44161" lon="0.24443">
        <ele>131.6039604578</ele>
        <time>2021-05-30T09:29:42Z</time>
      </trkpt>
      <trkpt lat="46.44153" lon="0.24439">
        <ele>131.21541454274</ele>
        <time>2021-05-30T09:29:53Z</time>
      </trkpt>
      <trkpt lat="46.44147" lon="0.24434">
        <ele>131.01742838274</ele>
        <time>2021-05-30T09:29:58Z</time>
      </trkpt>
      <trkpt lat="46.44139" lon="0.24426">
        <ele>130.76806591874</ele>
        <time>2021-05-30T09:30:04Z</time>
      </trkpt>
      <trkpt lat="46.44133" lon="0.24421">
        <ele>130.52000776895</ele>
        <time>2021-05-30T09:30:10Z</time>
      </trkpt>
      <trkpt lat="46.44124" lon="0.2441">
        <ele>130.30532461592</ele>
        <time>2021-05-30T09:30:15Z</time>
      </trkpt>
      <trkpt lat="46.44117" lon="0.24403">
        <ele>129.93757542934</ele>
        <time>2021-05-30T09:30:23Z</time>
      </trkpt>
      <trkpt lat="46.44111" lon="0.24397">
        <ele>129.60871536659</ele>
        <time>2021-05-30T09:30:30Z</time>
      </trkpt>
      <trkpt lat="46.441" lon="0.24393">
        <ele>129.37609209104</ele>
        <time>2021-05-30T09:30:35Z</time>
      </trkpt>
      <trkpt lat="46.44093" lon="0.24386">
        <ele>129.09967463497</ele>
        <time>2021-05-30T09:30:41Z</time>
      </trkpt>
      <trkpt lat="46.44086" lon="0.24379">
        <ele>128.52717392416</ele>
        <time>2021-05-30T09:30:53Z</time>
      </trkpt>
      <trkpt lat="46.44078" lon="0.24379">
        <ele>128.32970414069</ele>
        <time>2021-05-30T09:30:58Z</time>
      </trkpt>
      <trkpt lat="46.4407" lon="0.24378">
        <ele>128.17441170407</ele>
        <time>2021-05-30T09:31:03Z</time>
      </trkpt>
      <trkpt lat="46.44063" lon="0.24382">
        <ele>127.88460009415</ele>
        <time>2021-05-30T09:31:09Z</time>
      </trkpt>
      <trkpt lat="46.44056" lon="0.24384">
        <ele>127.68881994655</ele>
        <time>2021-05-30T09:31:14Z</time>
      </trkpt>
      <trkpt lat="46.44048" lon="0.24389">
        <ele>127.39864940471</ele>
        <time>2021-05-30T09:31:20Z</time>
      </trkpt>
      <trkpt lat="46.44042" lon="0.24399">
        <ele>127.16128457654</ele>
        <time>2021-05-30T09:31:26Z</time>
      </trkpt>
      <trkpt lat="46.44036" lon="0.24408">
        <ele>126.84642884659</ele>
        <time>2021-05-30T09:31:33Z</time>
      </trkpt>
      <trkpt lat="46.44034" lon="0.24421">
        <ele>126.70917740854</ele>
        <time>2021-05-30T09:31:37Z</time>
      </trkpt>
      <trkpt lat="46.44026" lon="0.24426">
        <ele>126.38287335827</ele>
        <time>2021-05-30T09:31:48Z</time>
      </trkpt>
      <trkpt lat="46.44021" lon="0.24437">
        <ele>126.13448061263</ele>
        <time>2021-05-30T09:31:54Z</time>
      </trkpt>
      <trkpt lat="46.44018" lon="0.24447">
        <ele>125.89480714349</ele>
        <time>2021-05-30T09:32:00Z</time>
      </trkpt>
      <trkpt lat="46.44017" lon="0.24458">
        <ele>125.7005262604</ele>
        <time>2021-05-30T09:32:05Z</time>
      </trkpt>
      <trkpt lat="46.44014" lon="0.24469">
        <ele>125.44845087637</ele>
        <time>2021-05-30T09:32:12Z</time>
      </trkpt>
      <trkpt lat="46.44012" lon="0.2448">
        <ele>125.24860859979</ele>
        <time>2021-05-30T09:32:18Z</time>
      </trkpt>
      <trkpt lat="46.44007" lon="0.24491">
        <ele>125.09251682783</ele>
        <time>2021-05-30T09:32:23Z</time>
      </trkpt>
      <trkpt lat="46.44006" lon="0.24503">
        <ele>124.89141954038</ele>
        <time>2021-05-30T09:32:30Z</time>
      </trkpt>
      <trkpt lat="46.44004" lon="0.24516">
        <ele>124.6644276219</ele>
        <time>2021-05-30T09:32:38Z</time>
      </trkpt>
      <trkpt lat="46.44003" lon="0.24528">
        <ele>124.45470867927</ele>
        <time>2021-05-30T09:32:45Z</time>
      </trkpt>
      <trkpt lat="46.43999" lon="0.24539">
        <ele>124.33493142678</ele>
        <time>2021-05-30T09:32:50Z</time>
      </trkpt>
      <trkpt lat="46.43997" lon="0.2455">
        <ele>123.94689433388</ele>
        <time>2021-05-30T09:33:03Z</time>
      </trkpt>
      <trkpt lat="46.43998" lon="0.24562">
        <ele>123.73548551752</ele>
        <time>2021-05-30T09:33:09Z</time>
      </trkpt>
      <trkpt lat="46.43992" lon="0.24571">
        <ele>123.48229809598</ele>
        <time>2021-05-30T09:33:16Z</time>
      </trkpt>
      <trkpt lat="46.43988" lon="0.24581">
        <ele>123.22898777453</ele>
        <time>2021-05-30T09:33:23Z</time>
      </trkpt>
      <trkpt lat="46.43988" lon="0.24593">
        <ele>123.01305445002</ele>
        <time>2021-05-30T09:33:29Z</time>
      </trkpt>
      <trkpt lat="46.43985" lon="0.24611">
        <ele>122.92840372604</ele>
        <time>2021-05-30T09:33:34Z</time>
      </trkpt>
      <trkpt lat="46.43981" lon="0.24622">
        <ele>122.28465303365</ele>
        <time>2021-05-30T09:33:52Z</time>
      </trkpt>
      <trkpt lat="46.4398" lon="0.24634">
        <ele>121.91950616652</ele>
        <time>2021-05-30T09:34:02Z</time>
      </trkpt>
      <trkpt lat="46.43981" lon="0.24646">
        <ele>121.69034452719</ele>
        <time>2021-05-30T09:34:08Z</time>
      </trkpt>
      <trkpt lat="46.4398" lon="0.24659">
        <ele>121.3597800451</ele>
        <time>2021-05-30T09:34:17Z</time>
      </trkpt>
      <trkpt lat="46.4398" lon="0.24671">
        <ele>121.17480352225</ele>
        <time>2021-05-30T09:34:22Z</time>
      </trkpt>
      <trkpt lat="46.43978" lon="0.24682">
        <ele>120.9522718446</ele>
        <time>2021-05-30T09:34:28Z</time>
      </trkpt>
      <trkpt lat="46.43975" lon="0.24693">
        <ele>120.67951114998</ele>
        <time>2021-05-30T09:34:37Z</time>
      </trkpt>
      <trkpt lat="46.43974" lon="0.24703">
        <ele>120.46265184075</ele>
        <time>2021-05-30T09:34:44Z</time>
      </trkpt>
      <trkpt lat="46.43972" lon="0.24718">
        <ele>120.31186593686</ele>
        <time>2021-05-30T09:34:49Z</time>
      </trkpt>
      <trkpt lat="46.43972" lon="0.24731">
        <ele>120.17208991297</ele>
        <time>2021-05-30T09:34:54Z</time>
      </trkpt>
      <trkpt lat="46.43971" lon="0.24743">
        <ele>120.0070828704</ele>
        <time>2021-05-30T09:35:00Z</time>
      </trkpt>
      <trkpt lat="46.43969" lon="0.24755">
        <ele>119.86909800837</ele>
        <time>2021-05-30T09:35:05Z</time>
      </trkpt>
      <trkpt lat="46.43965" lon="0.24765">
        <ele>119.67353767868</ele>
        <time>2021-05-30T09:35:13Z</time>
      </trkpt>
      <trkpt lat="46.43965" lon="0.24777">
        <ele>119.50076007559</ele>
        <time>2021-05-30T09:35:19Z</time>
      </trkpt>
      <trkpt lat="46.43967" lon="0.24788">
        <ele>119.3833943798</ele>
        <time>2021-05-30T09:35:23Z</time>
      </trkpt>
      <trkpt lat="46.43966" lon="0.248">
        <ele>119.20978872245</ele>
        <time>2021-05-30T09:35:29Z</time>
      </trkpt>
      <trkpt lat="46.43963" lon="0.24811">
        <ele>119.03276915682</ele>
        <time>2021-05-30T09:35:35Z</time>
      </trkpt>
      <trkpt lat="46.43961" lon="0.24823">
        <ele>118.84216547687</ele>
        <time>2021-05-30T09:35:41Z</time>
      </trkpt>
      <trkpt lat="46.43958" lon="0.24833">
        <ele>118.68819705449</ele>
        <time>2021-05-30T09:35:46Z</time>
      </trkpt>
      <trkpt lat="46.43954" lon="0.24844">
        <ele>118.4898272233</ele>
        <time>2021-05-30T09:35:53Z</time>
      </trkpt>
      <trkpt lat="46.43951" lon="0.24857">
        <ele>118.30016228515</ele>
        <time>2021-05-30T09:36:00Z</time>
      </trkpt>
      <trkpt lat="46.43948" lon="0.24867">
        <ele>118.16645158831</ele>
        <time>2021-05-30T09:36:05Z</time>
      </trkpt>
      <trkpt lat="46.43945" lon="0.24878">
        <ele>118.03962945777</ele>
        <time>2021-05-30T09:36:10Z</time>
      </trkpt>
      <trkpt lat="46.4394" lon="0.24888">
        <ele>117.86090528745</ele>
        <time>2021-05-30T09:36:18Z</time>
      </trkpt>
      <trkpt lat="46.43933" lon="0.24895">
        <ele>117.76488296014</ele>
        <time>2021-05-30T09:36:23Z</time>
      </trkpt>
      <trkpt lat="46.43926" lon="0.24903">
        <ele>117.62598461968</ele>
        <time>2021-05-30T09:36:31Z</time>
      </trkpt>
      <trkpt lat="46.43919" lon="0.24907">
        <ele>117.53374576762</ele>
        <time>2021-05-30T09:36:37Z</time>
      </trkpt>
      <trkpt lat="46.4391" lon="0.24912">
        <ele>117.45964650739</ele>
        <time>2021-05-30T09:36:44Z</time>
      </trkpt>
      <trkpt lat="46.43902" lon="0.24917">
        <ele>117.37540602659</ele>
        <time>2021-05-30T09:36:50Z</time>
      </trkpt>
      <trkpt lat="46.43895" lon="0.24921">
        <ele>117.28799550935</ele>
        <time>2021-05-30T09:36:56Z</time>
      </trkpt>
      <trkpt lat="46.43887" lon="0.24927">
        <ele>117.1987633051</ele>
        <time>2021-05-30T09:37:02Z</time>
      </trkpt>
      <trkpt lat="46.43881" lon="0.24933">
        <ele>117.05099878347</ele>
        <time>2021-05-30T09:37:12Z</time>
      </trkpt>
      <trkpt lat="46.43872" lon="0.24935">
        <ele>116.92741814972</ele>
        <time>2021-05-30T09:37:18Z</time>
      </trkpt>
      <trkpt lat="46.43865" lon="0.24935">
        <ele>116.81739329996</ele>
        <time>2021-05-30T09:37:23Z</time>
      </trkpt>
      <trkpt lat="46.43856" lon="0.24936">
        <ele>116.66035268429</ele>
        <time>2021-05-30T09:37:30Z</time>
      </trkpt>
      <trkpt lat="46.43848" lon="0.24937">
        <ele>116.46735909813</ele>
        <time>2021-05-30T09:37:38Z</time>
      </trkpt>
      <trkpt lat="46.4384" lon="0.24937">
        <ele>116.32286905169</ele>
        <time>2021-05-30T09:37:44Z</time>
      </trkpt>
      <trkpt lat="46.43831" lon="0.24936">
        <ele>116.20259791761</ele>
        <time>2021-05-30T09:37:49Z</time>
      </trkpt>
      <trkpt lat="46.43823" lon="0.24935">
        <ele>116.00613341883</ele>
        <time>2021-05-30T09:37:58Z</time>
      </trkpt>
      <trkpt lat="46.43817" lon="0.24931">
        <ele>115.91278859959</ele>
        <time>2021-05-30T09:38:02Z</time>
      </trkpt>
      <trkpt lat="46.43809" lon="0.2493">
        <ele>115.82439961788</ele>
        <time>2021-05-30T09:38:06Z</time>
      </trkpt>
      <trkpt lat="46.43802" lon="0.24929">
        <ele>115.71733022131</ele>
        <time>2021-05-30T09:38:11Z</time>
      </trkpt>
      <trkpt lat="46.43793" lon="0.24928">
        <ele>115.59351973937</ele>
        <time>2021-05-30T09:38:17Z</time>
      </trkpt>
      <trkpt lat="46.43785" lon="0.24924">
        <ele>115.46988675312</ele>
        <time>2021-05-30T09:38:23Z</time>
      </trkpt>
      <trkpt lat="46.43778" lon="0.24921">
        <ele>115.32533990091</ele>
        <time>2021-05-30T09:38:30Z</time>
      </trkpt>
      <trkpt lat="46.43769" lon="0.24917">
        <ele>115.22283377923</ele>
        <time>2021-05-30T09:38:35Z</time>
      </trkpt>
      <trkpt lat="46.4376" lon="0.24917">
        <ele>115.09608580475</ele>
        <time>2021-05-30T09:38:42Z</time>
      </trkpt>
      <trkpt lat="46.43753" lon="0.24917">
        <ele>114.95101856905</ele>
        <time>2021-05-30T09:38:49Z</time>
      </trkpt>
      <trkpt lat="46.43744" lon="0.24916">
        <ele>114.82259805339</ele>
        <time>2021-05-30T09:38:56Z</time>
      </trkpt>
      <trkpt lat="46.43736" lon="0.24914">
        <ele>114.72427117429</ele>
        <time>2021-05-30T09:39:03Z</time>
      </trkpt>
      <trkpt lat="46.43729" lon="0.24914">
        <ele>114.62488743769</ele>
        <time>2021-05-30T09:39:09Z</time>
      </trkpt>
      <trkpt lat="46.4372" lon="0.24914">
        <ele>114.52809389588</ele>
        <time>2021-05-30T09:39:14Z</time>
      </trkpt>
      <trkpt lat="46.43711" lon="0.2491">
        <ele>114.41982250739</ele>
        <time>2021-05-30T09:39:20Z</time>
      </trkpt>
      <trkpt lat="46.43702" lon="0.2491">
        <ele>114.24422371254</ele>
        <time>2021-05-30T09:39:30Z</time>
      </trkpt>
      <trkpt lat="46.43693" lon="0.24911">
        <ele>114.12538964352</ele>
        <time>2021-05-30T09:39:35Z</time>
      </trkpt>
      <trkpt lat="46.43684" lon="0.24913">
        <ele>113.98878049498</ele>
        <time>2021-05-30T09:39:41Z</time>
      </trkpt>
      <trkpt lat="46.43676" lon="0.24914">
        <ele>113.8556202868</ele>
        <time>2021-05-30T09:39:48Z</time>
      </trkpt>
      <trkpt lat="46.43668" lon="0.24918">
        <ele>113.74223956462</ele>
        <time>2021-05-30T09:39:53Z</time>
      </trkpt>
      <trkpt lat="46.43661" lon="0.24921">
        <ele>113.60522997752</ele>
        <time>2021-05-30T09:39:59Z</time>
      </trkpt>
      <trkpt lat="46.43654" lon="0.2493">
        <ele>113.33468444819</ele>
        <time>2021-05-30T09:40:12Z</time>
      </trkpt>
      <trkpt lat="46.43647" lon="0.24938">
        <ele>113.20167399457</ele>
        <time>2021-05-30T09:40:19Z</time>
      </trkpt>
      <trkpt lat="46.43637" lon="0.24941">
        <ele>113.09918987616</ele>
        <time>2021-05-30T09:40:24Z</time>
      </trkpt>
      <trkpt lat="46.4363" lon="0.24947">
        <ele>112.9916631843</ele>
        <time>2021-05-30T09:40:29Z</time>
      </trkpt>
      <trkpt lat="46.43624" lon="0.24951">
        <ele>112.906252713</ele>
        <time>2021-05-30T09:40:33Z</time>
      </trkpt>
      <trkpt lat="46.43617" lon="0.24959">
        <ele>112.79204745766</ele>
        <time>2021-05-30T09:40:38Z</time>
      </trkpt>
      <trkpt lat="46.4361" lon="0.24965">
        <ele>112.65299105947</ele>
        <time>2021-05-30T09:40:44Z</time>
      </trkpt>
      <trkpt lat="46.43603" lon="0.24972">
        <ele>112.5205483335</ele>
        <time>2021-05-30T09:40:50Z</time>
      </trkpt>
      <trkpt lat="46.43596" lon="0.24979">
        <ele>112.38048054053</ele>
        <time>2021-05-30T09:40:57Z</time>
      </trkpt>
      <trkpt lat="46.43589" lon="0.24984">
        <ele>112.26329988657</ele>
        <time>2021-05-30T09:41:03Z</time>
      </trkpt>
      <trkpt lat="46.43583" lon="0.24991">
        <ele>112.15215336641</ele>
        <time>2021-05-30T09:41:09Z</time>
      </trkpt>
      <trkpt lat="46.43577" lon="0.24999">
        <ele>112.08289693181</ele>
        <time>2021-05-30T09:41:16Z</time>
      </trkpt>
      <trkpt lat="46.4357" lon="0.25007">
        <ele>112.00237903199</ele>
        <time>2021-05-30T09:41:21Z</time>
      </trkpt>
      <trkpt lat="46.43562" lon="0.25012">
        <ele>111.90408095044</ele>
        <time>2021-05-30T09:41:27Z</time>
      </trkpt>
      <trkpt lat="46.43556" lon="0.25018">
        <ele>111.79321397458</ele>
        <time>2021-05-30T09:41:34Z</time>
      </trkpt>
      <trkpt lat="46.43552" lon="0.2503">
        <ele>111.71308644843</ele>
        <time>2021-05-30T09:41:40Z</time>
      </trkpt>
      <trkpt lat="46.43545" lon="0.25038">
        <ele>111.64917112721</ele>
        <time>2021-05-30T09:41:45Z</time>
      </trkpt>
      <trkpt lat="46.43538" lon="0.25044">
        <ele>111.58906345393</ele>
        <time>2021-05-30T09:41:50Z</time>
      </trkpt>
      <trkpt lat="46.43533" lon="0.25053">
        <ele>111.49940725188</ele>
        <time>2021-05-30T09:41:58Z</time>
      </trkpt>
      <trkpt lat="46.43527" lon="0.25061">
        <ele>111.44675723205</ele>
        <time>2021-05-30T09:42:03Z</time>
      </trkpt>
      <trkpt lat="46.43521" lon="0.25071">
        <ele>111.40950760011</ele>
        <time>2021-05-30T09:42:08Z</time>
      </trkpt>
      <trkpt lat="46.43514" lon="0.25078">
        <ele>111.36630138258</ele>
        <time>2021-05-30T09:42:14Z</time>
      </trkpt>
      <trkpt lat="46.43511" lon="0.25089">
        <ele>111.31580555305</ele>
        <time>2021-05-30T09:42:24Z</time>
      </trkpt>
      <trkpt lat="46.43508" lon="0.251">
        <ele>111.32805107572</ele>
        <time>2021-05-30T09:42:31Z</time>
      </trkpt>
      <trkpt lat="46.43505" lon="0.25112">
        <ele>111.35359995909</ele>
        <time>2021-05-30T09:42:36Z</time>
      </trkpt>
      <trkpt lat="46.43499" lon="0.25122">
        <ele>111.3935478202</ele>
        <time>2021-05-30T09:42:43Z</time>
      </trkpt>
      <trkpt lat="46.43494" lon="0.2513">
        <ele>111.43214985546</ele>
        <time>2021-05-30T09:42:48Z</time>
      </trkpt>
      <trkpt lat="46.43489" lon="0.25139">
        <ele>111.47189125613</ele>
        <time>2021-05-30T09:42:53Z</time>
      </trkpt>
      <trkpt lat="46.43484" lon="0.25149">
        <ele>111.52050166744</ele>
        <time>2021-05-30T09:43:00Z</time>
      </trkpt>
      <trkpt lat="46.43479" lon="0.25159">
        <ele>111.57666610808</ele>
        <time>2021-05-30T09:43:07Z</time>
      </trkpt>
      <trkpt lat="46.43475" lon="0.2517">
        <ele>111.66473744774</ele>
        <time>2021-05-30T09:43:16Z</time>
      </trkpt>
      <trkpt lat="46.43469" lon="0.25179">
        <ele>111.72268751669</ele>
        <time>2021-05-30T09:43:22Z</time>
      </trkpt>
      <trkpt lat="46.43463" lon="0.25189">
        <ele>111.7846535994</ele>
        <time>2021-05-30T09:43:30Z</time>
      </trkpt>
      <trkpt lat="46.43459" lon="0.252">
        <ele>111.81004738618</ele>
        <time>2021-05-30T09:43:36Z</time>
      </trkpt>
      <trkpt lat="46.43456" lon="0.25211">
        <ele>111.81306709911</ele>
        <time>2021-05-30T09:43:40Z</time>
      </trkpt>
      <trkpt lat="46.43454" lon="0.25222">
        <ele>111.78065282479</ele>
        <time>2021-05-30T09:43:49Z</time>
      </trkpt>
      <trkpt lat="46.43451" lon="0.25234">
        <ele>111.72697964251</ele>
        <time>2021-05-30T09:43:56Z</time>
      </trkpt>
      <trkpt lat="46.43445" lon="0.2524">
        <ele>111.67552698115</ele>
        <time>2021-05-30T09:44:02Z</time>
      </trkpt>
      <trkpt lat="46.43437" lon="0.25245">
        <ele>111.63236637436</ele>
        <time>2021-05-30T09:44:07Z</time>
      </trkpt>
      <trkpt lat="46.43429" lon="0.25251">
        <ele>111.56561102297</ele>
        <time>2021-05-30T09:44:15Z</time>
      </trkpt>
      <trkpt lat="46.43421" lon="0.2526">
        <ele>111.51962829823</ele>
        <time>2021-05-30T09:44:20Z</time>
      </trkpt>
      <trkpt lat="46.43417" lon="0.25272">
        <ele>111.4572052955</ele>
        <time>2021-05-30T09:44:25Z</time>
      </trkpt>
      <trkpt lat="46.43412" lon="0.25282">
        <ele>111.34038003909</ele>
        <time>2021-05-30T09:44:32Z</time>
      </trkpt>
      <trkpt lat="46.43406" lon="0.25291">
        <ele>111.23556737466</ele>
        <time>2021-05-30T09:44:39Z</time>
      </trkpt>
      <trkpt lat="46.434" lon="0.25301">
        <ele>111.13938070731</ele>
        <time>2021-05-30T09:44:46Z</time>
      </trkpt>
      <trkpt lat="46.43394" lon="0.25308">
        <ele>111.04525073931</ele>
        <time>2021-05-30T09:44:53Z</time>
      </trkpt>
      <trkpt lat="46.43389" lon="0.25319">
        <ele>110.97720178752</ele>
        <time>2021-05-30T09:44:58Z</time>
      </trkpt>
      <trkpt lat="46.43387" lon="0.25332">
        <ele>110.91446387748</ele>
        <time>2021-05-30T09:45:03Z</time>
      </trkpt>
      <trkpt lat="46.43385" lon="0.25343">
        <ele>110.84076115302</ele>
        <time>2021-05-30T09:45:09Z</time>
      </trkpt>
      <trkpt lat="46.43381" lon="0.25354">
        <ele>110.75921378544</ele>
        <time>2021-05-30T09:45:16Z</time>
      </trkpt>
      <trkpt lat="46.43377" lon="0.25365">
        <ele>110.67941104579</ele>
        <time>2021-05-30T09:45:23Z</time>
      </trkpt>
      <trkpt lat="46.43372" lon="0.25375">
        <ele>110.59059221314</ele>
        <time>2021-05-30T09:45:31Z</time>
      </trkpt>
      <trkpt lat="46.43367" lon="0.25384">
        <ele>110.52929814094</ele>
        <time>2021-05-30T09:45:36Z</time>
      </trkpt>
      <trkpt lat="46.43363" lon="0.25394">
        <ele>110.45356073257</ele>
        <time>2021-05-30T09:45:42Z</time>
      </trkpt>
      <trkpt lat="46.43364" lon="0.25407">
        <ele>110.40628943702</ele>
        <time>2021-05-30T09:45:46Z</time>
      </trkpt>
      <trkpt lat="46.43364" lon="0.25419">
        <ele>110.35135058213</ele>
        <time>2021-05-30T09:45:51Z</time>
      </trkpt>
      <trkpt lat="46.43364" lon="0.2543">
        <ele>110.298842666</ele>
        <time>2021-05-30T09:45:56Z</time>
      </trkpt>
      <trkpt lat="46.43361" lon="0.25442">
        <ele>110.22411226235</ele>
        <time>2021-05-30T09:46:03Z</time>
      </trkpt>
      <trkpt lat="46.43359" lon="0.25455">
        <ele>110.14580500247</ele>
        <time>2021-05-30T09:46:10Z</time>
      </trkpt>
      <trkpt lat="46.4336" lon="0.25467">
        <ele>110.06863201795</ele>
        <time>2021-05-30T09:46:17Z</time>
      </trkpt>
      <trkpt lat="46.43359" lon="0.25478">
        <ele>110.01248277582</ele>
        <time>2021-05-30T09:46:22Z</time>
      </trkpt>
      <trkpt lat="46.43357" lon="0.2549">
        <ele>109.93304324315</ele>
        <time>2021-05-30T09:46:29Z</time>
      </trkpt>
      <trkpt lat="46.43356" lon="0.25501">
        <ele>109.87958302304</ele>
        <time>2021-05-30T09:46:34Z</time>
      </trkpt>
      <trkpt lat="46.43354" lon="0.25514">
        <ele>109.79549680696</ele>
        <time>2021-05-30T09:46:42Z</time>
      </trkpt>
      <trkpt lat="46.43351" lon="0.25524">
        <ele>109.74892933783</ele>
        <time>2021-05-30T09:46:47Z</time>
      </trkpt>
      <trkpt lat="46.43345" lon="0.25533">
        <ele>109.67401375788</ele>
        <time>2021-05-30T09:46:56Z</time>
      </trkpt>
      <trkpt lat="46.43342" lon="0.25545">
        <ele>109.63808551722</ele>
        <time>2021-05-30T09:47:04Z</time>
      </trkpt>
      <trkpt lat="46.43341" lon="0.25559">
        <ele>109.62800610518</ele>
        <time>2021-05-30T09:47:09Z</time>
      </trkpt>
      <trkpt lat="46.43334" lon="0.25564">
        <ele>109.61351520678</ele>
        <time>2021-05-30T09:47:16Z</time>
      </trkpt>
      <trkpt lat="46.43326" lon="0.25566">
        <ele>109.58161809786</ele>
        <time>2021-05-30T09:47:24Z</time>
      </trkpt>
      <trkpt lat="46.43317" lon="0.25565">
        <ele>109.50687443791</ele>
        <time>2021-05-30T09:47:34Z</time>
      </trkpt>
      <trkpt lat="46.4331" lon="0.25562">
        <ele>109.45521528704</ele>
        <time>2021-05-30T09:47:40Z</time>
      </trkpt>
      <trkpt lat="46.43303" lon="0.25558">
        <ele>109.39663421526</ele>
        <time>2021-05-30T09:47:46Z</time>
      </trkpt>
      <trkpt lat="46.43296" lon="0.25552">
        <ele>109.32261054272</ele>
        <time>2021-05-30T09:47:53Z</time>
      </trkpt>
      <trkpt lat="46.43289" lon="0.25546">
        <ele>109.25161245744</ele>
        <time>2021-05-30T09:48:00Z</time>
      </trkpt>
      <trkpt lat="46.43282" lon="0.25543">
        <ele>109.19879991672</ele>
        <time>2021-05-30T09:48:05Z</time>
      </trkpt>
      <trkpt lat="46.43273" lon="0.25541">
        <ele>109.10079693091</ele>
        <time>2021-05-30T09:48:15Z</time>
      </trkpt>
      <trkpt lat="46.43266" lon="0.25537">
        <ele>109.04478003133</ele>
        <time>2021-05-30T09:48:21Z</time>
      </trkpt>
      <trkpt lat="46.43258" lon="0.25534">
        <ele>108.98873243962</ele>
        <time>2021-05-30T09:48:27Z</time>
      </trkpt>
      <trkpt lat="46.4325" lon="0.25531">
        <ele>108.94259176396</ele>
        <time>2021-05-30T09:48:32Z</time>
      </trkpt>
      <trkpt lat="46.43242" lon="0.25524">
        <ele>108.8974785183</ele>
        <time>2021-05-30T09:48:37Z</time>
      </trkpt>
      <trkpt lat="46.43237" lon="0.25514">
        <ele>108.83781612692</ele>
        <time>2021-05-30T09:48:43Z</time>
      </trkpt>
      <trkpt lat="46.43235" lon="0.25502">
        <ele>108.6820371747</ele>
        <time>2021-05-30T09:49:01Z</time>
      </trkpt>
      <trkpt lat="46.43233" lon="0.2549">
        <ele>108.40183399281</ele>
        <time>2021-05-30T09:49:30Z</time>
      </trkpt>
      <trkpt lat="46.43225" lon="0.25489">
        <ele>108.25295232792</ele>
        <time>2021-05-30T09:49:39Z</time>
      </trkpt>
      <trkpt lat="46.43217" lon="0.25487">
        <ele>108.09567670215</ele>
        <time>2021-05-30T09:49:52Z</time>
      </trkpt>
      <trkpt lat="46.4321" lon="0.25485">
        <ele>108.01687341551</ele>
        <time>2021-05-30T09:49:57Z</time>
      </trkpt>
      <trkpt lat="46.43201" lon="0.25484">
        <ele>107.90210794913</ele>
        <time>2021-05-30T09:50:04Z</time>
      </trkpt>
      <trkpt lat="46.43193" lon="0.25482">
        <ele>107.80974058086</ele>
        <time>2021-05-30T09:50:10Z</time>
      </trkpt>
      <trkpt lat="46.43186" lon="0.25479">
        <ele>107.72239994961</ele>
        <time>2021-05-30T09:50:16Z</time>
      </trkpt>
      <trkpt lat="46.43178" lon="0.25474">
        <ele>107.61956219824</ele>
        <time>2021-05-30T09:50:23Z</time>
      </trkpt>
      <trkpt lat="46.43169" lon="0.25472">
        <ele>107.5363541636</ele>
        <time>2021-05-30T09:50:29Z</time>
      </trkpt>
      <trkpt lat="46.43161" lon="0.25469">
        <ele>107.42917564003</ele>
        <time>2021-05-30T09:50:37Z</time>
      </trkpt>
      <trkpt lat="46.43152" lon="0.25467">
        <ele>107.3633082646</ele>
        <time>2021-05-30T09:50:42Z</time>
      </trkpt>
      <trkpt lat="46.43144" lon="0.25464">
        <ele>107.26966928128</ele>
        <time>2021-05-30T09:50:49Z</time>
      </trkpt>
      <trkpt lat="46.43137" lon="0.25456">
        <ele>107.18938886506</ele>
        <time>2021-05-30T09:50:55Z</time>
      </trkpt>
      <trkpt lat="46.43129" lon="0.25451">
        <ele>107.10570583058</ele>
        <time>2021-05-30T09:51:01Z</time>
      </trkpt>
      <trkpt lat="46.43124" lon="0.25445">
        <ele>107.05349121213</ele>
        <time>2021-05-30T09:51:05Z</time>
      </trkpt>
      <trkpt lat="46.43117" lon="0.25439">
        <ele>106.98826851994</ele>
        <time>2021-05-30T09:51:10Z</time>
      </trkpt>
      <trkpt lat="46.43109" lon="0.25433">
        <ele>106.92216990463</ele>
        <time>2021-05-30T09:51:15Z</time>
      </trkpt>
      <trkpt lat="46.43102" lon="0.25428">
        <ele>106.82958613645</ele>
        <time>2021-05-30T09:51:22Z</time>
      </trkpt>
      <trkpt lat="46.43094" lon="0.25426">
        <ele>106.75058583538</ele>
        <time>2021-05-30T09:51:28Z</time>
      </trkpt>
      <trkpt lat="46.43086" lon="0.25421">
        <ele>106.66619068596</ele>
        <time>2021-05-30T09:51:35Z</time>
      </trkpt>
      <trkpt lat="46.43079" lon="0.25417">
        <ele>106.58574344504</ele>
        <time>2021-05-30T09:51:42Z</time>
      </trkpt>
      <trkpt lat="46.43071" lon="0.25413">
        <ele>106.52589966016</ele>
        <time>2021-05-30T09:51:47Z</time>
      </trkpt>
      <trkpt lat="46.43063" lon="0.25411">
        <ele>106.44511012938</ele>
        <time>2021-05-30T09:51:53Z</time>
      </trkpt>
      <trkpt lat="46.43056" lon="0.25416">
        <ele>106.20776682198</ele>
        <time>2021-05-30T09:52:08Z</time>
      </trkpt>
      <trkpt lat="46.43049" lon="0.25424">
        <ele>106.13463694014</ele>
        <time>2021-05-30T09:52:13Z</time>
      </trkpt>
      <trkpt lat="46.43041" lon="0.25429">
        <ele>106.05807431693</ele>
        <time>2021-05-30T09:52:18Z</time>
      </trkpt>
      <trkpt lat="46.43033" lon="0.25432">
        <ele>105.93836333479</ele>
        <time>2021-05-30T09:52:25Z</time>
      </trkpt>
      <trkpt lat="46.43025" lon="0.25436">
        <ele>105.82948459833</ele>
        <time>2021-05-30T09:52:31Z</time>
      </trkpt>
      <trkpt lat="46.43017" lon="0.2544">
        <ele>105.69152164431</ele>
        <time>2021-05-30T09:52:39Z</time>
      </trkpt>
      <trkpt lat="46.43009" lon="0.25444">
        <ele>105.58602624886</ele>
        <time>2021-05-30T09:52:45Z</time>
      </trkpt>
      <trkpt lat="46.43002" lon="0.25449">
        <ele>105.4576286155</ele>
        <time>2021-05-30T09:52:52Z</time>
      </trkpt>
      <trkpt lat="46.42995" lon="0.25453">
        <ele>105.37199012016</ele>
        <time>2021-05-30T09:52:57Z</time>
      </trkpt>
      <trkpt lat="46.42986" lon="0.25457">
        <ele>105.29165079223</ele>
        <time>2021-05-30T09:53:02Z</time>
      </trkpt>
      <trkpt lat="46.42979" lon="0.25461">
        <ele>105.2159084581</ele>
        <time>2021-05-30T09:53:07Z</time>
      </trkpt>
      <trkpt lat="46.42972" lon="0.25462">
        <ele>105.14361000117</ele>
        <time>2021-05-30T09:53:12Z</time>
      </trkpt>
      <trkpt lat="46.42963" lon="0.25465">
        <ele>105.059430005</ele>
        <time>2021-05-30T09:53:18Z</time>
      </trkpt>
      <trkpt lat="46.42955" lon="0.25467">
        <ele>104.9517626296</ele>
        <time>2021-05-30T09:53:26Z</time>
      </trkpt>
      <trkpt lat="46.42947" lon="0.25469">
        <ele>104.87441588403</ele>
        <time>2021-05-30T09:53:32Z</time>
      </trkpt>
      <trkpt lat="46.42939" lon="0.25474">
        <ele>104.7832195662</ele>
        <time>2021-05-30T09:53:40Z</time>
      </trkpt>
      <trkpt lat="46.42932" lon="0.25481">
        <ele>104.73005472338</ele>
        <time>2021-05-30T09:53:45Z</time>
      </trkpt>
      <trkpt lat="46.42925" lon="0.25488">
        <ele>104.67195557424</ele>
        <time>2021-05-30T09:53:50Z</time>
      </trkpt>
      <trkpt lat="46.42919" lon="0.25495">
        <ele>104.59435500894</ele>
        <time>2021-05-30T09:53:56Z</time>
      </trkpt>
      <trkpt lat="46.42912" lon="0.25503">
        <ele>104.51725804046</ele>
        <time>2021-05-30T09:54:02Z</time>
      </trkpt>
      <trkpt lat="46.42905" lon="0.25511">
        <ele>104.41286160078</ele>
        <time>2021-05-30T09:54:09Z</time>
      </trkpt>
      <trkpt lat="46.429" lon="0.25521">
        <ele>104.29666335731</ele>
        <time>2021-05-30T09:54:16Z</time>
      </trkpt>
      <trkpt lat="46.42896" lon="0.25531">
        <ele>104.18866362416</ele>
        <time>2021-05-30T09:54:22Z</time>
      </trkpt>
      <trkpt lat="46.42891" lon="0.25541">
        <ele>104.07311197671</ele>
        <time>2021-05-30T09:54:28Z</time>
      </trkpt>
      <trkpt lat="46.42884" lon="0.25549">
        <ele>103.97095908071</ele>
        <time>2021-05-30T09:54:33Z</time>
      </trkpt>
      <trkpt lat="46.42877" lon="0.25556">
        <ele>103.84483158299</ele>
        <time>2021-05-30T09:54:39Z</time>
      </trkpt>
      <trkpt lat="46.42871" lon="0.25564">
        <ele>103.72321293967</ele>
        <time>2021-05-30T09:54:45Z</time>
      </trkpt>
      <trkpt lat="46.42864" lon="0.25571">
        <ele>103.60687531509</ele>
        <time>2021-05-30T09:54:51Z</time>
      </trkpt>
      <trkpt lat="46.42857" lon="0.25578">
        <ele>103.49122350445</ele>
        <time>2021-05-30T09:54:57Z</time>
      </trkpt>
      <trkpt lat="46.4285" lon="0.25583">
        <ele>103.37435789456</ele>
        <time>2021-05-30T09:55:03Z</time>
      </trkpt>
      <trkpt lat="46.42843" lon="0.25588">
        <ele>103.27964023844</ele>
        <time>2021-05-30T09:55:08Z</time>
      </trkpt>
      <trkpt lat="46.42836" lon="0.25594">
        <ele>103.17854760201</ele>
        <time>2021-05-30T09:55:14Z</time>
      </trkpt>
      <trkpt lat="46.42831" lon="0.25605">
        <ele>103.08634275932</ele>
        <time>2021-05-30T09:55:20Z</time>
      </trkpt>
      <trkpt lat="46.42827" lon="0.25615">
        <ele>102.99934162397</ele>
        <time>2021-05-30T09:55:26Z</time>
      </trkpt>
      <trkpt lat="46.42822" lon="0.25625">
        <ele>102.91581147702</ele>
        <time>2021-05-30T09:55:32Z</time>
      </trkpt>
      <trkpt lat="46.42817" lon="0.25635">
        <ele>102.82123818177</ele>
        <time>2021-05-30T09:55:39Z</time>
      </trkpt>
      <trkpt lat="46.42811" lon="0.25643">
        <ele>102.7428220611</ele>
        <time>2021-05-30T09:55:45Z</time>
      </trkpt>
      <trkpt lat="46.42805" lon="0.25653">
        <ele>102.64863368198</ele>
        <time>2021-05-30T09:55:52Z</time>
      </trkpt>
      <trkpt lat="46.428" lon="0.25662">
        <ele>102.45178729372</ele>
        <time>2021-05-30T09:56:06Z</time>
      </trkpt>
      <trkpt lat="46.42792" lon="0.25657">
        <ele>102.2083412695</ele>
        <time>2021-05-30T09:56:30Z</time>
      </trkpt>
      <trkpt lat="46.42785" lon="0.2565">
        <ele>102.05913165514</ele>
        <time>2021-05-30T09:56:39Z</time>
      </trkpt>
      <trkpt lat="46.42777" lon="0.25646">
        <ele>101.93055660081</ele>
        <time>2021-05-30T09:56:48Z</time>
      </trkpt>
      <trkpt lat="46.4277" lon="0.25654">
        <ele>101.80615317966</ele>
        <time>2021-05-30T09:56:58Z</time>
      </trkpt>
      <trkpt lat="46.42768" lon="0.25665">
        <ele>101.73204940767</ele>
        <time>2021-05-30T09:57:05Z</time>
      </trkpt>
      <trkpt lat="46.42764" lon="0.25674">
        <ele>101.67520807347</ele>
        <time>2021-05-30T09:57:11Z</time>
      </trkpt>
      <trkpt lat="46.42761" lon="0.25684">
        <ele>101.62596283639</ele>
        <time>2021-05-30T09:57:17Z</time>
      </trkpt>
      <trkpt lat="46.42759" lon="0.25697">
        <ele>101.57470688979</ele>
        <time>2021-05-30T09:57:24Z</time>
      </trkpt>
      <trkpt lat="46.42757" lon="0.25709">
        <ele>101.52813255652</ele>
        <time>2021-05-30T09:57:31Z</time>
      </trkpt>
      <trkpt lat="46.42752" lon="0.25719">
        <ele>101.48098119286</ele>
        <time>2021-05-30T09:57:38Z</time>
      </trkpt>
      <trkpt lat="46.42749" lon="0.25729">
        <ele>101.42888600812</ele>
        <time>2021-05-30T09:57:47Z</time>
      </trkpt>
      <trkpt lat="46.42747" lon="0.25742">
        <ele>101.38439571596</ele>
        <time>2021-05-30T09:57:56Z</time>
      </trkpt>
      <trkpt lat="46.42742" lon="0.25753">
        <ele>101.36275645485</ele>
        <time>2021-05-30T09:58:01Z</time>
      </trkpt>
      <trkpt lat="46.42736" lon="0.25761">
        <ele>101.34059160193</ele>
        <time>2021-05-30T09:58:07Z</time>
      </trkpt>
      <trkpt lat="46.42732" lon="0.25772">
        <ele>101.31127053888</ele>
        <time>2021-05-30T09:58:15Z</time>
      </trkpt>
      <trkpt lat="46.42724" lon="0.25769">
        <ele>101.28860611909</ele>
        <time>2021-05-30T09:58:21Z</time>
      </trkpt>
      <trkpt lat="46.42716" lon="0.25764">
        <ele>101.26218915668</ele>
        <time>2021-05-30T09:58:28Z</time>
      </trkpt>
      <trkpt lat="46.42708" lon="0.25761">
        <ele>101.23620658003</ele>
        <time>2021-05-30T09:58:35Z</time>
      </trkpt>
      <trkpt lat="46.427" lon="0.25766">
        <ele>101.21674438283</ele>
        <time>2021-05-30T09:58:45Z</time>
      </trkpt>
      <trkpt lat="46.42695" lon="0.25775">
        <ele>101.21819690419</ele>
        <time>2021-05-30T09:58:52Z</time>
      </trkpt>
      <trkpt lat="46.4269" lon="0.25785">
        <ele>101.22913535479</ele>
        <time>2021-05-30T09:59:00Z</time>
      </trkpt>
      <trkpt lat="46.42685" lon="0.25794">
        <ele>101.24275905698</ele>
        <time>2021-05-30T09:59:07Z</time>
      </trkpt>
      <trkpt lat="46.42681" lon="0.25804">
        <ele>101.26039618517</ele>
        <time>2021-05-30T09:59:13Z</time>
      </trkpt>
      <trkpt lat="46.42679" lon="0.25815">
        <ele>101.29256489126</ele>
        <time>2021-05-30T09:59:20Z</time>
      </trkpt>
      <trkpt lat="46.42676" lon="0.25826">
        <ele>101.32018542213</ele>
        <time>2021-05-30T09:59:26Z</time>
      </trkpt>
      <trkpt lat="46.42672" lon="0.25837">
        <ele>101.34767637444</ele>
        <time>2021-05-30T09:59:33Z</time>
      </trkpt>
      <trkpt lat="46.42668" lon="0.25847">
        <ele>101.38344496928</ele>
        <time>2021-05-30T09:59:42Z</time>
      </trkpt>
      <trkpt lat="46.42664" lon="0.25858">
        <ele>101.44829252982</ele>
        <time>2021-05-30T09:59:51Z</time>
      </trkpt>
      <trkpt lat="46.4266" lon="0.25869">
        <ele>101.52264554313</ele>
        <time>2021-05-30T09:59:58Z</time>
      </trkpt>
      <trkpt lat="46.42658" lon="0.25881">
        <ele>101.62152236458</ele>
        <time>2021-05-30T10:00:06Z</time>
      </trkpt>
      <trkpt lat="46.42656" lon="0.25892">
        <ele>101.70175386425</ele>
        <time>2021-05-30T10:00:12Z</time>
      </trkpt>
      <trkpt lat="46.42654" lon="0.25904">
        <ele>101.76960706284</ele>
        <time>2021-05-30T10:00:17Z</time>
      </trkpt>
      <trkpt lat="46.42651" lon="0.25915">
        <ele>101.86388677506</ele>
        <time>2021-05-30T10:00:24Z</time>
      </trkpt>
      <trkpt lat="46.42653" lon="0.25927">
        <ele>101.97796742264</ele>
        <time>2021-05-30T10:00:34Z</time>
      </trkpt>
      <trkpt lat="46.42654" lon="0.25939">
        <ele>102.04938118841</ele>
        <time>2021-05-30T10:00:40Z</time>
      </trkpt>
      <trkpt lat="46.42653" lon="0.25952">
        <ele>102.13281145841</ele>
        <time>2021-05-30T10:00:47Z</time>
      </trkpt>
      <trkpt lat="46.42651" lon="0.25964">
        <ele>102.21399665108</ele>
        <time>2021-05-30T10:00:54Z</time>
      </trkpt>
      <trkpt lat="46.42646" lon="0.25975">
        <ele>102.30346281332</ele>
        <time>2021-05-30T10:01:02Z</time>
      </trkpt>
      <trkpt lat="46.42644" lon="0.25988">
        <ele>102.37867199549</ele>
        <time>2021-05-30T10:01:09Z</time>
      </trkpt>
      <trkpt lat="46.42642" lon="0.25998">
        <ele>102.439585484</ele>
        <time>2021-05-30T10:01:15Z</time>
      </trkpt>
      <trkpt lat="46.4264" lon="0.26009">
        <ele>102.50765590319</ele>
        <time>2021-05-30T10:01:22Z</time>
      </trkpt>
      <trkpt lat="46.42639" lon="0.26021">
        <ele>102.57297703152</ele>
        <time>2021-05-30T10:01:29Z</time>
      </trkpt>
      <trkpt lat="46.42635" lon="0.26033">
        <ele>102.62991720256</ele>
        <time>2021-05-30T10:01:36Z</time>
      </trkpt>
      <trkpt lat="46.4263" lon="0.26041">
        <ele>102.68703951079</ele>
        <time>2021-05-30T10:01:45Z</time>
      </trkpt>
      <trkpt lat="46.42622" lon="0.26047">
        <ele>102.74631601549</ele>
        <time>2021-05-30T10:01:53Z</time>
      </trkpt>
      <trkpt lat="46.42617" lon="0.26055">
        <ele>102.80004090544</ele>
        <time>2021-05-30T10:02:00Z</time>
      </trkpt>
      <trkpt lat="46.42613" lon="0.26067">
        <ele>102.88474503873</ele>
        <time>2021-05-30T10:02:11Z</time>
      </trkpt>
      <trkpt lat="46.42607" lon="0.26075">
        <ele>102.92759978018</ele>
        <time>2021-05-30T10:02:17Z</time>
      </trkpt>
      <trkpt lat="46.42607" lon="0.26088">
        <ele>102.96573748304</ele>
        <time>2021-05-30T10:02:23Z</time>
      </trkpt>
      <trkpt lat="46.42613" lon="0.26098">
        <ele>103.01421940412</ele>
        <time>2021-05-30T10:02:31Z</time>
      </trkpt>
      <trkpt lat="46.42619" lon="0.26107">
        <ele>103.05892912975</ele>
        <time>2021-05-30T10:02:39Z</time>
      </trkpt>
      <trkpt lat="46.42625" lon="0.26115">
        <ele>103.08610144217</ele>
        <time>2021-05-30T10:02:47Z</time>
      </trkpt>
      <trkpt lat="46.42632" lon="0.26122">
        <ele>103.08685778199</ele>
        <time>2021-05-30T10:02:56Z</time>
      </trkpt>
      <trkpt lat="46.42637" lon="0.26132">
        <ele>103.04204627113</ele>
        <time>2021-05-30T10:03:08Z</time>
      </trkpt>
      <trkpt lat="46.42643" lon="0.26141">
        <ele>103.00868465756</ele>
        <time>2021-05-30T10:03:16Z</time>
      </trkpt>
      <trkpt lat="46.42649" lon="0.26151">
        <ele>102.98849777945</ele>
        <time>2021-05-30T10:03:24Z</time>
      </trkpt>
      <trkpt lat="46.4265" lon="0.26162">
        <ele>102.95030585282</ele>
        <time>2021-05-30T10:03:37Z</time>
      </trkpt>
      <trkpt lat="46.42664" lon="0.26202">
        <ele>102.94347218208</ele>
        <time>2021-05-30T10:03:42Z</time>
      </trkpt>
      <trkpt lat="46.42658" lon="0.26209">
        <ele>102.80914442957</ele>
        <time>2021-05-30T10:04:09Z</time>
      </trkpt>
      <trkpt lat="46.42654" lon="0.26219">
        <ele>102.75947128942</ele>
        <time>2021-05-30T10:04:14Z</time>
      </trkpt>
      <trkpt lat="46.42649" lon="0.26228">
        <ele>102.68509767983</ele>
        <time>2021-05-30T10:04:20Z</time>
      </trkpt>
      <trkpt lat="46.42644" lon="0.26237">
        <ele>102.58221277206</ele>
        <time>2021-05-30T10:04:27Z</time>
      </trkpt>
      <trkpt lat="46.42639" lon="0.26247">
        <ele>102.44196431426</ele>
        <time>2021-05-30T10:04:35Z</time>
      </trkpt>
      <trkpt lat="46.42633" lon="0.26256">
        <ele>102.30843717872</ele>
        <time>2021-05-30T10:04:42Z</time>
      </trkpt>
      <trkpt lat="46.42627" lon="0.26265">
        <ele>102.16501187916</ele>
        <time>2021-05-30T10:04:49Z</time>
      </trkpt>
      <trkpt lat="46.42621" lon="0.26273">
        <ele>102.01579569858</ele>
        <time>2021-05-30T10:04:56Z</time>
      </trkpt>
      <trkpt lat="46.42616" lon="0.26283">
        <ele>101.46077025122</ele>
        <time>2021-05-30T10:05:29Z</time>
      </trkpt>
      <trkpt lat="46.42616" lon="0.26284">
        <ele>101.45469523868</ele>
        <time>2021-05-30T10:05:31Z</time>
      </trkpt>
      <trkpt lat="46.42616" lon="0.26284">
        <ele>101.45469523868</ele>
        <time>2021-05-30T10:05:32Z</time>
      </trkpt>
      <trkpt lat="46.426" lon="0.26284">
        <ele>91.941384873276</ele>
        <time>2021-05-30T06:53:48Z</time>
      </trkpt>
      <trkpt lat="46.426" lon="0.26284">
        <ele>91.941384873276</ele>
        <time>2021-05-30T06:53:48Z</time>
      </trkpt>
      <trkpt lat="46.42609" lon="0.26296">
        <ele>101.66697590347</ele>
        <time>2021-05-30T06:53:53Z</time>
      </trkpt>
      <trkpt lat="46.42598" lon="0.26288">
        <ele>112.09984915697</ele>
        <time>2021-05-30T06:53:58Z</time>
      </trkpt>
      <trkpt lat="46.42604" lon="0.26291">
        <ele>98.670415129253</ele>
        <time>2021-05-30T06:54:57Z</time>
      </trkpt>
    </trkseg>
  </trk>
</gpx>